
Distance (Route):
Temperature : 16.1°C
Humidity : 0%
Pressure : 830.8hPa| Receiver | Frames | First received | Last received |
|---|---|---|---|
| PU1XMG-16 | 1104 | 2026-08-30 23:31:26 | 2026-08-31 01:25:23 |
| Receiver | Date | Latitude | Longitude | Direction | Speed | Altitude | Climb | Temperature | Humidity | Pressure | Voltage | Killtimer | Uptime | BKT | XDATA |
|---|---|---|---|---|---|---|---|---|---|---|---|---|---|---|---|
| PU1XMG-16 | 2026-08-31 01:25:23 | -22.77762 | -42.58896 | 106° | 22km/h | 1729m | -7.2m/s | 16.1°C | 0% | 830.8hPa | 0V | 07:51:00 | 00:00:00 | 00:00:00 | |
| PU1XMG-16 | 2026-08-31 01:25:17 | -22.77755 | -42.58919 | 114° | 16km/h | 1769m | -10.3m/s | 16.1°C | 0% | 827.0hPa | 0V | 07:51:00 | 00:00:00 | 00:00:00 | |
| PU1XMG-16 | 2026-08-31 01:25:12 | -22.77744 | -42.58938 | 133° | 15km/h | 1822m | -10.0m/s | 16.0°C | 0% | 821.9hPa | 0V | 07:51:00 | 00:00:00 | 00:00:00 | |
| PU1XMG-16 | 2026-08-31 01:25:06 | -22.77731 | -42.58956 | 137° | 13km/h | 1881m | -10.3m/s | 15.8°C | 0% | 816.2hPa | 0V | 07:51:00 | 00:00:00 | 00:00:00 | |
| PU1XMG-16 | 2026-08-31 01:25:00 | -22.77716 | -42.58967 | 171° | 11km/h | 1941m | -12.1m/s | 15.7°C | 0% | 810.8hPa | 0V | 07:52:00 | 00:00:00 | 00:00:00 | |
| PU1XMG-16 | 2026-08-31 01:24:55 | -22.77698 | -42.58970 | 183° | 15km/h | 2003m | -8.9m/s | 15.4°C | 0% | 804.6hPa | 0V | 07:52:00 | 00:00:00 | 00:00:00 | |
| PU1XMG-16 | 2026-08-31 01:24:47 | -22.77673 | -42.58967 | 190° | 15km/h | 2061m | -8.2m/s | 15.2°C | 0% | 799.0hPa | 0V | 07:52:00 | 00:00:00 | 00:00:00 | |
| PU1XMG-16 | 2026-08-31 01:24:43 | -22.77655 | -42.58961 | 199° | 15km/h | 2102m | -8.4m/s | 15.0°C | 0% | 795.2hPa | 0V | 07:52:00 | 00:00:00 | 00:00:00 | |
| PU1XMG-16 | 2026-08-31 01:24:37 | -22.77632 | -42.58949 | 209° | 20km/h | 2152m | -8.8m/s | 14.7°C | 0% | 790.6hPa | 0V | 07:52:00 | 00:00:00 | 00:00:00 | |
| PU1XMG-16 | 2026-08-31 01:24:31 | -22.77605 | -42.58935 | 201° | 20km/h | 2200m | -8.4m/s | 14.5°C | 0% | 786.0hPa | 0V | 07:52:00 | 00:00:00 | 00:00:00 | |
| PU1XMG-16 | 2026-08-31 01:24:24 | -22.77577 | -42.58920 | 214° | 22km/h | 2250m | -8.7m/s | 14.2°C | 0% | 781.5hPa | 0V | 07:52:00 | 00:00:00 | 00:00:00 | |
| PU1XMG-16 | 2026-08-31 01:24:19 | -22.77551 | -42.58903 | 214° | 24km/h | 2293m | -9.0m/s | 14.0°C | 0% | 777.5hPa | 0V | 07:52:00 | 00:00:00 | 00:00:00 | |
| PU1XMG-16 | 2026-08-31 01:24:13 | -22.77520 | -42.58881 | 216° | 26km/h | 2345m | -8.8m/s | 13.6°C | 99.8% | 772.8hPa | 0V | 07:52:00 | 00:00:00 | 00:00:00 | |
| PU1XMG-16 | 2026-08-31 01:24:08 | -22.77488 | -42.58859 | 218° | 24km/h | 2397m | -8.9m/s | 14.1°C | 81.6% | 768.1hPa | 0V | 07:53:00 | 00:00:00 | 00:00:00 | |
| PU1XMG-16 | 2026-08-31 01:23:56 | -22.77433 | -42.58822 | 210° | 22km/h | 2493m | -9.3m/s | 14.1°C | 75.5% | 759.5hPa | 0V | 07:53:00 | 00:00:00 | 00:00:00 | |
| PU1XMG-16 | 2026-08-31 01:23:51 | -22.77410 | -42.58808 | 208° | 20km/h | 2537m | -8.7m/s | 13.9°C | 74.1% | 755.5hPa | 0V | 07:53:00 | 00:00:00 | 00:00:00 | |
| PU1XMG-16 | 2026-08-31 01:23:45 | -22.77385 | -42.58794 | 212° | 18km/h | 2588m | -9.0m/s | 13.5°C | 72.0% | 751.0hPa | 0V | 07:53:00 | 00:00:00 | 00:00:00 | |
| PU1XMG-16 | 2026-08-31 01:23:40 | -22.77365 | -42.58781 | 208° | 18km/h | 2632m | -8.8m/s | 13.2°C | 71.4% | 747.0hPa | 0V | 07:53:00 | 00:00:00 | 00:00:00 | |
| PU1XMG-16 | 2026-08-31 01:23:35 | -22.77346 | -42.58771 | 205° | 16km/h | 2675m | -8.9m/s | 12.8°C | 72.6% | 743.2hPa | 0V | 07:53:00 | 00:00:00 | 00:00:00 | |
| PU1XMG-16 | 2026-08-31 01:23:29 | -22.77326 | -42.58759 | 211° | 13km/h | 2726m | -8.8m/s | 12.2°C | 77.8% | 738.6hPa | 0V | 07:53:00 | 00:00:00 | 00:00:00 | |
| PU1XMG-16 | 2026-08-31 01:23:23 | -22.77308 | -42.58748 | 218° | 13km/h | 2779m | -8.9m/s | 11.6°C | 87.9% | 734.1hPa | 0V | 07:53:00 | 00:00:00 | 00:00:00 | |
| PU1XMG-16 | 2026-08-31 01:23:18 | -22.77293 | -42.58735 | 217° | 11km/h | 2831m | -9.0m/s | 11.1°C | 92.1% | 729.5hPa | 0V | 07:54:00 | 00:00:00 | 00:00:00 | |
| PU1XMG-16 | 2026-08-31 01:23:11 | -22.77278 | -42.58723 | 215° | 11km/h | 2884m | -9.0m/s | 10.7°C | 97.3% | 725.0hPa | 0V | 07:54:00 | 00:00:00 | 00:00:00 | |
| PU1XMG-16 | 2026-08-31 01:23:06 | -22.77263 | -42.58710 | 215° | 15km/h | 2936m | -8.9m/s | 10.3°C | 91.7% | 720.5hPa | 0V | 07:54:00 | 00:00:00 | 00:00:00 | |
| PU1XMG-16 | 2026-08-31 01:23:01 | -22.77249 | -42.58699 | 217° | 15km/h | 2980m | -9.0m/s | 10.0°C | 92.6% | 716.7hPa | 0V | 07:54:00 | 00:00:00 | 00:00:00 | |
| PU1XMG-16 | 2026-08-31 01:22:55 | -22.77233 | -42.58689 | 217° | 15km/h | 3024m | -9.0m/s | 9.7°C | 91.7% | 713.0hPa | 0V | 07:54:00 | 00:00:00 | 00:00:00 | |
| PU1XMG-16 | 2026-08-31 01:22:50 | -22.77216 | -42.58678 | 217° | 15km/h | 3068m | -9.4m/s | 9.4°C | 92.0% | 709.2hPa | 0V | 07:54:00 | 00:00:00 | 00:00:00 | |
| PU1XMG-16 | 2026-08-31 01:22:44 | -22.77197 | -42.58663 | 214° | 15km/h | 3121m | -9.0m/s | 9.2°C | 86.6% | 704.6hPa | 0V | 07:54:00 | 00:00:00 | 00:00:00 | |
| PU1XMG-16 | 2026-08-31 01:22:38 | -22.77181 | -42.58650 | 217° | 13km/h | 3174m | -8.9m/s | 8.8°C | 81.5% | 700.1hPa | 0V | 07:54:00 | 00:00:00 | 00:00:00 | |
| PU1XMG-16 | 2026-08-31 01:22:33 | -22.77168 | -42.58639 | 224° | 13km/h | 3219m | -9.4m/s | 8.6°C | 74.8% | 696.4hPa | 0V | 07:54:00 | 00:00:00 | 00:00:00 | |
| PU1XMG-16 | 2026-08-31 01:22:27 | -22.77156 | -42.58625 | 226° | 11km/h | 3273m | -9.3m/s | 8.1°C | 71.8% | 692.0hPa | 0V | 07:55:00 | 00:00:00 | 00:00:00 | |
| PU1XMG-16 | 2026-08-31 01:22:21 | -22.77145 | -42.58613 | 233° | 11km/h | 3326m | -9.0m/s | 7.7°C | 68.5% | 687.5hPa | 0V | 07:55:00 | 00:00:00 | 00:00:00 | |
| PU1XMG-16 | 2026-08-31 01:22:15 | -22.77134 | -42.58602 | 237° | 9km/h | 3378m | -9.0m/s | 7.4°C | 63.8% | 683.1hPa | 0V | 07:55:00 | 00:00:00 | 00:00:00 | |
| PU1XMG-16 | 2026-08-31 01:22:10 | -22.77126 | -42.58593 | 220° | 9km/h | 3422m | -8.9m/s | 7.0°C | 62.4% | 679.6hPa | 0V | 07:55:00 | 00:00:00 | 00:00:00 | |
| PU1XMG-16 | 2026-08-31 01:22:04 | -22.77116 | -42.58583 | 218° | 9km/h | 3475m | -8.7m/s | 6.6°C | 62.9% | 675.2hPa | 0V | 07:55:00 | 00:00:00 | 00:00:00 | |
| PU1XMG-16 | 2026-08-31 01:21:59 | -22.77108 | -42.58575 | 213° | 9km/h | 3518m | -8.8m/s | 6.3°C | 68.1% | 671.7hPa | 0V | 07:55:00 | 00:00:00 | 00:00:00 | |
| PU1XMG-16 | 2026-08-31 01:21:53 | -22.77097 | -42.58568 | 207° | 7km/h | 3571m | -9.3m/s | 5.8°C | 76.0% | 667.3hPa | 0V | 07:55:00 | 00:00:00 | 00:00:00 | |
| PU1XMG-16 | 2026-08-31 01:21:47 | -22.77086 | -42.58565 | 190° | 7km/h | 3625m | -9.2m/s | 5.4°C | 76.4% | 663.0hPa | 0V | 07:55:00 | 00:00:00 | 00:00:00 | |
| PU1XMG-16 | 2026-08-31 01:21:43 | -22.77076 | -42.58564 | 183° | 9km/h | 3670m | -9.1m/s | 5.0°C | 76.3% | 659.3hPa | 0V | 07:55:00 | 00:00:00 | 00:00:00 | |
| PU1XMG-16 | 2026-08-31 01:21:36 | -22.77063 | -42.58566 | 155° | 7km/h | 3724m | -9.4m/s | 4.6°C | 78.8% | 655.1hPa | 0V | 07:56:00 | 00:00:00 | 00:00:00 | |
| PU1XMG-16 | 2026-08-31 01:21:26 | -22.77038 | -42.58579 | 149° | 11km/h | 3822m | -9.2m/s | 3.8°C | 78.3% | 647.2hPa | 0V | 07:56:00 | 00:00:00 | 00:00:00 | |
| PU1XMG-16 | 2026-08-31 01:21:20 | -22.77027 | -42.58589 | 143° | 11km/h | 3866m | -9.4m/s | 3.4°C | 80.7% | 643.7hPa | 0V | 07:56:00 | 00:00:00 | 00:00:00 | |
| PU1XMG-16 | 2026-08-31 01:21:14 | -22.77014 | -42.58603 | 138° | 13km/h | 3920m | -9.1m/s | 2.9°C | 89.4% | 639.5hPa | 0V | 07:56:00 | 00:00:00 | 00:00:00 | |
| PU1XMG-16 | 2026-08-31 01:21:09 | -22.77003 | -42.58614 | 134° | 11km/h | 3965m | -8.9m/s | 2.6°C | 87.9% | 636.0hPa | 0V | 07:56:00 | 00:00:00 | 00:00:00 | |
| PU1XMG-16 | 2026-08-31 01:21:04 | -22.76993 | -42.58626 | 137° | 11km/h | 4009m | -9.3m/s | 2.2°C | 92.7% | 632.5hPa | 0V | 07:56:00 | 00:00:00 | 00:00:00 | |
| PU1XMG-16 | 2026-08-31 01:20:58 | -22.76981 | -42.58641 | 128° | 11km/h | 4064m | -9.4m/s | 1.7°C | 96.1% | 628.3hPa | 0V | 07:56:00 | 00:00:00 | 00:00:00 | |
| PU1XMG-16 | 2026-08-31 01:20:52 | -22.76968 | -42.58658 | 126° | 13km/h | 4118m | -9.4m/s | 1.4°C | 0% | 624.0hPa | 0V | 07:56:00 | 00:00:00 | 00:00:00 | |
| PU1XMG-16 | 2026-08-31 01:20:47 | -22.76957 | -42.58674 | 127° | 15km/h | 4163m | -9.0m/s | 1.2°C | 82.9% | 620.7hPa | 0V | 07:56:00 | 00:00:00 | 00:00:00 | |
| PU1XMG-16 | 2026-08-31 01:20:42 | -22.76943 | -42.58692 | 135° | 13km/h | 4217m | -9.1m/s | 1.0°C | 87.0% | 616.5hPa | 0V | 07:57:00 | 00:00:00 | 00:00:00 | |
| PU1XMG-16 | 2026-08-31 01:20:36 | -22.76929 | -42.58706 | 142° | 16km/h | 4262m | -9.3m/s | 0.7°C | 87.4% | 613.1hPa | 0V | 07:57:00 | 00:00:00 | 00:00:00 | |
| PU1XMG-16 | 2026-08-31 01:20:31 | -22.76912 | -42.58720 | 137° | 16km/h | 4307m | -9.2m/s | 0.3°C | 90.4% | 609.6hPa | 0V | 07:57:00 | 00:00:00 | 00:00:00 | |
| PU1XMG-16 | 2026-08-31 01:20:19 | -22.76873 | -42.58759 | 134° | 18km/h | 4415m | -9.2m/s | -0.3°C | 82.0% | 601.4hPa | 0V | 07:57:00 | 00:00:00 | 00:00:00 | |
| PU1XMG-16 | 2026-08-31 01:20:14 | -22.76856 | -42.58779 | 133° | 20km/h | 4460m | -8.9m/s | -0.6°C | 86.9% | 598.2hPa | 0V | 07:57:00 | 00:00:00 | 00:00:00 | |
| PU1XMG-16 | 2026-08-31 01:20:09 | -22.76838 | -42.58801 | 133° | 20km/h | 4505m | -9.3m/s | -1.0°C | 89.6% | 594.9hPa | 0V | 07:57:00 | 00:00:00 | 00:00:00 | |
| PU1XMG-16 | 2026-08-31 01:20:03 | -22.76814 | -42.58830 | 131° | 26km/h | 4559m | -9.1m/s | -1.3°C | 85.4% | 590.9hPa | 0V | 07:57:00 | 00:00:00 | 00:00:00 | |
| PU1XMG-16 | 2026-08-31 01:19:58 | -22.76792 | -42.58858 | 132° | 27km/h | 4604m | -9.3m/s | -1.7°C | 85.1% | 587.5hPa | 0V | 07:57:00 | 00:00:00 | 00:00:00 | |
| PU1XMG-16 | 2026-08-31 01:19:47 | -22.76730 | -42.58934 | 135° | 33km/h | 4712m | -9.3m/s | -2.2°C | 95.3% | 579.7hPa | 0V | 07:57:00 | 00:00:00 | 00:00:00 | |
| PU1XMG-16 | 2026-08-31 01:19:40 | -22.76693 | -42.58976 | 136° | 35km/h | 4766m | -9.3m/s | -2.6°C | 94.9% | 575.7hPa | 0V | 07:57:00 | 00:00:00 | 00:00:00 | |
| PU1XMG-16 | 2026-08-31 01:19:34 | -22.76656 | -42.59020 | 131° | 35km/h | 4819m | -9.0m/s | -2.9°C | 97.7% | 571.8hPa | 0V | 07:57:00 | 00:00:00 | 00:00:00 | |
| PU1XMG-16 | 2026-08-31 01:19:29 | -22.76627 | -42.59058 | 131° | 37km/h | 4864m | -9.2m/s | -3.1°C | 99.3% | 568.7hPa | 0V | 07:57:00 | 00:00:00 | 00:00:00 | |
| PU1XMG-16 | 2026-08-31 01:19:24 | -22.76598 | -42.59096 | 127° | 37km/h | 4908m | -9.5m/s | -3.1°C | 0% | 565.4hPa | 0V | 07:57:00 | 00:00:00 | 00:00:00 | |
| PU1XMG-16 | 2026-08-31 01:19:18 | -22.76564 | -42.59145 | 124° | 37km/h | 4962m | -9.5m/s | -3.5°C | 98.7% | 561.6hPa | 0V | 07:57:00 | 00:00:00 | 00:00:00 | |
| PU1XMG-16 | 2026-08-31 01:19:13 | -22.76537 | -42.59187 | 127° | 38km/h | 5008m | -9.4m/s | -3.8°C | 0% | 558.4hPa | 0V | 07:57:00 | 00:00:00 | 00:00:00 | |
| PU1XMG-16 | 2026-08-31 01:19:07 | -22.76501 | -42.59237 | 129° | 38km/h | 5062m | -9.3m/s | -4.0°C | 96.1% | 554.6hPa | 0V | 07:57:00 | 00:00:00 | 00:00:00 | |
| PU1XMG-16 | 2026-08-31 01:19:01 | -22.76462 | -42.59286 | 131° | 40km/h | 5116m | -9.4m/s | -4.2°C | 93.3% | 550.8hPa | 0V | 07:58:00 | 00:00:00 | 00:00:00 | |
| PU1XMG-16 | 2026-08-31 01:18:56 | -22.76427 | -42.59327 | 135° | 42km/h | 5161m | -9.1m/s | -4.5°C | 90.8% | 547.7hPa | 0V | 07:58:00 | 00:00:00 | 00:00:00 | |
| PU1XMG-16 | 2026-08-31 01:18:51 | -22.76389 | -42.59370 | 135° | 44km/h | 5208m | -9.5m/s | -4.8°C | 91.6% | 544.5hPa | 0V | 07:58:00 | 00:00:00 | 00:00:00 | |
| PU1XMG-16 | 2026-08-31 01:18:46 | -22.76342 | -42.59423 | 135° | 44km/h | 5263m | -9.5m/s | -5.0°C | 98.0% | 540.8hPa | 0V | 07:58:00 | 00:00:00 | 00:00:00 | |
| PU1XMG-16 | 2026-08-31 01:18:40 | -22.76302 | -42.59470 | 132° | 46km/h | 5310m | -9.3m/s | -5.1°C | 90.8% | 537.6hPa | 0V | 07:58:00 | 00:00:00 | 00:00:00 | |
| PU1XMG-16 | 2026-08-31 01:18:34 | -22.76256 | -42.59527 | 130° | 47km/h | 5364m | -9.3m/s | -5.4°C | 90.0% | 533.9hPa | 0V | 07:58:00 | 00:00:00 | 00:00:00 | |
| PU1XMG-16 | 2026-08-31 01:18:29 | -22.76221 | -42.59577 | 125° | 44km/h | 5410m | -9.2m/s | -5.5°C | 77.6% | 530.7hPa | 0V | 07:58:00 | 00:00:00 | 00:00:00 | |
| PU1XMG-16 | 2026-08-31 01:18:24 | -22.76185 | -42.59636 | 125° | 42km/h | 5464m | -9.5m/s | -5.8°C | 69.0% | 527.1hPa | 0V | 07:58:00 | 00:00:00 | 00:00:00 | |
| PU1XMG-16 | 2026-08-31 01:18:18 | -22.76151 | -42.59693 | 121° | 42km/h | 5520m | -9.4m/s | -6.1°C | 78.8% | 523.5hPa | 0V | 07:58:00 | 00:00:00 | 00:00:00 | |
| PU1XMG-16 | 2026-08-31 01:18:12 | -22.76123 | -42.59742 | 125° | 40km/h | 5567m | -9.8m/s | -6.1°C | 61.1% | 520.3hPa | 0V | 07:59:00 | 00:00:00 | 00:00:00 | |
| PU1XMG-16 | 2026-08-31 01:18:08 | -22.76094 | -42.59789 | 126° | 40km/h | 5613m | -9.3m/s | -6.5°C | 65.5% | 517.3hPa | 0V | 07:59:00 | 00:00:00 | 00:00:00 | |
| PU1XMG-16 | 2026-08-31 01:18:01 | -22.76055 | -42.59843 | 129° | 40km/h | 5670m | -9.9m/s | -6.7°C | 56.1% | 513.6hPa | 0V | 07:59:00 | 00:00:00 | 00:00:00 | |
| PU1XMG-16 | 2026-08-31 01:17:56 | -22.76021 | -42.59884 | 134° | 40km/h | 5717m | -9.6m/s | -6.9°C | 52.4% | 510.5hPa | 0V | 07:59:00 | 00:00:00 | 00:00:00 | |
| PU1XMG-16 | 2026-08-31 01:17:51 | -22.75978 | -42.59935 | 132° | 42km/h | 5773m | -9.2m/s | -7.2°C | 51.0% | 506.8hPa | 0V | 07:59:00 | 00:00:00 | 00:00:00 | |
| PU1XMG-16 | 2026-08-31 01:17:45 | -22.75941 | -42.59980 | 133° | 44km/h | 5815m | -7.7m/s | -7.6°C | 51.5% | 504.0hPa | 0V | 07:59:00 | 00:00:00 | 00:00:00 | |
| PU1XMG-16 | 2026-08-31 01:17:40 | -22.75901 | -42.60026 | 134° | 47km/h | 5852m | -7.9m/s | -7.7°C | 47.9% | 501.6hPa | 0V | 07:59:00 | 00:00:00 | 00:00:00 | |
| PU1XMG-16 | 2026-08-31 01:17:35 | -22.75849 | -42.60086 | 134° | 51km/h | 5899m | -7.6m/s | -7.7°C | 42.7% | 498.8hPa | 0V | 07:59:00 | 00:00:00 | 00:00:00 | |
| PU1XMG-16 | 2026-08-31 01:17:29 | -22.75805 | -42.60135 | 135° | 49km/h | 5938m | -7.8m/s | -7.7°C | 38.8% | 496.3hPa | 0V | 07:59:00 | 00:00:00 | 00:00:00 | |
| PU1XMG-16 | 2026-08-31 01:17:23 | -22.75753 | -42.60195 | 134° | 49km/h | 5985m | -8.4m/s | -8.6°C | 39.6% | 493.2hPa | 0V | 07:59:00 | 00:00:00 | 00:00:00 | |
| PU1XMG-16 | 2026-08-31 01:17:18 | -22.75710 | -42.60246 | 134° | 51km/h | 6028m | -7.9m/s | -9.1°C | 43.0% | 490.5hPa | 0V | 08:00:00 | 00:00:00 | 00:00:00 | |
| PU1XMG-16 | 2026-08-31 01:17:12 | -22.75654 | -42.60306 | 134° | 53km/h | 6075m | -8.9m/s | -8.9°C | 40.6% | 487.5hPa | 0V | 08:00:00 | 00:00:00 | 00:00:00 | |
| PU1XMG-16 | 2026-08-31 01:17:06 | -22.75596 | -42.60367 | 137° | 53km/h | 6133m | -10.0m/s | -9.5°C | 41.6% | 484.0hPa | 0V | 08:00:00 | 00:00:00 | 00:00:00 | |
| PU1XMG-16 | 2026-08-31 01:17:01 | -22.75543 | -42.60412 | 143° | 53km/h | 6183m | -10.2m/s | -9.8°C | 41.1% | 480.8hPa | 0V | 08:00:00 | 00:00:00 | 00:00:00 | |
| PU1XMG-16 | 2026-08-31 01:16:55 | -22.75480 | -42.60469 | 141° | 55km/h | 6244m | -9.7m/s | -10.3°C | 41.8% | 477.1hPa | 0V | 08:00:00 | 00:00:00 | 00:00:00 | |
| PU1XMG-16 | 2026-08-31 01:16:50 | -22.75417 | -42.60530 | 138° | 55km/h | 6303m | -9.4m/s | -10.9°C | 44.8% | 473.4hPa | 0V | 08:00:00 | 00:00:00 | 00:00:00 | |
| PU1XMG-16 | 2026-08-31 01:16:44 | -22.75367 | -42.60583 | 135° | 57km/h | 6348m | -9.2m/s | -11.3°C | 45.1% | 470.6hPa | 0V | 08:00:00 | 00:00:00 | 00:00:00 | |
| PU1XMG-16 | 2026-08-31 01:16:38 | -22.75310 | -42.60650 | 130° | 55km/h | 6402m | -8.5m/s | -11.9°C | 46.5% | 467.3hPa | 0V | 08:00:00 | 00:00:00 | 00:00:00 | |
| PU1XMG-16 | 2026-08-31 01:16:34 | -22.75267 | -42.60707 | 130° | 53km/h | 6443m | -7.8m/s | -12.3°C | 47.6% | 464.9hPa | 0V | 08:00:00 | 00:00:00 | 00:00:00 | |
| PU1XMG-16 | 2026-08-31 01:16:28 | -22.75215 | -42.60777 | 129° | 55km/h | 6491m | -7.9m/s | -12.7°C | 49.0% | 462.0hPa | 0V | 08:01:00 | 00:00:00 | 00:00:00 | |
| PU1XMG-16 | 2026-08-31 01:16:21 | -22.75164 | -42.60850 | 127° | 57km/h | 6538m | -8.1m/s | -13.2°C | 50.4% | 459.1hPa | 0V | 08:01:00 | 00:00:00 | 00:00:00 | |
| PU1XMG-16 | 2026-08-31 01:16:17 | -22.75122 | -42.60910 | 129° | 55km/h | 6575m | -7.7m/s | -13.5°C | 52.9% | 456.8hPa | 0V | 08:01:00 | 00:00:00 | 00:00:00 | |
| PU1XMG-16 | 2026-08-31 01:16:11 | -22.75067 | -42.60980 | 133° | 55km/h | 6626m | -8.7m/s | -14.1°C | 54.8% | 453.9hPa | 0V | 08:01:00 | 00:00:00 | 00:00:00 | |
| PU1XMG-16 | 2026-08-31 01:16:05 | -22.75006 | -42.61044 | 138° | 57km/h | 6676m | -8.4m/s | -14.5°C | 53.9% | 450.9hPa | 0V | 08:01:00 | 00:00:00 | 00:00:00 | |
| PU1XMG-16 | 2026-08-31 01:15:59 | -22.74952 | -42.61101 | 137° | 58km/h | 6723m | -9.9m/s | -15.0°C | 59.1% | 448.3hPa | 0V | 08:01:00 | 00:00:00 | 00:00:00 | |
| PU1XMG-16 | 2026-08-31 01:15:53 | -22.74885 | -42.61172 | 134° | 66km/h | 6781m | -9.8m/s | -15.3°C | 61.9% | 444.8hPa | 0V | 08:01:00 | 00:00:00 | 00:00:00 | |
| PU1XMG-16 | 2026-08-31 01:15:48 | -22.74824 | -42.61257 | 123° | 64km/h | 6842m | -10.4m/s | -14.1°C | 72.4% | 441.2hPa | 0V | 08:01:00 | 00:00:00 | 00:00:00 | |
| PU1XMG-16 | 2026-08-31 01:15:41 | -22.74775 | -42.61344 | 121° | 60km/h | 6903m | -10.4m/s | -14.1°C | 75.5% | 437.7hPa | 0V | 08:01:00 | 00:00:00 | 00:00:00 | |
| PU1XMG-16 | 2026-08-31 01:15:36 | -22.74731 | -42.61430 | 119° | 60km/h | 6964m | -11.0m/s | -14.0°C | 77.9% | 434.1hPa | 0V | 08:02:00 | 00:00:00 | 00:00:00 | |
| PU1XMG-16 | 2026-08-31 01:15:30 | -22.74696 | -42.61500 | 118° | 58km/h | 7017m | -10.4m/s | -14.4°C | 77.9% | 431.2hPa | 0V | 08:02:00 | 00:00:00 | 00:00:00 | |
| PU1XMG-16 | 2026-08-31 01:15:25 | -22.74653 | -42.61583 | 120° | 58km/h | 7079m | -10.3m/s | -14.9°C | 79.0% | 427.7hPa | 0V | 08:02:00 | 00:00:00 | 00:00:00 | |
| PU1XMG-16 | 2026-08-31 01:15:21 | -22.74620 | -42.61649 | 120° | 53km/h | 7131m | -10.5m/s | -15.3°C | 79.9% | 424.7hPa | 0V | 08:02:00 | 00:00:00 | 00:00:00 | |
| PU1XMG-16 | 2026-08-31 01:15:14 | -22.74583 | -42.61726 | 119° | 51km/h | 7194m | -10.7m/s | -15.6°C | 78.8% | 421.3hPa | 0V | 08:02:00 | 00:00:00 | 00:00:00 | |
| PU1XMG-16 | 2026-08-31 01:15:08 | -22.74554 | -42.61788 | 113° | 51km/h | 7245m | -10.1m/s | -16.0°C | 80.2% | 418.4hPa | 0V | 08:02:00 | 00:00:00 | 00:00:00 | |
| PU1XMG-16 | 2026-08-31 01:14:57 | -22.74503 | -42.61932 | 107° | 51km/h | 7356m | -10.0m/s | -16.4°C | 80.5% | 412.3hPa | 0V | 08:02:00 | 00:00:00 | 00:00:00 | |
| PU1XMG-16 | 2026-08-31 01:14:51 | -22.74483 | -42.62017 | 103° | 53km/h | 7417m | -10.1m/s | -16.6°C | 82.7% | 408.9hPa | 0V | 08:02:00 | 00:00:00 | 00:00:00 | |
| PU1XMG-16 | 2026-08-31 01:14:46 | -22.74470 | -42.62086 | 101° | 53km/h | 7467m | -10.1m/s | -16.9°C | 83.4% | 406.2hPa | 0V | 08:03:00 | 00:00:00 | 00:00:00 | |
| PU1XMG-16 | 2026-08-31 01:14:35 | -22.74436 | -42.62255 | 105° | 51km/h | 7587m | -10.4m/s | -17.6°C | 83.1% | 399.9hPa | 0V | 08:03:00 | 00:00:00 | 00:00:00 | |
| PU1XMG-16 | 2026-08-31 01:14:29 | -22.74420 | -42.62323 | 109° | 49km/h | 7639m | -10.0m/s | -17.9°C | 82.3% | 397.2hPa | 0V | 08:03:00 | 00:00:00 | 00:00:00 | |
| PU1XMG-16 | 2026-08-31 01:14:24 | -22.74401 | -42.62388 | 107° | 47km/h | 7689m | -9.3m/s | -18.2°C | 81.3% | 394.6hPa | 0V | 08:03:00 | 00:00:00 | 00:00:00 | |
| PU1XMG-16 | 2026-08-31 01:14:19 | -22.74385 | -42.62452 | 106° | 47km/h | 7735m | -9.6m/s | -18.5°C | 81.8% | 392.0hPa | 0V | 08:03:00 | 00:00:00 | 00:00:00 | |
| PU1XMG-16 | 2026-08-31 01:14:14 | -22.74369 | -42.62516 | 103° | 49km/h | 7784m | -9.7m/s | -18.9°C | 81.5% | 389.5hPa | 0V | 08:03:00 | 00:00:00 | 00:00:00 | |
| PU1XMG-16 | 2026-08-31 01:14:08 | -22.74349 | -42.62599 | 106° | 53km/h | 7843m | -9.8m/s | -19.0°C | 81.2% | 386.4hPa | 0V | 08:03:00 | 00:00:00 | 00:00:00 | |
| PU1XMG-16 | 2026-08-31 01:14:03 | -22.74332 | -42.62671 | 106° | 53km/h | 7891m | -9.8m/s | -19.3°C | 81.2% | 383.9hPa | 0V | 08:03:00 | 00:00:00 | 00:00:00 | |
| PU1XMG-16 | 2026-08-31 01:13:57 | -22.74311 | -42.62758 | 102° | 57km/h | 7949m | -10.0m/s | -19.7°C | 80.7% | 380.9hPa | 0V | 08:03:00 | 00:00:00 | 00:00:00 | |
| PU1XMG-16 | 2026-08-31 01:13:52 | -22.74293 | -42.62835 | 105° | 58km/h | 7998m | -9.8m/s | -20.1°C | 80.5% | 378.5hPa | 0V | 08:03:00 | 00:00:00 | 00:00:00 | |
| PU1XMG-16 | 2026-08-31 01:13:47 | -22.74271 | -42.62914 | 109° | 58km/h | 8047m | -9.6m/s | -20.4°C | 79.9% | 375.9hPa | 0V | 08:03:00 | 00:00:00 | 00:00:00 | |
| PU1XMG-16 | 2026-08-31 01:13:41 | -22.74243 | -42.63006 | 109° | 60km/h | 8105m | -9.9m/s | -20.8°C | 79.2% | 372.9hPa | 0V | 08:03:00 | 00:00:00 | 00:00:00 | |
| PU1XMG-16 | 2026-08-31 01:13:36 | -22.74215 | -42.63099 | 110° | 58km/h | 8164m | -10.1m/s | -21.2°C | 78.6% | 370.0hPa | 0V | 08:03:00 | 00:00:00 | 00:00:00 | |
| PU1XMG-16 | 2026-08-31 01:13:30 | -22.74193 | -42.63173 | 107° | 57km/h | 8214m | -10.2m/s | -21.6°C | 78.9% | 367.6hPa | 0V | 08:03:00 | 00:00:00 | 00:00:00 | |
| PU1XMG-16 | 2026-08-31 01:13:24 | -22.74169 | -42.63260 | 108° | 55km/h | 8273m | -9.9m/s | -22.0°C | 78.3% | 364.6hPa | 0V | 08:03:00 | 00:00:00 | 00:00:00 | |
| PU1XMG-16 | 2026-08-31 01:13:19 | -22.74148 | -42.63330 | 107° | 51km/h | 8322m | -9.9m/s | -22.3°C | 78.3% | 362.2hPa | 0V | 08:03:00 | 00:00:00 | 00:00:00 | |
| PU1XMG-16 | 2026-08-31 01:13:13 | -22.74127 | -42.63410 | 105° | 49km/h | 8380m | -9.8m/s | -22.6°C | 78.2% | 359.3hPa | 0V | 08:03:00 | 00:00:00 | 00:00:00 | |
| PU1XMG-16 | 2026-08-31 01:13:08 | -22.74108 | -42.63482 | 109° | 44km/h | 8441m | -9.9m/s | -22.9°C | 78.0% | 356.4hPa | 0V | 08:03:00 | 00:00:00 | 00:00:00 | |
| PU1XMG-16 | 2026-08-31 01:13:03 | -22.74092 | -42.63540 | 109° | 42km/h | 8492m | -10.1m/s | -23.3°C | 78.9% | 353.9hPa | 0V | 08:04:00 | 00:00:00 | 00:00:00 | |
| PU1XMG-16 | 2026-08-31 01:12:56 | -22.74075 | -42.63601 | 107° | 37km/h | 8550m | -9.9m/s | -23.8°C | 78.4% | 351.1hPa | 0V | 08:04:00 | 00:00:00 | 00:00:00 | |
| PU1XMG-16 | 2026-08-31 01:12:50 | -22.74066 | -42.63656 | 96° | 35km/h | 8609m | -9.7m/s | -24.2°C | 78.3% | 348.2hPa | 0V | 08:04:00 | 00:00:00 | 00:00:00 | |
| PU1XMG-16 | 2026-08-31 01:12:44 | -22.74064 | -42.63712 | 93° | 33km/h | 8669m | -9.9m/s | -24.6°C | 77.9% | 345.5hPa | 0V | 08:04:00 | 00:00:00 | 00:00:00 | |
| PU1XMG-16 | 2026-08-31 01:12:39 | -22.74066 | -42.63758 | 87° | 37km/h | 8718m | -10.4m/s | -24.9°C | 76.7% | 343.1hPa | 0V | 08:04:00 | 00:00:00 | 00:00:00 | |
| PU1XMG-16 | 2026-08-31 01:12:34 | -22.74069 | -42.63818 | 90° | 37km/h | 8778m | -10.1m/s | -25.4°C | 77.6% | 340.3hPa | 0V | 08:04:00 | 00:00:00 | 00:00:00 | |
| PU1XMG-16 | 2026-08-31 01:12:28 | -22.74070 | -42.63870 | 88° | 40km/h | 8828m | -10.4m/s | -25.8°C | 77.0% | 337.9hPa | 0V | 08:04:00 | 00:00:00 | 00:00:00 | |
| PU1XMG-16 | 2026-08-31 01:12:17 | -22.74081 | -42.63994 | 83° | 38km/h | 8937m | -10.2m/s | -26.6°C | 77.0% | 332.9hPa | 0V | 08:04:00 | 00:00:00 | 00:00:00 | |
| PU1XMG-16 | 2026-08-31 01:12:12 | -22.74093 | -42.64059 | 78° | 44km/h | 8997m | -10.6m/s | -27.1°C | 76.3% | 330.1hPa | 0V | 08:05:00 | 00:00:00 | 00:00:00 | |
| PU1XMG-16 | 2026-08-31 01:12:06 | -22.74106 | -42.64115 | 76° | 44km/h | 9049m | -10.9m/s | -27.5°C | 70.8% | 327.8hPa | 0V | 08:05:00 | 00:00:00 | 00:00:00 | |
| PU1XMG-16 | 2026-08-31 01:12:01 | -22.74123 | -42.64171 | 74° | 44km/h | 9102m | -10.5m/s | -28.0°C | 73.1% | 325.4hPa | 0V | 08:05:00 | 00:00:00 | 00:00:00 | |
| PU1XMG-16 | 2026-08-31 01:11:57 | -22.74140 | -42.64228 | 73° | 42km/h | 9153m | -10.2m/s | -28.4°C | 74.4% | 323.1hPa | 0V | 08:05:00 | 00:00:00 | 00:00:00 | |
| PU1XMG-16 | 2026-08-31 01:11:50 | -22.74162 | -42.64294 | 71° | 42km/h | 9213m | -10.0m/s | -28.9°C | 76.0% | 320.3hPa | 0V | 08:05:00 | 00:00:00 | 00:00:00 | |
| PU1XMG-16 | 2026-08-31 01:11:46 | -22.74182 | -42.64350 | 68° | 46km/h | 9263m | -10.1m/s | -29.4°C | 75.5% | 318.1hPa | 0V | 08:05:00 | 00:00:00 | 00:00:00 | |
| PU1XMG-16 | 2026-08-31 01:11:40 | -22.74203 | -42.64407 | 69° | 46km/h | 9313m | -10.0m/s | -29.8°C | 74.9% | 315.9hPa | 0V | 08:05:00 | 00:00:00 | 00:00:00 | |
| PU1XMG-16 | 2026-08-31 01:11:34 | -22.74227 | -42.64478 | 71° | 47km/h | 9373m | -10.0m/s | -30.2°C | 74.6% | 313.3hPa | 0V | 08:05:00 | 00:00:00 | 00:00:00 | |
| PU1XMG-16 | 2026-08-31 01:11:29 | -22.74245 | -42.64540 | 75° | 47km/h | 9422m | -9.8m/s | -30.5°C | 74.4% | 311.1hPa | 0V | 08:05:00 | 00:00:00 | 00:00:00 | |
| PU1XMG-16 | 2026-08-31 01:11:24 | -22.74262 | -42.64604 | 76° | 49km/h | 9472m | -9.7m/s | -30.8°C | 73.7% | 309.0hPa | 0V | 08:06:00 | 00:00:00 | 00:00:00 | |
| PU1XMG-16 | 2026-08-31 01:11:18 | -22.74284 | -42.64683 | 74° | 51km/h | 9531m | -10.0m/s | -31.2°C | 71.8% | 306.5hPa | 0V | 08:06:00 | 00:00:00 | 00:00:00 | |
| PU1XMG-16 | 2026-08-31 01:11:13 | -22.74305 | -42.64750 | 73° | 51km/h | 9571m | -6.7m/s | -31.6°C | 73.4% | 304.6hPa | 0V | 08:06:00 | 00:00:00 | 00:00:00 | |
| PU1XMG-16 | 2026-08-31 01:11:07 | -22.74329 | -42.64831 | 73° | 53km/h | 9613m | -6.7m/s | -31.9°C | 73.4% | 302.9hPa | 0V | 08:06:00 | 00:00:00 | 00:00:00 | |
| PU1XMG-16 | 2026-08-31 01:11:01 | -22.74358 | -42.64915 | 69° | 57km/h | 9652m | -6.5m/s | -32.2°C | 74.1% | 301.1hPa | 0V | 08:06:00 | 00:00:00 | 00:00:00 | |
| PU1XMG-16 | 2026-08-31 01:10:56 | -22.74391 | -42.65000 | 67° | 55km/h | 9694m | -7.2m/s | -32.6°C | 73.6% | 299.4hPa | 0V | 08:06:00 | 00:00:00 | 00:00:00 | |
| PU1XMG-16 | 2026-08-31 01:10:49 | -22.74426 | -42.65082 | 65° | 58km/h | 9736m | -6.8m/s | -32.9°C | 75.0% | 297.6hPa | 0V | 08:06:00 | 00:00:00 | 00:00:00 | |
| PU1XMG-16 | 2026-08-31 01:10:44 | -22.74460 | -42.65156 | 63° | 62km/h | 9772m | -7.2m/s | -33.2°C | 76.1% | 296.1hPa | 0V | 08:06:00 | 00:00:00 | 00:00:00 | |
| PU1XMG-16 | 2026-08-31 01:10:38 | -22.74507 | -42.65245 | 60° | 64km/h | 9815m | -7.2m/s | -33.6°C | 75.9% | 294.3hPa | 0V | 08:06:00 | 00:00:00 | 00:00:00 | |
| PU1XMG-16 | 2026-08-31 01:10:34 | -22.74549 | -42.65320 | 59° | 64km/h | 9851m | -7.0m/s | -33.7°C | 74.1% | 292.8hPa | 0V | 08:07:00 | 00:00:00 | 00:00:00 | |
| PU1XMG-16 | 2026-08-31 01:10:27 | -22.74601 | -42.65410 | 59° | 64km/h | 9892m | -7.1m/s | -34.0°C | 73.8% | 291.1hPa | 0V | 08:07:00 | 00:00:00 | 00:00:00 | |
| PU1XMG-16 | 2026-08-31 01:10:21 | -22.74654 | -42.65495 | 56° | 62km/h | 9933m | -7.0m/s | -34.3°C | 73.6% | 289.4hPa | 0V | 08:07:00 | 00:00:00 | 00:00:00 | |
| PU1XMG-16 | 2026-08-31 01:10:15 | -22.74708 | -42.65579 | 56° | 62km/h | 9976m | -7.1m/s | -34.7°C | 73.4% | 287.7hPa | 0V | 08:07:00 | 00:00:00 | 00:00:00 | |
| PU1XMG-16 | 2026-08-31 01:10:11 | -22.74751 | -42.65646 | 56° | 60km/h | 10012m | -7.2m/s | -35.0°C | 73.0% | 286.2hPa | 0V | 08:07:00 | 00:00:00 | 00:00:00 | |
| PU1XMG-16 | 2026-08-31 01:10:05 | -22.74796 | -42.65714 | 56° | 60km/h | 10048m | -7.3m/s | -35.3°C | 73.0% | 284.7hPa | 0V | 08:07:00 | 00:00:00 | 00:00:00 | |
| PU1XMG-16 | 2026-08-31 01:09:59 | -22.74849 | -42.65795 | 55° | 60km/h | 10092m | -7.4m/s | -35.7°C | 73.1% | 282.9hPa | 0V | 08:07:00 | 00:00:00 | 00:00:00 | |
| PU1XMG-16 | 2026-08-31 01:09:54 | -22.74895 | -42.65864 | 56° | 62km/h | 10129m | -7.4m/s | -36.0°C | 73.3% | 281.4hPa | 0V | 08:07:00 | 00:00:00 | 00:00:00 | |
| PU1XMG-16 | 2026-08-31 01:09:48 | -22.74949 | -42.65948 | 56° | 64km/h | 10172m | -7.0m/s | -36.4°C | 73.4% | 279.7hPa | 0V | 08:07:00 | 00:00:00 | 00:00:00 | |
| PU1XMG-16 | 2026-08-31 01:09:43 | -22.74995 | -42.66020 | 57° | 64km/h | 10208m | -7.3m/s | -36.7°C | 72.5% | 278.3hPa | 0V | 08:07:00 | 00:00:00 | 00:00:00 | |
| PU1XMG-16 | 2026-08-31 01:09:38 | -22.75048 | -42.66108 | 57° | 64km/h | 10250m | -7.1m/s | -37.0°C | 71.9% | 276.5hPa | 0V | 08:08:00 | 00:00:00 | 00:00:00 | |
| PU1XMG-16 | 2026-08-31 01:09:32 | -22.75096 | -42.66180 | 55° | 66km/h | 10287m | -7.7m/s | -37.4°C | 72.3% | 275.1hPa | 0V | 08:08:00 | 00:00:00 | 00:00:00 | |
| PU1XMG-16 | 2026-08-31 01:09:27 | -22.75145 | -42.66254 | 56° | 68km/h | 10324m | -7.5m/s | -37.7°C | 72.6% | 273.6hPa | 0V | 08:08:00 | 00:00:00 | 00:00:00 | |
| PU1XMG-16 | 2026-08-31 01:09:22 | -22.75206 | -42.66344 | 55° | 68km/h | 10369m | -7.7m/s | -38.1°C | 71.9% | 271.8hPa | 0V | 08:08:00 | 00:00:00 | 00:00:00 | |
| PU1XMG-16 | 2026-08-31 01:09:15 | -22.75267 | -42.66434 | 55° | 69km/h | 10414m | -7.9m/s | -38.5°C | 71.7% | 270.0hPa | 0V | 08:08:00 | 00:00:00 | 00:00:00 | |
| PU1XMG-16 | 2026-08-31 01:09:10 | -22.75319 | -42.66512 | 56° | 71km/h | 10451m | -7.4m/s | -38.9°C | 71.9% | 268.6hPa | 0V | 08:08:00 | 00:00:00 | 00:00:00 | |
| PU1XMG-16 | 2026-08-31 01:09:05 | -22.75382 | -42.66608 | 56° | 73km/h | 10496m | -7.5m/s | -39.2°C | 72.2% | 266.8hPa | 0V | 08:08:00 | 00:00:00 | 00:00:00 | |
| PU1XMG-16 | 2026-08-31 01:08:58 | -22.75448 | -42.66707 | 54° | 77km/h | 10540m | -7.8m/s | -39.6°C | 72.4% | 265.1hPa | 0V | 08:08:00 | 00:00:00 | 00:00:00 | |
| PU1XMG-16 | 2026-08-31 01:08:53 | -22.75506 | -42.66790 | 54° | 77km/h | 10578m | -7.9m/s | -39.9°C | 72.4% | 263.6hPa | 0V | 08:08:00 | 00:00:00 | 00:00:00 | |
| PU1XMG-16 | 2026-08-31 01:08:48 | -22.75564 | -42.66875 | 55° | 78km/h | 10616m | -7.3m/s | -40.1°C | 71.7% | 262.2hPa | 0V | 08:08:00 | 00:00:00 | 00:00:00 | |
| PU1XMG-16 | 2026-08-31 01:08:42 | -22.75636 | -42.66979 | 54° | 78km/h | 10661m | -7.5m/s | -40.5°C | 71.2% | 260.5hPa | 0V | 08:08:00 | 00:00:00 | 00:00:00 | |
| PU1XMG-16 | 2026-08-31 01:08:37 | -22.75696 | -42.67066 | 55° | 78km/h | 10698m | -7.6m/s | -40.8°C | 70.9% | 259.1hPa | 0V | 08:08:00 | 00:00:00 | 00:00:00 | |
| PU1XMG-16 | 2026-08-31 01:08:31 | -22.75765 | -42.67169 | 55° | 77km/h | 10744m | -7.5m/s | -41.2°C | 70.3% | 257.4hPa | 0V | 08:08:00 | 00:00:00 | 00:00:00 | |
| PU1XMG-16 | 2026-08-31 01:08:25 | -22.75832 | -42.67274 | 57° | 77km/h | 10788m | -7.2m/s | -41.6°C | 69.5% | 255.7hPa | 0V | 08:08:00 | 00:00:00 | 00:00:00 | |
| PU1XMG-16 | 2026-08-31 01:08:20 | -22.75885 | -42.67362 | 58° | 77km/h | 10825m | -7.5m/s | -41.9°C | 68.8% | 254.3hPa | 0V | 08:08:00 | 00:00:00 | 00:00:00 | |
| PU1XMG-16 | 2026-08-31 01:08:16 | -22.75938 | -42.67448 | 57° | 75km/h | 10862m | -7.4m/s | -42.3°C | 68.7% | 252.9hPa | 0V | 08:08:00 | 00:00:00 | 00:00:00 | |
| PU1XMG-16 | 2026-08-31 01:08:09 | -22.75999 | -42.67551 | 59° | 75km/h | 10908m | -7.7m/s | -42.7°C | 68.1% | 251.2hPa | 0V | 08:08:00 | 00:00:00 | 00:00:00 | |
| PU1XMG-16 | 2026-08-31 01:08:03 | -22.76059 | -42.67652 | 58° | 71km/h | 10954m | -7.7m/s | -43.1°C | 67.2% | 249.5hPa | 0V | 08:08:00 | 00:00:00 | 00:00:00 | |
| PU1XMG-16 | 2026-08-31 01:07:58 | -22.76107 | -42.67735 | 59° | 73km/h | 10991m | -7.6m/s | -43.4°C | 67.6% | 248.1hPa | 0V | 08:09:00 | 00:00:00 | 00:00:00 | |
| PU1XMG-16 | 2026-08-31 01:07:53 | -22.76155 | -42.67821 | 62° | 75km/h | 11030m | -7.7m/s | -43.8°C | 67.5% | 246.7hPa | 0V | 08:09:00 | 00:00:00 | 00:00:00 | |
| PU1XMG-16 | 2026-08-31 01:07:47 | -22.76209 | -42.67928 | 62° | 75km/h | 11077m | -7.9m/s | -44.0°C | 66.9% | 245.0hPa | 0V | 08:09:00 | 00:00:00 | 00:00:00 | |
| PU1XMG-16 | 2026-08-31 01:07:42 | -22.76256 | -42.68020 | 62° | 78km/h | 11115m | -7.8m/s | -44.3°C | 66.4% | 243.6hPa | 0V | 08:09:00 | 00:00:00 | 00:00:00 | |
| PU1XMG-16 | 2026-08-31 01:07:37 | -22.76305 | -42.68118 | 63° | 82km/h | 11154m | -7.7m/s | -44.5°C | 65.4% | 242.2hPa | 0V | 08:09:00 | 00:00:00 | 00:00:00 | |
| PU1XMG-16 | 2026-08-31 01:07:31 | -22.76361 | -42.68235 | 64° | 80km/h | 11200m | -8.1m/s | -44.8°C | 64.7% | 240.5hPa | 0V | 08:09:00 | 00:00:00 | 00:00:00 | |
| PU1XMG-16 | 2026-08-31 01:07:25 | -22.76415 | -42.68353 | 65° | 80km/h | 11246m | -7.7m/s | -45.1°C | 64.1% | 238.9hPa | 0V | 08:09:00 | 00:00:00 | 00:00:00 | |
| PU1XMG-16 | 2026-08-31 01:07:19 | -22.76469 | -42.68474 | 65° | 82km/h | 11291m | -7.6m/s | -45.4°C | 63.9% | 237.3hPa | 0V | 08:09:00 | 00:00:00 | 00:00:00 | |
| PU1XMG-16 | 2026-08-31 01:07:14 | -22.76514 | -42.68576 | 65° | 84km/h | 11330m | -7.9m/s | -45.6°C | 63.5% | 235.9hPa | 0V | 08:09:00 | 00:00:00 | 00:00:00 | |
| PU1XMG-16 | 2026-08-31 01:07:08 | -22.76569 | -42.68701 | 66° | 82km/h | 11375m | -7.6m/s | -46.0°C | 63.3% | 234.3hPa | 0V | 08:10:00 | 00:00:00 | 00:00:00 | |
| PU1XMG-16 | 2026-08-31 01:07:04 | -22.76612 | -42.68805 | 68° | 86km/h | 11412m | -7.7m/s | -46.4°C | 63.4% | 233.0hPa | 0V | 08:10:00 | 00:00:00 | 00:00:00 | |
| PU1XMG-16 | 2026-08-31 01:06:58 | -22.76653 | -42.68914 | 70° | 86km/h | 11450m | -7.6m/s | -46.7°C | 63.3% | 231.7hPa | 0V | 08:10:00 | 00:00:00 | 00:00:00 | |
| PU1XMG-16 | 2026-08-31 01:06:52 | -22.76696 | -42.69047 | 73° | 86km/h | 11495m | -7.4m/s | -46.9°C | 63.3% | 230.1hPa | 0V | 08:10:00 | 00:00:00 | 00:00:00 | |
| PU1XMG-16 | 2026-08-31 01:06:48 | -22.76730 | -42.69162 | 73° | 88km/h | 11532m | -7.4m/s | -47.0°C | 62.6% | 228.8hPa | 0V | 08:10:00 | 00:00:00 | 00:00:00 | |
| PU1XMG-16 | 2026-08-31 01:06:42 | -22.76763 | -42.69276 | 75° | 86km/h | 11569m | -7.4m/s | -47.3°C | 62.8% | 227.6hPa | 0V | 08:10:00 | 00:00:00 | 00:00:00 | |
| PU1XMG-16 | 2026-08-31 01:06:36 | -22.76797 | -42.69411 | 76° | 86km/h | 11613m | -7.4m/s | -47.7°C | 64.4% | 226.1hPa | 0V | 08:10:00 | 00:00:00 | 00:00:00 | |
| PU1XMG-16 | 2026-08-31 01:06:31 | -22.76824 | -42.69525 | 77° | 86km/h | 11649m | -7.3m/s | -48.0°C | 64.4% | 224.9hPa | 0V | 08:10:00 | 00:00:00 | 00:00:00 | |
| PU1XMG-16 | 2026-08-31 01:06:25 | -22.76855 | -42.69660 | 78° | 86km/h | 11692m | -7.1m/s | -48.4°C | 63.8% | 223.4hPa | 0V | 08:10:00 | 00:00:00 | 00:00:00 | |
| PU1XMG-16 | 2026-08-31 01:06:20 | -22.76883 | -42.69797 | 80° | 86km/h | 11738m | -7.7m/s | -48.8°C | 61.7% | 221.9hPa | 0V | 08:10:00 | 00:00:00 | 00:00:00 | |
| PU1XMG-16 | 2026-08-31 01:06:13 | -22.76907 | -42.69936 | 80° | 86km/h | 11783m | -7.7m/s | -49.2°C | 60.0% | 220.4hPa | 0V | 08:11:00 | 00:00:00 | 00:00:00 | |
| PU1XMG-16 | 2026-08-31 01:06:08 | -22.76929 | -42.70051 | 79° | 86km/h | 11822m | -7.6m/s | -49.5°C | 60.2% | 219.1hPa | 0V | 08:11:00 | 00:00:00 | 00:00:00 | |
| PU1XMG-16 | 2026-08-31 01:06:03 | -22.76950 | -42.70169 | 81° | 89km/h | 11860m | -7.7m/s | -49.8°C | 59.7% | 217.8hPa | 0V | 08:11:00 | 00:00:00 | 00:00:00 | |
| PU1XMG-16 | 2026-08-31 01:05:57 | -22.76975 | -42.70314 | 81° | 89km/h | 11909m | -8.6m/s | -50.3°C | 58.5% | 216.2hPa | 0V | 08:11:00 | 00:00:00 | 00:00:00 | |
| PU1XMG-16 | 2026-08-31 01:05:52 | -22.76998 | -42.70463 | 82° | 95km/h | 11959m | -8.4m/s | -50.8°C | 58.9% | 214.5hPa | 0V | 08:11:00 | 00:00:00 | 00:00:00 | |
| PU1XMG-16 | 2026-08-31 01:05:46 | -22.77015 | -42.70591 | 83° | 95km/h | 11999m | -7.8m/s | -51.1°C | 59.8% | 213.2hPa | 0V | 08:11:00 | 00:00:00 | 00:00:00 | |
| PU1XMG-16 | 2026-08-31 01:05:40 | -22.77039 | -42.70746 | 81° | 97km/h | 12045m | -7.7m/s | -51.6°C | 59.2% | 211.7hPa | 0V | 08:11:00 | 00:00:00 | 00:00:00 | |
| PU1XMG-16 | 2026-08-31 01:05:36 | -22.77061 | -42.70878 | 81° | 99km/h | 12084m | -7.7m/s | -51.8°C | 58.2% | 210.5hPa | 0V | 08:11:00 | 00:00:00 | 00:00:00 | |
| PU1XMG-16 | 2026-08-31 01:05:30 | -22.77082 | -42.71010 | 82° | 97km/h | 12122m | -7.8m/s | -52.2°C | 57.5% | 209.3hPa | 0V | 08:11:00 | 00:00:00 | 00:00:00 | |
| PU1XMG-16 | 2026-08-31 01:05:25 | -22.77102 | -42.71144 | 81° | 100km/h | 12162m | -7.9m/s | -52.5°C | 56.5% | 208.0hPa | 0V | 08:12:00 | 00:00:00 | 00:00:00 | |
| PU1XMG-16 | 2026-08-31 01:05:20 | -22.77123 | -42.71279 | 82° | 99km/h | 12202m | -8.5m/s | -52.9°C | 54.3% | 206.6hPa | 0V | 08:12:00 | 00:00:00 | 00:00:00 | |
| PU1XMG-16 | 2026-08-31 01:05:15 | -22.77140 | -42.71412 | 84° | 100km/h | 12242m | -7.8m/s | -53.3°C | 53.1% | 205.3hPa | 0V | 08:12:00 | 00:00:00 | 00:00:00 | |
| PU1XMG-16 | 2026-08-31 01:05:09 | -22.77159 | -42.71579 | 84° | 102km/h | 12291m | -8.5m/s | -53.7°C | 53.0% | 203.8hPa | 0V | 08:12:00 | 00:00:00 | 00:00:00 | |
| PU1XMG-16 | 2026-08-31 01:05:04 | -22.77175 | -42.71718 | 83° | 102km/h | 12331m | -7.9m/s | -54.1°C | 51.9% | 202.6hPa | 0V | 08:12:00 | 00:00:00 | 00:00:00 | |
| PU1XMG-16 | 2026-08-31 01:04:59 | -22.77193 | -42.71858 | 83° | 104km/h | 12372m | -7.9m/s | -54.3°C | 49.4% | 201.3hPa | 0V | 08:12:00 | 00:00:00 | 00:00:00 | |
| PU1XMG-16 | 2026-08-31 01:04:53 | -22.77216 | -42.72032 | 83° | 108km/h | 12419m | -8.4m/s | -54.6°C | 47.6% | 199.8hPa | 0V | 08:12:00 | 00:00:00 | 00:00:00 | |
| PU1XMG-16 | 2026-08-31 01:04:47 | -22.77242 | -42.72207 | 82° | 110km/h | 12469m | -8.1m/s | -54.9°C | 47.2% | 198.2hPa | 0V | 08:12:00 | 00:00:00 | 00:00:00 | |
| PU1XMG-16 | 2026-08-31 01:04:42 | -22.77263 | -42.72360 | 82° | 117km/h | 12509m | -8.2m/s | -55.1°C | 45.3% | 197.0hPa | 0V | 08:12:00 | 00:00:00 | 00:00:00 | |
| PU1XMG-16 | 2026-08-31 01:04:36 | -22.77289 | -42.72552 | 82° | 120km/h | 12559m | -8.1m/s | -55.3°C | 41.7% | 195.5hPa | 0V | 08:13:00 | 00:00:00 | 00:00:00 | |
| PU1XMG-16 | 2026-08-31 01:04:30 | -22.77321 | -42.72749 | 80° | 122km/h | 12609m | -8.5m/s | -55.2°C | 37.5% | 194.0hPa | 0V | 08:13:00 | 00:00:00 | 00:00:00 | |
| PU1XMG-16 | 2026-08-31 01:04:25 | -22.77352 | -42.72914 | 79° | 122km/h | 12651m | -8.4m/s | -55.2°C | 35.4% | 192.8hPa | 0V | 08:13:00 | 00:00:00 | 00:00:00 | |
| PU1XMG-16 | 2026-08-31 01:04:20 | -22.77385 | -42.73079 | 78° | 122km/h | 12694m | -8.4m/s | -55.3°C | 34.5% | 191.5hPa | 0V | 08:13:00 | 00:00:00 | 00:00:00 | |
| PU1XMG-16 | 2026-08-31 01:04:15 | -22.77421 | -42.73241 | 77° | 120km/h | 12736m | -9.0m/s | -55.6°C | 33.4% | 190.2hPa | 0V | 08:13:00 | 00:00:00 | 00:00:00 | |
| PU1XMG-16 | 2026-08-31 01:04:09 | -22.77468 | -42.73431 | 76° | 120km/h | 12788m | -8.9m/s | -55.8°C | 32.1% | 188.6hPa | 0V | 08:13:00 | 00:00:00 | 00:00:00 | |
| PU1XMG-16 | 2026-08-31 01:04:03 | -22.77521 | -42.73620 | 72° | 119km/h | 12841m | -9.2m/s | -55.8°C | 28.2% | 187.1hPa | 0V | 08:13:00 | 00:00:00 | 00:00:00 | |
| PU1XMG-16 | 2026-08-31 01:03:58 | -22.77571 | -42.73773 | 72° | 117km/h | 12884m | -8.1m/s | -56.0°C | 27.5% | 185.8hPa | 0V | 08:13:00 | 00:00:00 | 00:00:00 | |
| PU1XMG-16 | 2026-08-31 01:03:52 | -22.77629 | -42.73946 | 70° | 110km/h | 12932m | -8.6m/s | -55.1°C | 24.5% | 184.4hPa | 0V | 08:13:00 | 00:00:00 | 00:00:00 | |
| PU1XMG-16 | 2026-08-31 01:03:46 | -22.77687 | -42.74108 | 70° | 100km/h | 12984m | -8.4m/s | -54.7°C | 23.5% | 182.9hPa | 0V | 08:13:00 | 00:00:00 | 00:00:00 | |
| PU1XMG-16 | 2026-08-31 01:03:40 | -22.77738 | -42.74254 | 71° | 89km/h | 13034m | -8.7m/s | -54.4°C | 20.6% | 181.5hPa | 0V | 08:14:00 | 00:00:00 | 00:00:00 | |
| PU1XMG-16 | 2026-08-31 01:03:34 | -22.77785 | -42.74392 | 71° | 88km/h | 13088m | -9.2m/s | -54.6°C | 19.3% | 180.0hPa | 0V | 08:14:00 | 00:00:00 | 00:00:00 | |
| PU1XMG-16 | 2026-08-31 01:03:28 | -22.77832 | -42.74526 | 71° | 88km/h | 13142m | -8.8m/s | -54.9°C | 18.8% | 178.5hPa | 0V | 08:14:00 | 00:00:00 | 00:00:00 | |
| PU1XMG-16 | 2026-08-31 01:03:22 | -22.77875 | -42.74661 | 72° | 86km/h | 13193m | -8.8m/s | -55.3°C | 18.6% | 177.0hPa | 0V | 08:14:00 | 00:00:00 | 00:00:00 | |
| PU1XMG-16 | 2026-08-31 01:03:17 | -22.77912 | -42.74773 | 70° | 86km/h | 13237m | -8.8m/s | -55.7°C | 18.1% | 175.9hPa | 0V | 08:14:00 | 00:00:00 | 00:00:00 | |
| PU1XMG-16 | 2026-08-31 01:03:11 | -22.77958 | -42.74902 | 70° | 82km/h | 13289m | -9.2m/s | -56.2°C | 17.6% | 174.4hPa | 0V | 08:14:00 | 00:00:00 | 00:00:00 | |
| PU1XMG-16 | 2026-08-31 01:03:05 | -22.78005 | -42.75027 | 69° | 82km/h | 13341m | -8.8m/s | -56.4°C | 17.0% | 173.0hPa | 0V | 08:14:00 | 00:00:00 | 00:00:00 | |
| PU1XMG-16 | 2026-08-31 01:02:59 | -22.78053 | -42.75149 | 66° | 80km/h | 13392m | -8.8m/s | -56.7°C | 16.3% | 171.6hPa | 0V | 08:14:00 | 00:00:00 | 00:00:00 | |
| PU1XMG-16 | 2026-08-31 01:02:53 | -22.78105 | -42.75267 | 67° | 82km/h | 13444m | -8.5m/s | -57.0°C | 15.6% | 170.3hPa | 0V | 08:14:00 | 00:00:00 | 00:00:00 | |
| PU1XMG-16 | 2026-08-31 01:02:42 | -22.78186 | -42.75496 | 72° | 80km/h | 13536m | -8.6m/s | -57.4°C | 11.7% | 167.8hPa | 0V | 08:14:00 | 00:00:00 | 00:00:00 | |
| PU1XMG-16 | 2026-08-31 01:02:37 | -22.78225 | -42.75621 | 73° | 80km/h | 13586m | -8.6m/s | -57.0°C | 10.0% | 166.5hPa | 0V | 08:14:00 | 00:00:00 | 00:00:00 | |
| PU1XMG-16 | 2026-08-31 01:02:31 | -22.78257 | -42.75726 | 74° | 80km/h | 13629m | -8.6m/s | -57.1°C | 10.2% | 165.3hPa | 0V | 08:14:00 | 00:00:00 | 00:00:00 | |
| PU1XMG-16 | 2026-08-31 01:02:27 | -22.78287 | -42.75830 | 74° | 78km/h | 13672m | -8.5m/s | -57.2°C | 10.4% | 164.2hPa | 0V | 08:14:00 | 00:00:00 | 00:00:00 | |
| PU1XMG-16 | 2026-08-31 01:02:20 | -22.78321 | -42.75954 | 76° | 80km/h | 13723m | -8.3m/s | -57.3°C | 10.8% | 162.9hPa | 0V | 08:14:00 | 00:00:00 | 00:00:00 | |
| PU1XMG-16 | 2026-08-31 01:02:15 | -22.78343 | -42.76058 | 79° | 75km/h | 13764m | -8.4m/s | -57.6°C | 11.4% | 161.8hPa | 0V | 08:14:00 | 00:00:00 | 00:00:00 | |
| PU1XMG-16 | 2026-08-31 01:02:09 | -22.78369 | -42.76173 | 77° | 69km/h | 13815m | -9.1m/s | -58.0°C | 12.5% | 160.5hPa | 0V | 08:14:00 | 00:00:00 | 00:00:00 | |
| PU1XMG-16 | 2026-08-31 01:02:05 | -22.78386 | -42.76265 | 82° | 69km/h | 13860m | -8.8m/s | -58.3°C | 13.9% | 159.4hPa | 0V | 08:14:00 | 00:00:00 | 00:00:00 | |
| PU1XMG-16 | 2026-08-31 01:01:59 | -22.78398 | -42.76360 | 83° | 69km/h | 13906m | -9.5m/s | -58.5°C | 14.9% | 158.2hPa | 0V | 08:15:00 | 00:00:00 | 00:00:00 | |
| PU1XMG-16 | 2026-08-31 01:01:53 | -22.78414 | -42.76472 | 83° | 68km/h | 13961m | -8.5m/s | -59.2°C | 16.8% | 156.8hPa | 0V | 08:15:00 | 00:00:00 | 00:00:00 | |
| PU1XMG-16 | 2026-08-31 01:01:47 | -22.78426 | -42.76578 | 85° | 62km/h | 14013m | -8.8m/s | -59.5°C | 18.7% | 155.6hPa | 0V | 08:15:00 | 00:00:00 | 00:00:00 | |
| PU1XMG-16 | 2026-08-31 01:01:42 | -22.78432 | -42.76659 | 88° | 58km/h | 14056m | -8.9m/s | -59.8°C | 20.0% | 154.5hPa | 0V | 08:15:00 | 00:00:00 | 00:00:00 | |
| PU1XMG-16 | 2026-08-31 01:01:36 | -22.78434 | -42.76757 | 92° | 62km/h | 14110m | -9.0m/s | -59.8°C | 18.1% | 153.1hPa | 0V | 08:15:00 | 00:00:00 | 00:00:00 | |
| PU1XMG-16 | 2026-08-31 01:01:32 | -22.78432 | -42.76842 | 93° | 64km/h | 14156m | -9.1m/s | -60.0°C | 16.8% | 152.1hPa | 0V | 08:15:00 | 00:00:00 | 00:00:00 | |
| PU1XMG-16 | 2026-08-31 01:01:25 | -22.78429 | -42.76948 | 92° | 64km/h | 14210m | -9.3m/s | -60.4°C | 15.4% | 150.7hPa | 0V | 08:15:00 | 00:00:00 | 00:00:00 | |
| PU1XMG-16 | 2026-08-31 01:01:20 | -22.78428 | -42.77056 | 91° | 68km/h | 14266m | -8.9m/s | -60.9°C | 14.6% | 149.4hPa | 0V | 08:15:00 | 00:00:00 | 00:00:00 | |
| PU1XMG-16 | 2026-08-31 01:01:14 | -22.78426 | -42.77148 | 93° | 66km/h | 14311m | -9.0m/s | -61.4°C | 13.8% | 148.3hPa | 0V | 08:15:00 | 00:00:00 | 00:00:00 | |
| PU1XMG-16 | 2026-08-31 01:01:09 | -22.78424 | -42.77236 | 93° | 64km/h | 14355m | -8.1m/s | -61.8°C | 12.8% | 147.2hPa | 0V | 08:16:00 | 00:00:00 | 00:00:00 | |
| PU1XMG-16 | 2026-08-31 01:01:03 | -22.78424 | -42.77345 | 89° | 68km/h | 14408m | -9.2m/s | -62.3°C | 12.6% | 146.0hPa | 0V | 08:16:00 | 00:00:00 | 00:00:00 | |
| PU1XMG-16 | 2026-08-31 01:00:58 | -22.78427 | -42.77439 | 89° | 71km/h | 14456m | -9.8m/s | -62.7°C | 12.0% | 144.9hPa | 0V | 08:16:00 | 00:00:00 | 00:00:00 | |
| PU1XMG-16 | 2026-08-31 01:00:53 | -22.78430 | -42.77555 | 90° | 71km/h | 14515m | -9.9m/s | -63.3°C | 12.2% | 143.5hPa | 0V | 08:16:00 | 00:00:00 | 00:00:00 | |
| PU1XMG-16 | 2026-08-31 01:00:47 | -22.78432 | -42.77653 | 88° | 73km/h | 14566m | -10.5m/s | -63.8°C | 12.3% | 142.3hPa | 0V | 08:16:00 | 00:00:00 | 00:00:00 | |
| PU1XMG-16 | 2026-08-31 01:00:42 | -22.78438 | -42.77773 | 87° | 73km/h | 14626m | -9.2m/s | -64.4°C | 13.0% | 141.0hPa | 0V | 08:16:00 | 00:00:00 | 00:00:00 | |
| PU1XMG-16 | 2026-08-31 01:00:36 | -22.78444 | -42.77873 | 86° | 75km/h | 14675m | -10.4m/s | -64.9°C | 13.1% | 139.8hPa | 0V | 08:16:00 | 00:00:00 | 00:00:00 | |
| PU1XMG-16 | 2026-08-31 01:00:31 | -22.78455 | -42.77979 | 84° | 80km/h | 14726m | -10.8m/s | -65.3°C | 13.5% | 138.7hPa | 0V | 08:16:00 | 00:00:00 | 00:00:00 | |
| PU1XMG-16 | 2026-08-31 01:00:25 | -22.78473 | -42.78117 | 83° | 89km/h | 14790m | -11.1m/s | -65.6°C | 13.9% | 137.2hPa | 0V | 08:16:00 | 00:00:00 | 00:00:00 | |
| PU1XMG-16 | 2026-08-31 01:00:20 | -22.78495 | -42.78266 | 80° | 93km/h | 14857m | -11.3m/s | -65.9°C | 14.1% | 135.7hPa | 0V | 08:17:00 | 00:00:00 | 00:00:00 | |
| PU1XMG-16 | 2026-08-31 01:00:15 | -22.78519 | -42.78391 | 79° | 93km/h | 14913m | -11.2m/s | -65.6°C | 13.6% | 134.4hPa | 0V | 08:17:00 | 00:00:00 | 00:00:00 | |
| PU1XMG-16 | 2026-08-31 00:59:57 | -22.78610 | -42.78800 | 76° | 89km/h | 15102m | -11.0m/s | -66.8°C | 14.3% | 130.3hPa | 0V | 08:17:00 | 00:00:00 | 00:00:00 | |
| PU1XMG-16 | 2026-08-31 00:59:51 | -22.78644 | -42.78936 | 75° | 86km/h | 15168m | -11.0m/s | -67.2°C | 14.5% | 128.9hPa | 0V | 08:17:00 | 00:00:00 | 00:00:00 | |
| PU1XMG-16 | 2026-08-31 00:59:46 | -22.78675 | -42.79046 | 74° | 82km/h | 15223m | -10.8m/s | -67.6°C | 14.9% | 127.7hPa | 0V | 08:17:00 | 00:00:00 | 00:00:00 | |
| PU1XMG-16 | 2026-08-31 00:59:41 | -22.78705 | -42.79153 | 75° | 80km/h | 15277m | -10.6m/s | -68.1°C | 15.0% | 126.6hPa | 0V | 08:17:00 | 00:00:00 | 00:00:00 | |
| PU1XMG-16 | 2026-08-31 00:59:35 | -22.78740 | -42.79280 | 74° | 78km/h | 15340m | -10.1m/s | -68.6°C | 15.1% | 125.3hPa | 0V | 08:17:00 | 00:00:00 | 00:00:00 | |
| PU1XMG-16 | 2026-08-31 00:59:29 | -22.78776 | -42.79401 | 73° | 78km/h | 15403m | -10.7m/s | -69.2°C | 15.1% | 124.0hPa | 0V | 08:18:00 | 00:00:00 | 00:00:00 | |
| PU1XMG-16 | 2026-08-31 00:59:24 | -22.78806 | -42.79501 | 73° | 75km/h | 15455m | -10.5m/s | -69.6°C | 15.1% | 122.9hPa | 0V | 08:18:00 | 00:00:00 | 00:00:00 | |
| PU1XMG-16 | 2026-08-31 00:59:19 | -22.78835 | -42.79598 | 74° | 75km/h | 15509m | -10.5m/s | -70.1°C | 15.0% | 121.8hPa | 0V | 08:18:00 | 00:00:00 | 00:00:00 | |
| PU1XMG-16 | 2026-08-31 00:59:14 | -22.78863 | -42.79695 | 75° | 73km/h | 15560m | -10.6m/s | -70.6°C | 14.9% | 120.7hPa | 0V | 08:18:00 | 00:00:00 | 00:00:00 | |
| PU1XMG-16 | 2026-08-31 00:59:08 | -22.78893 | -42.79811 | 76° | 73km/h | 15623m | -10.4m/s | -71.0°C | 14.6% | 119.5hPa | 0V | 08:18:00 | 00:00:00 | 00:00:00 | |
| PU1XMG-16 | 2026-08-31 00:59:02 | -22.78921 | -42.79927 | 77° | 73km/h | 15686m | -10.4m/s | -71.6°C | 14.3% | 118.2hPa | 0V | 08:18:00 | 00:00:00 | 00:00:00 | |
| PU1XMG-16 | 2026-08-31 00:58:56 | -22.78945 | -42.80040 | 79° | 69km/h | 15749m | -10.8m/s | -72.1°C | 14.1% | 116.9hPa | 0V | 08:18:00 | 00:00:00 | 00:00:00 | |
| PU1XMG-16 | 2026-08-31 00:58:50 | -22.78963 | -42.80151 | 83° | 66km/h | 15814m | -10.8m/s | -72.6°C | 13.9% | 115.6hPa | 0V | 08:18:00 | 00:00:00 | 00:00:00 | |
| PU1XMG-16 | 2026-08-31 00:58:47 | -22.78977 | -42.80238 | 78° | 64km/h | 15868m | -11.2m/s | -73.1°C | 13.6% | 114.6hPa | 0V | 08:18:00 | 00:00:00 | 00:00:00 | |
| PU1XMG-16 | 2026-08-31 00:58:40 | -22.78998 | -42.80320 | 73° | 60km/h | 15923m | -10.8m/s | -73.3°C | 13.1% | 113.5hPa | 0V | 08:18:00 | 00:00:00 | 00:00:00 | |
| PU1XMG-16 | 2026-08-31 00:58:34 | -22.79029 | -42.80409 | 68° | 53km/h | 15988m | -10.7m/s | -73.3°C | 11.9% | 112.3hPa | 0V | 08:19:00 | 00:00:00 | 00:00:00 | |
| PU1XMG-16 | 2026-08-31 00:58:28 | -22.79059 | -42.80485 | 68° | 49km/h | 16051m | -10.3m/s | -73.4°C | 11.4% | 111.1hPa | 0V | 08:19:00 | 00:00:00 | 00:00:00 | |
| PU1XMG-16 | 2026-08-31 00:58:23 | -22.79083 | -42.80545 | 66° | 46km/h | 16105m | -10.6m/s | -73.5°C | 10.7% | 110.1hPa | 0V | 08:19:00 | 00:00:00 | 00:00:00 | |
| PU1XMG-16 | 2026-08-31 00:58:18 | -22.79107 | -42.80594 | 62° | 37km/h | 16159m | -10.7m/s | -73.9°C | 10.3% | 109.0hPa | 0V | 08:19:00 | 00:00:00 | 00:00:00 | |
| PU1XMG-16 | 2026-08-31 00:58:12 | -22.79131 | -42.80642 | 62° | 29km/h | 16225m | -11.0m/s | -74.2°C | 10.1% | 107.8hPa | 0V | 08:19:00 | 00:00:00 | 00:00:00 | |
| PU1XMG-16 | 2026-08-31 00:58:06 | -22.79151 | -42.80682 | 61° | 26km/h | 16292m | -11.1m/s | -73.7°C | 8.7% | 106.6hPa | 0V | 08:19:00 | 00:00:00 | 00:00:00 | |
| PU1XMG-16 | 2026-08-31 00:58:01 | -22.79166 | -42.80709 | 64° | 20km/h | 16349m | -11.2m/s | -74.2°C | 8.7% | 105.5hPa | 0V | 08:19:00 | 00:00:00 | 00:00:00 | |
| PU1XMG-16 | 2026-08-31 00:57:55 | -22.79178 | -42.80737 | 66° | 20km/h | 16416m | -10.7m/s | -74.7°C | 8.8% | 104.3hPa | 0V | 08:19:00 | 00:00:00 | 00:00:00 | |
| PU1XMG-16 | 2026-08-31 00:57:50 | -22.79187 | -42.80766 | 81° | 26km/h | 16472m | -11.3m/s | -74.9°C | 8.4% | 103.3hPa | 0V | 08:19:00 | 00:00:00 | 00:00:00 | |
| PU1XMG-16 | 2026-08-31 00:57:44 | -22.79186 | -42.80813 | 102° | 31km/h | 16540m | -11.0m/s | -75.2°C | 8.1% | 102.1hPa | 0V | 08:20:00 | 00:00:00 | 00:00:00 | |
| PU1XMG-16 | 2026-08-31 00:57:39 | -22.79175 | -42.80857 | 111° | 35km/h | 16595m | -11.2m/s | -74.8°C | 7.5% | 101.1hPa | 0V | 08:20:00 | 00:00:00 | 00:00:00 | |
| PU1XMG-16 | 2026-08-31 00:57:33 | -22.79157 | -42.80911 | 109° | 35km/h | 16662m | -11.1m/s | -74.8°C | 7.1% | 100.0hPa | 0V | 08:20:00 | 00:00:00 | 00:00:00 | |
| PU1XMG-16 | 2026-08-31 00:57:28 | -22.79142 | -42.80958 | 110° | 37km/h | 16719m | -11.2m/s | -74.9°C | 7.2% | 99.0hPa | 0V | 08:20:00 | 00:00:00 | 00:00:00 | |
| PU1XMG-16 | 2026-08-31 00:57:22 | -22.79128 | -42.81011 | 103° | 29km/h | 16787m | -11.4m/s | -75.1°C | 7.2% | 97.9hPa | 0V | 08:20:00 | 00:00:00 | 00:00:00 | |
| PU1XMG-16 | 2026-08-31 00:57:17 | -22.79121 | -42.81049 | 105° | 29km/h | 16845m | -11.3m/s | -74.7°C | 6.6% | 96.9hPa | 0V | 08:20:00 | 00:00:00 | 00:00:00 | |
| PU1XMG-16 | 2026-08-31 00:57:12 | -22.79111 | -42.81098 | 103° | 31km/h | 16915m | -11.5m/s | -72.4°C | 5.2% | 95.7hPa | 0V | 08:20:00 | 00:00:00 | 00:00:00 | |
| PU1XMG-16 | 2026-08-31 00:57:07 | -22.79103 | -42.81140 | 99° | 31km/h | 16972m | -11.5m/s | -72.3°C | 5.0% | 94.8hPa | 0V | 08:20:00 | 00:00:00 | 00:00:00 | |
| PU1XMG-16 | 2026-08-31 00:57:01 | -22.79099 | -42.81187 | 95° | 38km/h | 17031m | -11.6m/s | -72.6°C | 5.2% | 93.9hPa | 0V | 08:20:00 | 00:00:00 | 00:00:00 | |
| PU1XMG-16 | 2026-08-31 00:56:55 | -22.79095 | -42.81261 | 94° | 49km/h | 17101m | -11.6m/s | -72.6°C | 5.4% | 92.8hPa | 0V | 08:20:00 | 00:00:00 | 00:00:00 | |
| PU1XMG-16 | 2026-08-31 00:56:50 | -22.79095 | -42.81332 | 87° | 53km/h | 17160m | -11.5m/s | -72.0°C | 5.2% | 91.8hPa | 0V | 08:20:00 | 00:00:00 | 00:00:00 | |
| PU1XMG-16 | 2026-08-31 00:56:45 | -22.79106 | -42.81400 | 76° | 47km/h | 17218m | -11.9m/s | -71.3°C | 4.9% | 90.9hPa | 0V | 08:20:00 | 00:00:00 | 00:00:00 | |
| PU1XMG-16 | 2026-08-31 00:56:39 | -22.79129 | -42.81468 | 64° | 42km/h | 17289m | -11.8m/s | -69.1°C | 4.1% | 89.9hPa | 0V | 08:20:00 | 00:00:00 | 00:00:00 | |
| PU1XMG-16 | 2026-08-31 00:56:35 | -22.79156 | -42.81517 | 59° | 40km/h | 17348m | -11.9m/s | -68.0°C | 3.7% | 89.0hPa | 0V | 08:20:00 | 00:00:00 | 00:00:00 | |
| PU1XMG-16 | 2026-08-31 00:56:28 | -22.79184 | -42.81563 | 55° | 27km/h | 17420m | -11.8m/s | -66.9°C | 3.3% | 87.9hPa | 0V | 08:20:00 | 00:00:00 | 00:00:00 | |
| PU1XMG-16 | 2026-08-31 00:56:23 | -22.79202 | -42.81585 | 44° | 18km/h | 17479m | -11.8m/s | -66.3°C | 3.0% | 87.1hPa | 0V | 08:20:00 | 00:00:00 | 00:00:00 | |
| PU1XMG-16 | 2026-08-31 00:56:17 | -22.79217 | -42.81600 | 44° | 9km/h | 17550m | -11.8m/s | -65.8°C | 2.8% | 86.1hPa | 0V | 08:20:00 | 00:00:00 | 00:00:00 | |
| PU1XMG-16 | 2026-08-31 00:56:12 | -22.79224 | -42.81606 | 43° | 5km/h | 17609m | -11.9m/s | -65.6°C | 2.7% | 85.2hPa | 0V | 08:20:00 | 00:00:00 | 00:00:00 | |
| PU1XMG-16 | 2026-08-31 00:56:06 | -22.79227 | -42.81615 | 94° | 5km/h | 17680m | -12.1m/s | -66.0°C | 2.6% | 84.2hPa | 0V | 08:21:00 | 00:00:00 | 00:00:00 | |
| PU1XMG-16 | 2026-08-31 00:56:01 | -22.79227 | -42.81623 | 101° | 5km/h | 17740m | -11.8m/s | -66.4°C | 2.7% | 83.4hPa | 0V | 08:21:00 | 00:00:00 | 00:00:00 | |
| PU1XMG-16 | 2026-08-31 00:55:55 | -22.79223 | -42.81636 | 117° | 11km/h | 17811m | -12.0m/s | -67.0°C | 2.8% | 82.4hPa | 0V | 08:21:00 | 00:00:00 | 00:00:00 | |
| PU1XMG-16 | 2026-08-31 00:55:49 | -22.79213 | -42.81652 | 122° | 13km/h | 17884m | -12.3m/s | -67.5°C | 3.0% | 81.5hPa | 0V | 08:21:00 | 00:00:00 | 00:00:00 | |
| PU1XMG-16 | 2026-08-31 00:55:43 | -22.79213 | -42.81673 | 68° | 18km/h | 17956m | -12.3m/s | -67.1°C | 2.8% | 80.5hPa | 0V | 08:21:00 | 00:00:00 | 00:00:00 | |
| PU1XMG-16 | 2026-08-31 00:55:38 | -22.79229 | -42.81701 | 56° | 27km/h | 18017m | -12.3m/s | -67.0°C | 2.8% | 79.6hPa | 0V | 08:21:00 | 00:00:00 | 00:00:00 | |
| PU1XMG-16 | 2026-08-31 00:55:31 | -22.79249 | -42.81746 | 76° | 24km/h | 18106m | -13.0m/s | -66.2°C | 2.6% | 78.5hPa | 0V | 08:21:00 | 00:00:00 | 00:00:00 | |
| PU1XMG-16 | 2026-08-31 00:55:25 | -22.79262 | -42.81785 | 62° | 27km/h | 18181m | -12.5m/s | -66.3°C | 2.8% | 77.5hPa | 0V | 08:21:00 | 00:00:00 | 00:00:00 | |
| PU1XMG-16 | 2026-08-31 00:55:18 | -22.79291 | -42.81832 | 62° | 29km/h | 18269m | -12.7m/s | -65.1°C | 2.4% | 76.4hPa | 0V | 08:21:00 | 00:00:00 | 00:00:00 | |
| PU1XMG-16 | 2026-08-31 00:55:13 | -22.79305 | -42.81873 | 81° | 26km/h | 18347m | -13.1m/s | -64.5°C | 2.3% | 75.5hPa | 0V | 08:22:00 | 00:00:00 | 00:00:00 | |
| PU1XMG-16 | 2026-08-31 00:55:07 | -22.79305 | -42.81908 | 100° | 29km/h | 18412m | -12.9m/s | -63.9°C | 2.2% | 74.6hPa | 0V | 08:22:00 | 00:00:00 | 00:00:00 | |
| PU1XMG-16 | 2026-08-31 00:54:56 | -22.79275 | -42.81997 | 116° | 37km/h | 18558m | -13.8m/s | -63.3°C | 2.1% | 72.9hPa | 0V | 08:22:00 | 00:00:00 | 00:00:00 | |
| PU1XMG-16 | 2026-08-31 00:54:51 | -22.79253 | -42.82046 | 116° | 42km/h | 18624m | -13.5m/s | -63.6°C | 1.9% | 72.1hPa | 0V | 08:22:00 | 00:00:00 | 00:00:00 | |
| PU1XMG-16 | 2026-08-31 00:54:46 | -22.79224 | -42.82108 | 118° | 44km/h | 18706m | -13.7m/s | -62.4°C | 1.9% | 71.1hPa | 0V | 08:22:00 | 00:00:00 | 00:00:00 | |
| PU1XMG-16 | 2026-08-31 00:54:34 | -22.79196 | -42.82232 | 86° | 35km/h | 18871m | -13.9m/s | -62.7°C | 1.9% | 69.3hPa | 0V | 08:22:00 | 00:00:00 | 00:00:00 | |
| PU1XMG-16 | 2026-08-31 00:54:27 | -22.79206 | -42.82280 | 70° | 27km/h | 18956m | -13.9m/s | -62.6°C | 1.9% | 68.3hPa | 0V | 08:22:00 | 00:00:00 | 00:00:00 | |
| PU1XMG-16 | 2026-08-31 00:54:22 | -22.79223 | -42.82312 | 53° | 26km/h | 19027m | -13.9m/s | -62.5°C | 1.9% | 67.5hPa | 0V | 08:23:00 | 00:00:00 | 00:00:00 | |
| PU1XMG-16 | 2026-08-31 00:54:16 | -22.79253 | -42.82340 | 34° | 26km/h | 19114m | -14.2m/s | -62.6°C | 1.9% | 66.6hPa | 0V | 08:23:00 | 00:00:00 | 00:00:00 | |
| PU1XMG-16 | 2026-08-31 00:54:11 | -22.79278 | -42.82354 | 21° | 20km/h | 19187m | -14.4m/s | -62.6°C | 1.8% | 65.8hPa | 0V | 08:23:00 | 00:00:00 | 00:00:00 | |
| PU1XMG-16 | 2026-08-31 00:54:07 | -22.79299 | -42.82362 | 23° | 15km/h | 19260m | -14.7m/s | -62.6°C | 1.8% | 65.0hPa | 0V | 08:23:00 | 00:00:00 | 00:00:00 | |
| PU1XMG-16 | 2026-08-31 00:54:00 | -22.79313 | -42.82373 | 48° | 11km/h | 19350m | -15.0m/s | -63.1°C | 2.0% | 64.1hPa | 0V | 08:23:00 | 00:00:00 | 00:00:00 | |
| PU1XMG-16 | 2026-08-31 00:53:54 | -22.79328 | -42.82382 | 10° | 13km/h | 19440m | -15.0m/s | -63.5°C | 2.0% | 63.1hPa | 0V | 08:23:00 | 00:00:00 | 00:00:00 | |
| PU1XMG-16 | 2026-08-31 00:53:49 | -22.79345 | -42.82378 | 335° | 15km/h | 19516m | -15.3m/s | -62.1°C | 1.7% | 62.4hPa | 0V | 08:23:00 | 00:00:00 | 00:00:00 | |
| PU1XMG-16 | 2026-08-31 00:53:44 | -22.79358 | -42.82367 | 303° | 11km/h | 19593m | -15.6m/s | -62.1°C | 1.8% | 61.5hPa | 0V | 08:23:00 | 00:00:00 | 00:00:00 | |
| PU1XMG-16 | 2026-08-31 00:53:39 | -22.79359 | -42.82354 | 245° | 7km/h | 19686m | -15.3m/s | -61.7°C | 1.6% | 60.7hPa | 0V | 08:23:00 | 00:00:00 | 00:00:00 | |
| PU1XMG-16 | 2026-08-31 00:53:32 | -22.79350 | -42.82342 | 227° | 11km/h | 19780m | -15.9m/s | -62.4°C | 1.7% | 59.8hPa | 0V | 08:24:00 | 00:00:00 | 00:00:00 | |
| PU1XMG-16 | 2026-08-31 00:53:27 | -22.79338 | -42.82333 | 205° | 15km/h | 19859m | -15.7m/s | -62.9°C | 1.6% | 59.0hPa | 0V | 08:24:00 | 00:00:00 | 00:00:00 | |
| PU1XMG-16 | 2026-08-31 00:53:22 | -22.79312 | -42.82325 | 194° | 20km/h | 19953m | -15.6m/s | -63.5°C | 1.7% | 58.1hPa | 0V | 08:24:00 | 00:00:00 | 00:00:00 | |
| PU1XMG-16 | 2026-08-31 00:53:16 | -22.79286 | -42.82322 | 182° | 22km/h | 20032m | -16.0m/s | -63.9°C | 1.9% | 57.3hPa | 0V | 08:24:00 | 00:00:00 | 00:00:00 | |
| PU1XMG-16 | 2026-08-31 00:53:11 | -22.79259 | -42.82327 | 156° | 20km/h | 20112m | -15.6m/s | -64.4°C | 1.9% | 56.6hPa | 0V | 08:24:00 | 00:00:00 | 00:00:00 | |
| PU1XMG-16 | 2026-08-31 00:53:05 | -22.79237 | -42.82347 | 132° | 16km/h | 20205m | -16.0m/s | -64.9°C | 1.9% | 55.7hPa | 0V | 08:24:00 | 00:00:00 | 00:00:00 | |
| PU1XMG-16 | 2026-08-31 00:52:59 | -22.79228 | -42.82363 | 46° | 4km/h | 20317m | -15.9m/s | -64.6°C | 1.9% | 54.7hPa | 0V | 08:24:00 | 00:00:00 | 00:00:00 | |
| PU1XMG-16 | 2026-08-31 00:52:53 | -22.79233 | -42.82364 | 33° | 2km/h | 20413m | -16.0m/s | -64.3°C | 1.8% | 53.9hPa | 0V | 08:24:00 | 00:00:00 | 00:00:00 | |
| PU1XMG-16 | 2026-08-31 00:52:47 | -22.79232 | -42.82368 | 148° | 4km/h | 20494m | -15.8m/s | -63.8°C | 1.6% | 53.1hPa | 0V | 08:24:00 | 00:00:00 | 00:00:00 | |
| PU1XMG-16 | 2026-08-31 00:52:42 | -22.79229 | -42.82368 | 0° | 0km/h | 20575m | -16.4m/s | -64.0°C | 1.8% | 52.5hPa | 0V | 08:25:00 | 00:00:00 | 00:00:00 | |
| PU1XMG-16 | 2026-08-31 00:52:36 | -22.79230 | -42.82370 | 56° | 5km/h | 20672m | -16.5m/s | -63.5°C | 1.8% | 51.6hPa | 0V | 08:25:00 | 00:00:00 | 00:00:00 | |
| PU1XMG-16 | 2026-08-31 00:52:30 | -22.79231 | -42.82376 | 105° | 4km/h | 20769m | -16.3m/s | -63.7°C | 1.8% | 50.8hPa | 0V | 08:25:00 | 00:00:00 | 00:00:00 | |
| PU1XMG-16 | 2026-08-31 00:52:24 | -22.79223 | -42.82378 | 177° | 11km/h | 20867m | -16.4m/s | -63.5°C | 1.7% | 50.0hPa | 0V | 08:25:00 | 00:00:00 | 00:00:00 | |
| PU1XMG-16 | 2026-08-31 00:52:19 | -22.79208 | -42.82385 | 145° | 15km/h | 20949m | -16.2m/s | -63.7°C | 1.8% | 49.3hPa | 0V | 08:25:00 | 00:00:00 | 00:00:00 | |
| PU1XMG-16 | 2026-08-31 00:52:14 | -22.79197 | -42.82402 | 102° | 16km/h | 21030m | -16.5m/s | -63.0°C | 1.7% | 48.7hPa | 0V | 08:25:00 | 00:00:00 | 00:00:00 | |
| PU1XMG-16 | 2026-08-31 00:52:09 | -22.79199 | -42.82422 | 69° | 11km/h | 21112m | -16.5m/s | -62.8°C | 1.6% | 48.1hPa | 0V | 08:25:00 | 00:00:00 | 00:00:00 | |
| PU1XMG-16 | 2026-08-31 00:52:03 | -22.79210 | -42.82428 | 348° | 9km/h | 21209m | -16.0m/s | -62.4°C | 1.5% | 47.3hPa | 0V | 08:25:00 | 00:00:00 | 00:00:00 | |
| PU1XMG-16 | 2026-08-31 00:51:58 | -22.79216 | -42.82424 | 272° | 4km/h | 21289m | -16.1m/s | -62.2°C | 1.5% | 46.7hPa | 0V | 08:25:00 | 00:00:00 | 00:00:00 | |
| PU1XMG-16 | 2026-08-31 00:51:53 | -22.79217 | -42.82416 | 315° | 5km/h | 21386m | -15.9m/s | -61.7°C | 1.6% | 45.9hPa | 0V | 08:25:00 | 00:00:00 | 00:00:00 | |
| PU1XMG-16 | 2026-08-31 00:51:47 | -22.79225 | -42.82410 | 335° | 9km/h | 21467m | -16.6m/s | -61.7°C | 1.6% | 45.3hPa | 0V | 08:25:00 | 00:00:00 | 00:00:00 | |
| PU1XMG-16 | 2026-08-31 00:51:41 | -22.79240 | -42.82407 | 13° | 9km/h | 21564m | -16.3m/s | -61.4°C | 1.5% | 44.6hPa | 0V | 08:25:00 | 00:00:00 | 00:00:00 | |
| PU1XMG-16 | 2026-08-31 00:51:36 | -22.79246 | -42.82414 | 70° | 4km/h | 21661m | -16.2m/s | -60.3°C | 1.4% | 43.9hPa | 0V | 08:25:00 | 00:00:00 | 00:00:00 | |
| PU1XMG-16 | 2026-08-31 00:51:30 | -22.79254 | -42.82414 | 353° | 13km/h | 21742m | -16.4m/s | -59.3°C | 1.4% | 43.3hPa | 0V | 08:25:00 | 00:00:00 | 00:00:00 | |
| PU1XMG-16 | 2026-08-31 00:51:25 | -22.79275 | -42.82412 | 4° | 11km/h | 21840m | -16.6m/s | -59.1°C | 1.4% | 42.7hPa | 0V | 08:25:00 | 00:00:00 | 00:00:00 | |
| PU1XMG-16 | 2026-08-31 00:51:19 | -22.79286 | -42.82413 | 10° | 7km/h | 21923m | -16.4m/s | -58.8°C | 1.3% | 42.1hPa | 0V | 08:25:00 | 00:00:00 | 00:00:00 | |
| PU1XMG-16 | 2026-08-31 00:51:13 | -22.79301 | -42.82416 | 21° | 13km/h | 22023m | -16.7m/s | -57.4°C | 1.1% | 41.4hPa | 0V | 08:25:00 | 00:00:00 | 00:00:00 | |
| PU1XMG-16 | 2026-08-31 00:51:08 | -22.79318 | -42.82422 | 12° | 16km/h | 22107m | -16.8m/s | -57.5°C | 1.2% | 40.9hPa | 0V | 08:25:00 | 00:00:00 | 00:00:00 | |
| PU1XMG-16 | 2026-08-31 00:51:03 | -22.79341 | -42.82420 | 348° | 15km/h | 22208m | -16.8m/s | -58.0°C | 1.2% | 40.2hPa | 0V | 08:25:00 | 00:00:00 | 00:00:00 | |
| PU1XMG-16 | 2026-08-31 00:50:57 | -22.79355 | -42.82417 | 342° | 7km/h | 22293m | -17.2m/s | -58.0°C | 1.2% | 39.7hPa | 0V | 08:26:00 | 00:00:00 | 00:00:00 | |
| PU1XMG-16 | 2026-08-31 00:50:51 | -22.79358 | -42.82413 | 0° | 0km/h | 22395m | -17.1m/s | -57.5°C | 1.0% | 39.0hPa | 0V | 08:26:00 | 00:00:00 | 00:00:00 | |
| PU1XMG-16 | 2026-08-31 00:50:46 | -22.79355 | -42.82413 | 202° | 5km/h | 22479m | -16.7m/s | -57.6°C | 1.2% | 38.6hPa | 0V | 08:26:00 | 00:00:00 | 00:00:00 | |
| PU1XMG-16 | 2026-08-31 00:50:40 | -22.79343 | -42.82403 | 225° | 13km/h | 22580m | -17.0m/s | -57.2°C | 1.2% | 37.9hPa | 0V | 08:26:00 | 00:00:00 | 00:00:00 | |
| PU1XMG-16 | 2026-08-31 00:50:35 | -22.79332 | -42.82392 | 211° | 11km/h | 22665m | -17.2m/s | -57.2°C | 1.2% | 37.4hPa | 0V | 08:26:00 | 00:00:00 | 00:00:00 | |
| PU1XMG-16 | 2026-08-31 00:50:30 | -22.79316 | -42.82389 | 177° | 15km/h | 22751m | -17.2m/s | -57.3°C | 1.1% | 36.9hPa | 0V | 08:26:00 | 00:00:00 | 00:00:00 | |
| PU1XMG-16 | 2026-08-31 00:50:24 | -22.79301 | -42.82398 | 113° | 11km/h | 22855m | -17.3m/s | -57.4°C | 1.2% | 36.3hPa | 0V | 08:26:00 | 00:00:00 | 00:00:00 | |
| PU1XMG-16 | 2026-08-31 00:50:18 | -22.79297 | -42.82413 | 133° | 7km/h | 22960m | -17.8m/s | -57.5°C | 1.1% | 35.7hPa | 0V | 08:26:00 | 00:00:00 | 00:00:00 | |
| PU1XMG-16 | 2026-08-31 00:50:12 | -22.79282 | -42.82414 | 181° | 16km/h | 23065m | -18.0m/s | -57.7°C | 1.0% | 35.1hPa | 0V | 08:26:00 | 00:00:00 | 00:00:00 | |
| PU1XMG-16 | 2026-08-31 00:50:07 | -22.79262 | -42.82419 | 160° | 16km/h | 23156m | -18.5m/s | -57.7°C | 1.0% | 34.6hPa | 0V | 08:27:00 | 00:00:00 | 00:00:00 | |
| PU1XMG-16 | 2026-08-31 00:49:56 | -22.79240 | -42.82462 | 94° | 18km/h | 23358m | -18.8m/s | -57.8°C | 1.2% | 33.5hPa | 0V | 08:27:00 | 00:00:00 | 00:00:00 | |
| PU1XMG-16 | 2026-08-31 00:49:51 | -22.79243 | -42.82486 | 71° | 22km/h | 23452m | -18.9m/s | -58.1°C | 1.1% | 33.0hPa | 0V | 08:27:00 | 00:00:00 | 00:00:00 | |
| PU1XMG-16 | 2026-08-31 00:49:46 | -22.79257 | -42.82515 | 55° | 24km/h | 23545m | -18.7m/s | -58.8°C | 1.2% | 32.5hPa | 0V | 08:27:00 | 00:00:00 | 00:00:00 | |
| PU1XMG-16 | 2026-08-31 00:49:40 | -22.79276 | -42.82536 | 30° | 11km/h | 23657m | -18.6m/s | -59.4°C | 1.3% | 31.9hPa | 0V | 08:27:00 | 00:00:00 | 00:00:00 | |
| PU1XMG-16 | 2026-08-31 00:49:34 | -22.79285 | -42.82545 | 87° | 15km/h | 23770m | -19.6m/s | -59.4°C | 1.3% | 31.3hPa | 0V | 08:27:00 | 00:00:00 | 00:00:00 | |
| PU1XMG-16 | 2026-08-31 00:49:28 | -22.79281 | -42.82581 | 98° | 27km/h | 23886m | -19.4m/s | -59.2°C | 1.3% | 30.8hPa | 0V | 08:27:00 | 00:00:00 | 00:00:00 | |
| PU1XMG-16 | 2026-08-31 00:49:22 | -22.79277 | -42.82612 | 81° | 13km/h | 24001m | -19.4m/s | -59.2°C | 1.4% | 30.2hPa | 0V | 08:27:00 | 00:00:00 | 00:00:00 | |
| PU1XMG-16 | 2026-08-31 00:49:16 | -22.79277 | -42.82632 | 114° | 15km/h | 24119m | -19.2m/s | -59.3°C | 1.4% | 29.6hPa | 0V | 08:28:00 | 00:00:00 | 00:00:00 | |
| PU1XMG-16 | 2026-08-31 00:49:11 | -22.79263 | -42.82653 | 131° | 22km/h | 24214m | -19.9m/s | -58.9°C | 1.2% | 29.2hPa | 0V | 08:28:00 | 00:00:00 | 00:00:00 | |
| PU1XMG-16 | 2026-08-31 00:49:05 | -22.79245 | -42.82687 | 113° | 26km/h | 24332m | -19.9m/s | -57.9°C | 1.1% | 28.6hPa | 0V | 08:28:00 | 00:00:00 | 00:00:00 | |
| PU1XMG-16 | 2026-08-31 00:48:59 | -22.79236 | -42.82726 | 107° | 22km/h | 24450m | -20.1m/s | -57.2°C | 1.0% | 28.1hPa | 0V | 08:28:00 | 00:00:00 | 00:00:00 | |
| PU1XMG-16 | 2026-08-31 00:48:53 | -22.79229 | -42.82747 | 97° | 11km/h | 24571m | -20.6m/s | -56.6°C | 1.1% | 27.6hPa | 0V | 08:28:00 | 00:00:00 | 00:00:00 | |
| PU1XMG-16 | 2026-08-31 00:48:47 | -22.79227 | -42.82777 | 89° | 24km/h | 24693m | -20.7m/s | -55.2°C | 1.0% | 27.0hPa | 0V | 08:28:00 | 00:00:00 | 00:00:00 | |
| PU1XMG-16 | 2026-08-31 00:48:42 | -22.79232 | -42.82801 | 58° | 15km/h | 24794m | -20.4m/s | -54.4°C | 1.0% | 26.6hPa | 0V | 08:28:00 | 00:00:00 | 00:00:00 | |
| PU1XMG-16 | 2026-08-31 00:48:37 | -22.79244 | -42.82816 | 55° | 13km/h | 24897m | -21.0m/s | -53.7°C | 0.9% | 26.2hPa | 0V | 08:28:00 | 00:00:00 | 00:00:00 | |
| PU1XMG-16 | 2026-08-31 00:48:31 | -22.79250 | -42.82834 | 94° | 11km/h | 25021m | -20.7m/s | -53.8°C | 0.9% | 25.7hPa | 0V | 08:28:00 | 00:00:00 | 00:00:00 | |
| PU1XMG-16 | 2026-08-31 00:48:25 | -22.79247 | -42.82842 | 0° | 0km/h | 25146m | -21.0m/s | -53.8°C | 0.9% | 25.2hPa | 0V | 08:29:00 | 00:00:00 | 00:00:00 | |
| PU1XMG-16 | 2026-08-31 00:48:20 | -22.79246 | -42.82845 | 121° | 7km/h | 25251m | -21.3m/s | -53.7°C | 1.0% | 24.8hPa | 0V | 08:29:00 | 00:00:00 | 00:00:00 | |
| PU1XMG-16 | 2026-08-31 00:48:16 | -22.79235 | -42.82852 | 169° | 13km/h | 25355m | -21.4m/s | -53.5°C | 0.8% | 24.3hPa | 0V | 08:29:00 | 00:00:00 | 00:00:00 | |
| PU1XMG-16 | 2026-08-31 00:48:09 | -22.79214 | -42.82852 | 181° | 11km/h | 25482m | -20.8m/s | -53.7°C | 0.9% | 23.9hPa | 0V | 08:29:00 | 00:00:00 | 00:00:00 | |
| PU1XMG-16 | 2026-08-31 00:48:04 | -22.79200 | -42.82859 | 158° | 15km/h | 25587m | -21.0m/s | -53.9°C | 0.9% | 23.5hPa | 0V | 08:29:00 | 00:00:00 | 00:00:00 | |
| PU1XMG-16 | 2026-08-31 00:47:58 | -22.79178 | -42.82873 | 152° | 18km/h | 25714m | -21.6m/s | -54.3°C | 1.1% | 23.0hPa | 0V | 08:29:00 | 00:00:00 | 00:00:00 | |
| PU1XMG-16 | 2026-08-31 00:47:52 | -22.79155 | -42.82890 | 139° | 18km/h | 25843m | -21.7m/s | -54.3°C | 1.0% | 22.5hPa | 0V | 08:29:00 | 00:00:00 | 00:00:00 | |
| PU1XMG-16 | 2026-08-31 00:47:46 | -22.79126 | -42.82911 | 146° | 27km/h | 25972m | -22.0m/s | -54.1°C | 1.0% | 22.1hPa | 0V | 08:29:00 | 00:00:00 | 00:00:00 | |
| PU1XMG-16 | 2026-08-31 00:47:41 | -22.79097 | -42.82933 | 140° | 27km/h | 26081m | -22.1m/s | -54.1°C | 1.0% | 21.7hPa | 0V | 08:29:00 | 00:00:00 | 00:00:00 | |
| PU1XMG-16 | 2026-08-31 00:47:36 | -22.79069 | -42.82956 | 154° | 31km/h | 26190m | -22.2m/s | -53.6°C | 0.9% | 21.3hPa | 0V | 00:00:00 | 00:00:00 | 00:00:00 | |
| PU1XMG-16 | 2026-08-31 00:47:30 | -22.79019 | -42.82986 | 149° | 42km/h | 26323m | -22.9m/s | -52.8°C | 0.9% | 20.9hPa | 0V | 00:00:00 | 00:00:00 | 00:00:00 | |
| PU1XMG-16 | 2026-08-31 00:47:24 | -22.78969 | -42.83031 | 136° | 38km/h | 26458m | -22.9m/s | -52.2°C | 0.8% | 20.4hPa | 0V | 00:00:00 | 00:00:00 | 00:00:00 | |
| PU1XMG-16 | 2026-08-31 00:47:18 | -22.78934 | -42.83060 | 142° | 20km/h | 26593m | -23.0m/s | -51.7°C | 0.7% | 20.0hPa | 0V | 00:00:00 | 00:00:00 | 00:00:00 | |
| PU1XMG-16 | 2026-08-31 00:47:13 | -22.78918 | -42.83075 | 134° | 15km/h | 26708m | -23.5m/s | -51.1°C | 0.8% | 19.7hPa | 0V | 00:00:00 | 00:00:00 | 00:00:00 | |
| PU1XMG-16 | 2026-08-31 00:47:09 | -22.78902 | -42.83099 | 124° | 27km/h | 26827m | -23.8m/s | -51.0°C | 0.8% | 19.3hPa | 0V | 00:00:00 | 00:00:00 | 00:00:00 | |
| PU1XMG-16 | 2026-08-31 00:47:02 | -22.78880 | -42.83134 | 123° | 24km/h | 26971m | -24.1m/s | -51.7°C | 0.9% | 18.9hPa | 0V | 00:00:00 | 00:00:00 | 00:00:00 | |
| PU1XMG-16 | 2026-08-31 00:46:57 | -22.78861 | -42.83163 | 129° | 33km/h | 27090m | -24.7m/s | -51.2°C | 0.8% | 18.5hPa | 0V | 00:00:00 | 00:00:00 | 00:00:00 | |
| PU1XMG-16 | 2026-08-31 00:46:52 | -22.78834 | -42.83195 | 136° | 26km/h | 27213m | -25.4m/s | -51.2°C | 0.9% | 18.2hPa | 0V | 00:00:00 | 00:00:00 | 00:00:00 | |
| PU1XMG-16 | 2026-08-31 00:46:46 | -22.78809 | -42.83244 | 114° | 46km/h | 27365m | -26.7m/s | -50.4°C | 0.9% | 17.7hPa | 0V | 00:00:00 | 00:00:00 | 00:00:00 | |
| PU1XMG-16 | 2026-08-31 00:46:41 | -22.78795 | -42.83297 | 97° | 38km/h | 27522m | -31.5m/s | -49.1°C | 0.7% | 17.3hPa | 0V | 00:00:00 | 00:00:00 | 00:00:00 | |
| PU1XMG-16 | 2026-08-31 00:46:35 | -22.78790 | -42.83376 | 95° | 55km/h | 27685m | -27.0m/s | -47.9°C | 0.6% | 16.9hPa | 0V | 00:00:00 | 00:00:00 | 00:00:00 | |
| PU1XMG-16 | 2026-08-31 00:46:30 | -22.78790 | -42.83424 | 86° | 27km/h | 27815m | -10.3m/s | -47.9°C | 0.7% | 16.4hPa | 0V | 00:00:00 | 00:00:00 | 00:00:00 | |
| PU1XMG-16 | 2026-08-31 00:46:24 | -22.78796 | -42.83473 | 88° | 35km/h | 27788m | 6.0m/s | -47.8°C | 0.6% | 16.5hPa | 0V | 00:00:00 | 00:00:00 | 00:00:00 | |
| PU1XMG-16 | 2026-08-31 00:46:19 | -22.78801 | -42.83523 | 84° | 38km/h | 27757m | 5.6m/s | -47.9°C | 0.7% | 16.6hPa | 0V | 00:00:00 | 00:00:00 | 00:00:00 | |
| PU1XMG-16 | 2026-08-31 00:46:13 | -22.78802 | -42.83584 | 84° | 37km/h | 27719m | 5.5m/s | -48.3°C | 0.7% | 16.7hPa | 0V | 00:00:00 | 00:00:00 | 00:00:00 | |
| PU1XMG-16 | 2026-08-31 00:46:08 | -22.78808 | -42.83637 | 75° | 29km/h | 27681m | 5.0m/s | -48.7°C | 0.7% | 16.8hPa | 0V | 00:00:00 | 00:00:00 | 00:00:00 | |
| PU1XMG-16 | 2026-08-31 00:46:02 | -22.78802 | -42.83693 | 104° | 40km/h | 27645m | 5.7m/s | -48.9°C | 0.7% | 16.9hPa | 0V | 00:00:00 | 00:00:00 | 00:00:00 | |
| PU1XMG-16 | 2026-08-31 00:45:56 | -22.78787 | -42.83747 | 105° | 38km/h | 27615m | 6.4m/s | -49.0°C | 0.7% | 17.0hPa | 0V | 00:00:00 | 00:00:00 | 00:00:00 | |
| PU1XMG-16 | 2026-08-31 00:45:51 | -22.78780 | -42.83792 | 111° | 38km/h | 27586m | 5.8m/s | -49.4°C | 0.7% | 17.1hPa | 0V | 00:00:00 | 00:00:00 | 00:00:00 | |
| PU1XMG-16 | 2026-08-31 00:45:46 | -22.78761 | -42.83852 | 110° | 49km/h | 27559m | 6.0m/s | -49.9°C | 0.7% | 17.1hPa | 0V | 00:00:00 | 00:00:00 | 00:00:00 | |
| PU1XMG-16 | 2026-08-31 00:45:40 | -22.78735 | -42.83927 | 107° | 47km/h | 27524m | 3.9m/s | -50.2°C | 0.8% | 17.2hPa | 0V | 00:00:00 | 00:00:00 | 00:00:00 | |
| PU1XMG-16 | 2026-08-31 00:45:34 | -22.78707 | -42.84002 | 111° | 51km/h | 27490m | 4.6m/s | -50.5°C | 0.8% | 17.3hPa | 0V | 00:00:00 | 00:00:00 | 00:00:00 | |
| PU1XMG-16 | 2026-08-31 00:45:29 | -22.78686 | -42.84058 | 106° | 38km/h | 27462m | 6.0m/s | -51.0°C | 0.8% | 17.4hPa | 0V | 00:00:00 | 00:00:00 | 00:00:00 | |
| PU1XMG-16 | 2026-08-31 00:45:23 | -22.78666 | -42.84100 | 123° | 26km/h | 27429m | 6.7m/s | -51.2°C | 0.8% | 17.5hPa | 0V | 00:00:00 | 00:00:00 | 00:00:00 | |
| PU1XMG-16 | 2026-08-31 00:45:19 | -22.78646 | -42.84138 | 118° | 35km/h | 27403m | 5.1m/s | -51.4°C | 0.8% | 17.6hPa | 0V | 00:00:00 | 00:00:00 | 00:00:00 | |
| PU1XMG-16 | 2026-08-31 00:45:12 | -22.78625 | -42.84181 | 129° | 26km/h | 27369m | 5.4m/s | -51.8°C | 0.8% | 17.7hPa | 0V | 00:00:00 | 00:00:00 | 00:00:00 | |
| PU1XMG-16 | 2026-08-31 00:45:07 | -22.78605 | -42.84216 | 126° | 40km/h | 27343m | 5.2m/s | -52.0°C | 0.8% | 17.7hPa | 0V | 00:00:00 | 00:00:00 | 00:00:00 | |
| PU1XMG-16 | 2026-08-31 00:45:01 | -22.78573 | -42.84280 | 127° | 37km/h | 27311m | 5.0m/s | -52.1°C | 0.8% | 17.8hPa | 0V | 00:00:00 | 00:00:00 | 00:00:00 | |
| PU1XMG-16 | 2026-08-31 00:44:55 | -22.78550 | -42.84312 | 130° | 29km/h | 27281m | 6.1m/s | -52.0°C | 0.8% | 17.9hPa | 0V | 00:00:00 | 00:00:00 | 00:00:00 | |
| PU1XMG-16 | 2026-08-31 00:44:50 | -22.78523 | -42.84359 | 123° | 46km/h | 27254m | 5.7m/s | -52.4°C | 0.9% | 18.0hPa | 0V | 00:00:00 | 00:00:00 | 00:00:00 | |
| PU1XMG-16 | 2026-08-31 00:44:45 | -22.78498 | -42.84391 | 134° | 15km/h | 27228m | 4.3m/s | -52.3°C | 0.9% | 18.0hPa | 0V | 00:00:00 | 00:00:00 | 00:00:00 | |
| PU1XMG-16 | 2026-08-31 00:44:39 | -22.78475 | -42.84406 | 128° | 27km/h | 27198m | 6.6m/s | -52.3°C | 0.8% | 18.1hPa | 0V | 00:00:00 | 00:00:00 | 00:00:00 | |
| PU1XMG-16 | 2026-08-31 00:44:34 | -22.78456 | -42.84443 | 124° | 27km/h | 27171m | 4.8m/s | -52.5°C | 0.9% | 18.2hPa | 0V | 00:00:00 | 00:00:00 | 00:00:00 | |
| PU1XMG-16 | 2026-08-31 00:44:30 | -22.78440 | -42.84473 | 135° | 24km/h | 27146m | 6.6m/s | -52.9°C | 0.9% | 18.3hPa | 0V | 00:00:00 | 00:00:00 | 00:00:00 | |
| PU1XMG-16 | 2026-08-31 00:44:23 | -22.78414 | -42.84501 | 131° | 35km/h | 27113m | 5.8m/s | -52.8°C | 0.9% | 18.4hPa | 0V | 00:00:00 | 00:00:00 | 00:00:00 | |
| PU1XMG-16 | 2026-08-31 00:44:19 | -22.78392 | -42.84550 | 110° | 40km/h | 27085m | 6.2m/s | -52.8°C | 0.9% | 18.5hPa | 0V | 00:00:00 | 00:00:00 | 00:00:00 | |
| PU1XMG-16 | 2026-08-31 00:44:12 | -22.78374 | -42.84593 | 125° | 27km/h | 27052m | 5.8m/s | -52.6°C | 0.9% | 18.5hPa | 0V | 00:00:00 | 00:00:00 | 00:00:00 | |
| PU1XMG-16 | 2026-08-31 00:44:07 | -22.78350 | -42.84627 | 114° | 33km/h | 27023m | 4.6m/s | -52.5°C | 0.9% | 18.6hPa | 0V | 00:00:00 | 00:00:00 | 00:00:00 | |
| PU1XMG-16 | 2026-08-31 00:44:02 | -22.78332 | -42.84680 | 98° | 29km/h | 26989m | 4.4m/s | -52.2°C | 0.9% | 18.8hPa | 0V | 00:00:00 | 00:00:00 | 00:00:00 | |
| PU1XMG-16 | 2026-08-31 00:43:55 | -22.78319 | -42.84711 | 120° | 22km/h | 26956m | 5.1m/s | -52.1°C | 0.9% | 18.8hPa | 0V | 00:00:00 | 00:00:00 | 00:00:00 | |
| PU1XMG-16 | 2026-08-31 00:43:50 | -22.78301 | -42.84746 | 114° | 33km/h | 26928m | 6.5m/s | -52.2°C | 0.9% | 18.9hPa | 0V | 00:00:00 | 00:00:00 | 00:00:00 | |
| PU1XMG-16 | 2026-08-31 00:43:45 | -22.78292 | -42.84781 | 120° | 16km/h | 26898m | 5.6m/s | -52.2°C | 0.8% | 19.0hPa | 0V | 00:00:00 | 00:00:00 | 00:00:00 | |
| PU1XMG-16 | 2026-08-31 00:43:39 | -22.78277 | -42.84801 | 143° | 20km/h | 26863m | 5.4m/s | -52.3°C | 0.9% | 19.1hPa | 0V | 00:00:00 | 00:00:00 | 00:00:00 | |
| PU1XMG-16 | 2026-08-31 00:43:34 | -22.78263 | -42.84825 | 122° | 24km/h | 26833m | 6.9m/s | -52.4°C | 0.8% | 19.2hPa | 0V | 00:00:00 | 00:00:00 | 00:00:00 | |
| PU1XMG-16 | 2026-08-31 00:43:28 | -22.78248 | -42.84857 | 144° | 15km/h | 26796m | 6.0m/s | -53.0°C | 0.9% | 19.3hPa | 0V | 00:00:00 | 00:00:00 | 00:00:00 | |
| PU1XMG-16 | 2026-08-31 00:43:22 | -22.78232 | -42.84868 | 148° | 18km/h | 26760m | 6.0m/s | -52.9°C | 0.9% | 19.4hPa | 0V | 00:00:00 | 00:00:00 | 00:00:00 | |
| PU1XMG-16 | 2026-08-31 00:43:17 | -22.78210 | -42.84896 | 127° | 31km/h | 26730m | 5.7m/s | -52.9°C | 0.9% | 19.5hPa | 0V | 00:00:00 | 00:00:00 | 00:00:00 | |
| PU1XMG-16 | 2026-08-31 00:43:12 | -22.78185 | -42.84927 | 123° | 27km/h | 26699m | 6.3m/s | -53.0°C | 0.9% | 19.6hPa | 0V | 00:00:00 | 00:00:00 | 00:00:00 | |
| PU1XMG-16 | 2026-08-31 00:43:06 | -22.78157 | -42.84966 | 131° | 37km/h | 26663m | 6.8m/s | -53.1°C | 0.9% | 19.7hPa | 0V | 00:00:00 | 00:00:00 | 00:00:00 | |
| PU1XMG-16 | 2026-08-31 00:42:56 | -22.78090 | -42.85050 | 136° | 46km/h | 26597m | 6.2m/s | -53.2°C | 0.9% | 19.9hPa | 0V | 00:00:00 | 00:00:00 | 00:00:00 | |
| PU1XMG-16 | 2026-08-31 00:42:51 | -22.78051 | -42.85093 | 141° | 46km/h | 26565m | 7.8m/s | -53.2°C | 0.9% | 20.0hPa | 0V | 00:00:00 | 00:00:00 | 00:00:00 | |
| PU1XMG-16 | 2026-08-31 00:42:45 | -22.77992 | -42.85145 | 145° | 55km/h | 26525m | 6.8m/s | -53.3°C | 0.9% | 20.2hPa | 0V | 00:00:00 | 00:00:00 | 00:00:00 | |
| PU1XMG-16 | 2026-08-31 00:42:35 | -22.77900 | -42.85230 | 147° | 47km/h | 26452m | 7.8m/s | -53.8°C | 0.9% | 20.4hPa | 0V | 00:00:00 | 00:00:00 | 00:00:00 | |
| PU1XMG-16 | 2026-08-31 00:42:29 | -22.77849 | -42.85269 | 144° | 42km/h | 26420m | 6.2m/s | -53.8°C | 0.9% | 20.5hPa | 0V | 00:00:00 | 00:00:00 | 00:00:00 | |
| PU1XMG-16 | 2026-08-31 00:42:24 | -22.77812 | -42.85303 | 135° | 38km/h | 26386m | 5.2m/s | -53.8°C | 0.9% | 20.6hPa | 0V | 00:00:00 | 00:00:00 | 00:00:00 | |
| PU1XMG-16 | 2026-08-31 00:42:19 | -22.77771 | -42.85335 | 149° | 46km/h | 26352m | 5.4m/s | -54.1°C | 0.9% | 20.7hPa | 0V | 00:00:00 | 00:00:00 | 00:00:00 | |
| PU1XMG-16 | 2026-08-31 00:42:14 | -22.77711 | -42.85366 | 146° | 38km/h | 26315m | 8.6m/s | -54.2°C | 1.0% | 20.8hPa | 0V | 00:00:00 | 00:00:00 | 00:00:00 | |
| PU1XMG-16 | 2026-08-31 00:42:08 | -22.77686 | -42.85398 | 118° | 31km/h | 26280m | 9.0m/s | -54.1°C | 1.0% | 21.0hPa | 0V | 00:00:00 | 00:00:00 | 00:00:00 | |
| PU1XMG-16 | 2026-08-31 00:42:02 | -22.77650 | -42.85442 | 146° | 42km/h | 26237m | 6.3m/s | -54.2°C | 0.9% | 21.1hPa | 0V | 00:00:00 | 00:00:00 | 00:00:00 | |
| PU1XMG-16 | 2026-08-31 00:41:57 | -22.77607 | -42.85468 | 148° | 37km/h | 26205m | 7.7m/s | -54.3°C | 1.0% | 21.2hPa | 0V | 00:00:00 | 00:00:00 | 00:00:00 | |
| PU1XMG-16 | 2026-08-31 00:41:51 | -22.77570 | -42.85509 | 136° | 33km/h | 26166m | 5.4m/s | -54.4°C | 1.0% | 21.4hPa | 0V | 00:00:00 | 00:00:00 | 00:00:00 | |
| PU1XMG-16 | 2026-08-31 00:41:47 | -22.77534 | -42.85541 | 152° | 38km/h | 26133m | 5.4m/s | -54.4°C | 1.0% | 21.5hPa | 0V | 00:00:00 | 00:00:00 | 00:00:00 | |
| PU1XMG-16 | 2026-08-31 00:41:41 | -22.77485 | -42.85572 | 159° | 26km/h | 26094m | 6.5m/s | -54.3°C | 1.0% | 21.6hPa | 0V | 00:00:00 | 00:00:00 | 00:00:00 | |
| PU1XMG-16 | 2026-08-31 00:41:35 | -22.77455 | -42.85586 | 147° | 26km/h | 26062m | 6.7m/s | -54.2°C | 1.0% | 21.7hPa | 0V | 00:00:00 | 00:00:00 | 00:00:00 | |
| PU1XMG-16 | 2026-08-31 00:41:30 | -22.77427 | -42.85611 | 140° | 33km/h | 26027m | 5.5m/s | -54.2°C | 1.0% | 21.8hPa | 0V | 00:00:00 | 00:00:00 | 00:00:00 | |
| PU1XMG-16 | 2026-08-31 00:41:24 | -22.77390 | -42.85640 | 150° | 29km/h | 25987m | 6.2m/s | -54.1°C | 1.0% | 22.0hPa | 0V | 00:00:00 | 00:00:00 | 00:00:00 | |
| PU1XMG-16 | 2026-08-31 00:41:19 | -22.77362 | -42.85659 | 144° | 31km/h | 25954m | 7.4m/s | -54.0°C | 0.9% | 22.1hPa | 0V | 00:00:00 | 00:00:00 | 00:00:00 | |
| PU1XMG-16 | 2026-08-31 00:41:15 | -22.77336 | -42.85685 | 140° | 26km/h | 25920m | 8.0m/s | -54.1°C | 1.0% | 22.2hPa | 0V | 00:00:00 | 00:00:00 | 00:00:00 | |
| PU1XMG-16 | 2026-08-31 00:41:08 | -22.77316 | -42.85704 | 141° | 16km/h | 25880m | 7.7m/s | -54.2°C | 1.0% | 22.3hPa | 0V | 00:00:00 | 00:00:00 | 00:00:00 | |
| PU1XMG-16 | 2026-08-31 00:41:03 | -22.77290 | -42.85730 | 141° | 27km/h | 25842m | 7.7m/s | -54.2°C | 1.0% | 22.5hPa | 0V | 00:00:00 | 00:00:00 | 00:00:00 | |
| PU1XMG-16 | 2026-08-31 00:40:58 | -22.77264 | -42.85748 | 136° | 18km/h | 25809m | 6.4m/s | -54.2°C | 1.0% | 22.6hPa | 0V | 00:00:00 | 00:00:00 | 00:00:00 | |
| PU1XMG-16 | 2026-08-31 00:40:52 | -22.77244 | -42.85765 | 142° | 20km/h | 25778m | 7.9m/s | -54.1°C | 1.0% | 22.7hPa | 0V | 00:00:00 | 00:00:00 | 00:00:00 | |
| PU1XMG-16 | 2026-08-31 00:40:46 | -22.77217 | -42.85784 | 142° | 20km/h | 25737m | 7.6m/s | -54.1°C | 1.0% | 22.9hPa | 0V | 00:00:00 | 00:00:00 | 00:00:00 | |
| PU1XMG-16 | 2026-08-31 00:40:41 | -22.77192 | -42.85804 | 141° | 16km/h | 25699m | 7.6m/s | -53.9°C | 1.0% | 23.0hPa | 0V | 00:00:00 | 00:00:00 | 00:00:00 | |
| PU1XMG-16 | 2026-08-31 00:40:36 | -22.77180 | -42.85812 | 156° | 9km/h | 25666m | 7.3m/s | -53.8°C | 1.0% | 23.1hPa | 0V | 00:00:00 | 00:00:00 | 00:00:00 | |
| PU1XMG-16 | 2026-08-31 00:40:30 | -22.77168 | -42.85822 | 131° | 16km/h | 25633m | 5.4m/s | -53.7°C | 1.0% | 23.3hPa | 0V | 00:00:00 | 00:00:00 | 00:00:00 | |
| PU1XMG-16 | 2026-08-31 00:40:25 | -22.77153 | -42.85847 | 130° | 22km/h | 25600m | 4.5m/s | -53.5°C | 1.0% | 23.4hPa | 0V | 00:00:00 | 00:00:00 | 00:00:00 | |
| PU1XMG-16 | 2026-08-31 00:40:20 | -22.77140 | -42.85864 | 148° | 5km/h | 25559m | 8.4m/s | -53.3°C | 1.0% | 23.5hPa | 0V | 00:00:00 | 00:00:00 | 00:00:00 | |
| PU1XMG-16 | 2026-08-31 00:40:14 | -22.77128 | -42.85871 | 144° | 16km/h | 25527m | 7.3m/s | -53.2°C | 0.9% | 23.6hPa | 0V | 00:00:00 | 00:00:00 | 00:00:00 | |
| PU1XMG-16 | 2026-08-31 00:40:09 | -22.77111 | -42.85889 | 136° | 15km/h | 25494m | 7.2m/s | -53.2°C | 0.9% | 23.8hPa | 0V | 00:00:00 | 00:00:00 | 00:00:00 | |
| PU1XMG-16 | 2026-08-31 00:40:03 | -22.77101 | -42.85887 | 206° | 9km/h | 25454m | 7.2m/s | -53.1°C | 0.9% | 23.9hPa | 0V | 00:00:00 | 00:00:00 | 00:00:00 | |
| PU1XMG-16 | 2026-08-31 00:39:58 | -22.77082 | -42.85894 | 151° | 20km/h | 25422m | 7.2m/s | -53.0°C | 0.9% | 24.0hPa | 0V | 00:00:00 | 00:00:00 | 00:00:00 | |
| PU1XMG-16 | 2026-08-31 00:39:52 | -22.77066 | -42.85901 | 201° | 2km/h | 25384m | 7.9m/s | -53.0°C | 0.9% | 24.2hPa | 0V | 00:00:00 | 00:00:00 | 00:00:00 | |
| PU1XMG-16 | 2026-08-31 00:39:47 | -22.77062 | -42.85899 | 165° | 13km/h | 25353m | 4.8m/s | -53.0°C | 0.9% | 24.3hPa | 0V | 00:00:00 | 00:00:00 | 00:00:00 | |
| PU1XMG-16 | 2026-08-31 00:39:41 | -22.77044 | -42.85916 | 141° | 15km/h | 25314m | 5.6m/s | -52.8°C | 0.9% | 24.5hPa | 0V | 00:00:00 | 00:00:00 | 00:00:00 | |
| PU1XMG-16 | 2026-08-31 00:39:36 | -22.77037 | -42.85928 | 141° | 9km/h | 25282m | 5.6m/s | -53.0°C | 0.9% | 24.6hPa | 0V | 00:00:00 | 00:00:00 | 00:00:00 | |
| PU1XMG-16 | 2026-08-31 00:39:31 | -22.77034 | -42.85943 | 101° | 11km/h | 25243m | 7.3m/s | -53.3°C | 0.9% | 24.7hPa | 0V | 00:00:00 | 00:00:00 | 00:00:00 | |
| PU1XMG-16 | 2026-08-31 00:39:24 | -22.77032 | -42.85954 | 216° | 4km/h | 25205m | 6.5m/s | -53.3°C | 1.0% | 24.8hPa | 0V | 00:00:00 | 00:00:00 | 00:00:00 | |
| PU1XMG-16 | 2026-08-31 00:39:19 | -22.77034 | -42.85952 | 77° | 7km/h | 25171m | 7.0m/s | -53.3°C | 1.0% | 25.0hPa | 0V | 00:00:00 | 00:00:00 | 00:00:00 | |
| PU1XMG-16 | 2026-08-31 00:39:14 | -22.77044 | -42.85965 | 53° | 13km/h | 25140m | 7.5m/s | -53.4°C | 1.0% | 25.1hPa | 0V | 00:00:00 | 00:00:00 | 00:00:00 | |
| PU1XMG-16 | 2026-08-31 00:39:08 | -22.77051 | -42.85980 | 45° | 4km/h | 25104m | 7.0m/s | -53.3°C | 1.0% | 25.3hPa | 0V | 00:00:00 | 00:00:00 | 00:00:00 | |
| PU1XMG-16 | 2026-08-31 00:39:01 | -22.77054 | -42.85982 | 55° | 11km/h | 25066m | 7.0m/s | -53.3°C | 1.0% | 25.4hPa | 0V | 00:00:00 | 00:00:00 | 00:00:00 | |
| PU1XMG-16 | 2026-08-31 00:38:56 | -22.77064 | -42.86004 | 48° | 20km/h | 25036m | 4.5m/s | -53.4°C | 1.0% | 25.5hPa | 0V | 00:00:00 | 00:00:00 | 00:00:00 | |
| PU1XMG-16 | 2026-08-31 00:38:51 | -22.77071 | -42.86013 | 10° | 4km/h | 25005m | 7.4m/s | -53.4°C | 1.0% | 25.6hPa | 0V | 00:00:00 | 00:00:00 | 00:00:00 | |
| PU1XMG-16 | 2026-08-31 00:38:46 | -22.77084 | -42.86029 | 49° | 29km/h | 24968m | 5.9m/s | -53.3°C | 1.0% | 25.8hPa | 0V | 00:00:00 | 00:00:00 | 00:00:00 | |
| PU1XMG-16 | 2026-08-31 00:38:39 | -22.77110 | -42.86062 | 57° | 20km/h | 24930m | 5.4m/s | -53.3°C | 1.0% | 26.0hPa | 0V | 00:00:00 | 00:00:00 | 00:00:00 | |
| PU1XMG-16 | 2026-08-31 00:38:34 | -22.77116 | -42.86082 | 60° | 13km/h | 24895m | 5.5m/s | -53.3°C | 1.0% | 26.1hPa | 0V | 00:00:00 | 00:00:00 | 00:00:00 | |
| PU1XMG-16 | 2026-08-31 00:38:29 | -22.77140 | -42.86092 | 16° | 26km/h | 24855m | 5.6m/s | -53.2°C | 1.0% | 26.3hPa | 0V | 00:00:00 | 00:00:00 | 00:00:00 | |
| PU1XMG-16 | 2026-08-31 00:38:23 | -22.77158 | -42.86110 | 65° | 24km/h | 24823m | 6.9m/s | -53.2°C | 1.0% | 26.4hPa | 0V | 00:00:00 | 00:00:00 | 00:00:00 | |
| PU1XMG-16 | 2026-08-31 00:38:18 | -22.77168 | -42.86137 | 53° | 22km/h | 24790m | 7.4m/s | -53.2°C | 1.0% | 26.6hPa | 0V | 00:00:00 | 00:00:00 | 00:00:00 | |
| PU1XMG-16 | 2026-08-31 00:38:13 | -22.77197 | -42.86155 | 36° | 26km/h | 24759m | 5.2m/s | -53.6°C | 1.0% | 26.7hPa | 0V | 00:00:00 | 00:00:00 | 00:00:00 | |
| PU1XMG-16 | 2026-08-31 00:38:08 | -22.77216 | -42.86201 | 89° | 31km/h | 24720m | 6.7m/s | -54.0°C | 1.0% | 26.9hPa | 0V | 00:00:00 | 00:00:00 | 00:00:00 | |
| PU1XMG-16 | 2026-08-31 00:38:01 | -22.77223 | -42.86242 | 69° | 18km/h | 24682m | 6.1m/s | -54.3°C | 1.0% | 27.0hPa | 0V | 00:00:00 | 00:00:00 | 00:00:00 | |
| PU1XMG-16 | 2026-08-31 00:37:56 | -22.77233 | -42.86279 | 96° | 22km/h | 24645m | 5.7m/s | -54.7°C | 1.0% | 27.2hPa | 0V | 00:00:00 | 00:00:00 | 00:00:00 | |
| PU1XMG-16 | 2026-08-31 00:37:50 | -22.77231 | -42.86305 | 85° | 9km/h | 24615m | 7.4m/s | -55.1°C | 1.0% | 0hPa | 0V | 00:00:00 | 00:00:00 | 00:00:00 | |
| PU1XMG-16 | 2026-08-31 00:37:44 | -22.77245 | -42.86314 | 52° | 16km/h | 24578m | 6.5m/s | -55.5°C | 1.0% | 27.5hPa | 0V | 00:00:00 | 00:00:00 | 00:00:00 | |
| PU1XMG-16 | 2026-08-31 00:37:39 | -22.77251 | -42.86340 | 84° | 26km/h | 24546m | 5.5m/s | -55.8°C | 1.1% | 27.6hPa | 0V | 00:00:00 | 00:00:00 | 00:00:00 | |
| PU1XMG-16 | 2026-08-31 00:37:33 | -22.77256 | -42.86369 | 56° | 16km/h | 24508m | 5.1m/s | -56.2°C | 1.1% | 27.8hPa | 0V | 00:00:00 | 00:00:00 | 00:00:00 | |
| PU1XMG-16 | 2026-08-31 00:37:27 | -22.77260 | -42.86388 | 92° | 20km/h | 24471m | 7.1m/s | -56.5°C | 1.2% | 27.9hPa | 0V | 00:00:00 | 00:00:00 | 00:00:00 | |
| PU1XMG-16 | 2026-08-31 00:37:23 | -22.77260 | -42.86419 | 82° | 22km/h | 24439m | 7.0m/s | -56.5°C | 1.2% | 28.1hPa | 0V | 00:00:00 | 00:00:00 | 00:00:00 | |
| PU1XMG-16 | 2026-08-31 00:37:17 | -22.77271 | -42.86438 | 25° | 11km/h | 24409m | 5.4m/s | -56.4°C | 1.1% | 28.2hPa | 0V | 00:00:00 | 00:00:00 | 00:00:00 | |
| PU1XMG-16 | 2026-08-31 00:37:13 | -22.77279 | -42.86460 | 110° | 27km/h | 24372m | 4.5m/s | -56.7°C | 1.2% | 28.4hPa | 0V | 00:00:00 | 00:00:00 | 00:00:00 | |
| PU1XMG-16 | 2026-08-31 00:37:06 | -22.77271 | -42.86502 | 101° | 22km/h | 24340m | 5.8m/s | -56.8°C | 1.1% | 28.5hPa | 0V | 00:00:00 | 00:00:00 | 00:00:00 | |
| PU1XMG-16 | 2026-08-31 00:37:00 | -22.77271 | -42.86524 | 111° | 9km/h | 24302m | 5.1m/s | -57.2°C | 1.1% | 28.7hPa | 0V | 00:00:00 | 00:00:00 | 00:00:00 | |
| PU1XMG-16 | 2026-08-31 00:36:55 | -22.77259 | -42.86555 | 112° | 26km/h | 24265m | 6.5m/s | -57.8°C | 1.2% | 28.9hPa | 0V | 00:00:00 | 00:00:00 | 00:00:00 | |
| PU1XMG-16 | 2026-08-31 00:36:49 | -22.77256 | -42.86581 | 116° | 9km/h | 24234m | 4.9m/s | -58.1°C | 1.3% | 29.0hPa | 0V | 00:00:00 | 00:00:00 | 00:00:00 | |
| PU1XMG-16 | 2026-08-31 00:36:43 | -22.77245 | -42.86600 | 132° | 18km/h | 24198m | 5.0m/s | -58.3°C | 1.3% | 29.2hPa | 0V | 00:00:00 | 00:00:00 | 00:00:00 | |
| PU1XMG-16 | 2026-08-31 00:36:37 | -22.77230 | -42.86627 | 108° | 15km/h | 24161m | 7.1m/s | -58.8°C | 1.3% | 29.3hPa | 0V | 00:00:00 | 00:00:00 | 00:00:00 | |
| PU1XMG-16 | 2026-08-31 00:36:31 | -22.77228 | -42.86638 | 139° | 4km/h | 24126m | 6.2m/s | -58.8°C | 1.3% | 29.5hPa | 0V | 00:00:00 | 00:00:00 | 00:00:00 | |
| PU1XMG-16 | 2026-08-31 00:36:26 | -22.77226 | -42.86647 | 107° | 7km/h | 24097m | 5.9m/s | -58.9°C | 1.3% | 29.7hPa | 0V | 00:00:00 | 00:00:00 | 00:00:00 | |
| PU1XMG-16 | 2026-08-31 00:36:21 | -22.77226 | -42.86652 | 332° | 4km/h | 24065m | 5.4m/s | -59.1°C | 1.4% | 29.8hPa | 0V | 00:00:00 | 00:00:00 | 00:00:00 | |
| PU1XMG-16 | 2026-08-31 00:36:16 | -22.77231 | -42.86650 | 361° | 5km/h | 24036m | 2.9m/s | -59.2°C | 1.3% | 30.0hPa | 0V | 00:00:00 | 00:00:00 | 00:00:00 | |
| PU1XMG-16 | 2026-08-31 00:36:11 | -22.77237 | -42.86667 | 71° | 16km/h | 24000m | 5.7m/s | -59.1°C | 1.4% | 30.1hPa | 0V | 00:00:00 | 00:00:00 | 00:00:00 | |
| PU1XMG-16 | 2026-08-31 00:36:06 | -22.77243 | -42.86680 | 358° | 5km/h | 23972m | 4.3m/s | -59.0°C | 1.3% | 30.3hPa | 0V | 00:00:00 | 00:00:00 | 00:00:00 | |
| PU1XMG-16 | 2026-08-31 00:36:00 | -22.77247 | -42.86687 | 73° | 15km/h | 23942m | 5.0m/s | -59.2°C | 1.3% | 30.4hPa | 0V | 00:00:00 | 00:00:00 | 00:00:00 | |
| PU1XMG-16 | 2026-08-31 00:35:55 | -22.77245 | -42.86725 | 97° | 22km/h | 23907m | 4.7m/s | -59.1°C | 1.3% | 30.6hPa | 0V | 00:00:00 | 00:00:00 | 00:00:00 | |
| PU1XMG-16 | 2026-08-31 00:35:50 | -22.77245 | -42.86747 | 42° | 11km/h | 23877m | 5.4m/s | -59.1°C | 1.3% | 30.7hPa | 0V | 00:00:00 | 00:00:00 | 00:00:00 | |
| PU1XMG-16 | 2026-08-31 00:35:44 | -22.77252 | -42.86759 | 73° | 9km/h | 23848m | 6.7m/s | -59.2°C | 1.3% | 30.9hPa | 0V | 00:00:00 | 00:00:00 | 00:00:00 | |
| PU1XMG-16 | 2026-08-31 00:35:39 | -22.77249 | -42.86777 | 86° | 9km/h | 23816m | 6.3m/s | -59.2°C | 1.4% | 31.0hPa | 0V | 00:00:00 | 00:00:00 | 00:00:00 | |
| PU1XMG-16 | 2026-08-31 00:35:33 | -22.77253 | -42.86782 | 30° | 11km/h | 23788m | 5.4m/s | -59.2°C | 1.4% | 31.2hPa | 0V | 00:00:00 | 00:00:00 | 00:00:00 | |
| PU1XMG-16 | 2026-08-31 00:35:28 | -22.77266 | -42.86784 | 80° | 4km/h | 23755m | 4.5m/s | -59.2°C | 1.4% | 31.3hPa | 0V | 00:00:00 | 00:00:00 | 00:00:00 | |
| PU1XMG-16 | 2026-08-31 00:35:23 | -22.77269 | -42.86786 | 14° | 9km/h | 23726m | 4.3m/s | -59.3°C | 1.4% | 31.5hPa | 0V | 00:00:00 | 00:00:00 | 00:00:00 | |
| PU1XMG-16 | 2026-08-31 00:35:16 | -22.77295 | -42.86778 | 354° | 18km/h | 23691m | 5.5m/s | -59.4°C | 1.4% | 31.7hPa | 0V | 00:00:00 | 00:00:00 | 00:00:00 | |
| PU1XMG-16 | 2026-08-31 00:35:11 | -22.77313 | -42.86778 | 33° | 16km/h | 23663m | 5.8m/s | -59.4°C | 1.4% | 31.8hPa | 0V | 00:00:00 | 00:00:00 | 00:00:00 | |
| PU1XMG-16 | 2026-08-31 00:35:06 | -22.77333 | -42.86788 | 24° | 22km/h | 23635m | 9.3m/s | -59.3°C | 1.4% | 32.0hPa | 0V | 00:00:00 | 00:00:00 | 00:00:00 | |
| PU1XMG-16 | 2026-08-31 00:35:00 | -22.77365 | -42.86801 | 32° | 22km/h | 23598m | 5.2m/s | -59.1°C | 1.4% | 32.1hPa | 0V | 00:00:00 | 00:00:00 | 00:00:00 | |
| PU1XMG-16 | 2026-08-31 00:34:56 | -22.77382 | -42.86816 | 49° | 22km/h | 23567m | 6.1m/s | -58.9°C | 1.4% | 32.3hPa | 0V | 00:00:00 | 00:00:00 | 00:00:00 | |
| PU1XMG-16 | 2026-08-31 00:34:50 | -22.77405 | -42.86833 | 28° | 22km/h | 23538m | 5.5m/s | -58.6°C | 1.4% | 32.5hPa | 0V | 00:00:00 | 00:00:00 | 00:00:00 | |
| PU1XMG-16 | 2026-08-31 00:34:45 | -22.77432 | -42.86856 | 37° | 20km/h | 23502m | 5.2m/s | -58.3°C | 1.3% | 32.6hPa | 0V | 00:00:00 | 00:00:00 | 00:00:00 | |
| PU1XMG-16 | 2026-08-31 00:34:39 | -22.77446 | -42.86875 | 51° | 13km/h | 23470m | 5.5m/s | -58.1°C | 1.3% | 32.8hPa | 0V | 00:00:00 | 00:00:00 | 00:00:00 | |
| PU1XMG-16 | 2026-08-31 00:34:33 | -22.77458 | -42.86893 | 33° | 18km/h | 23434m | 4.6m/s | -57.8°C | 1.3% | 33.0hPa | 0V | 00:00:00 | 00:00:00 | 00:00:00 | |
| PU1XMG-16 | 2026-08-31 00:34:28 | -22.77471 | -42.86914 | 86° | 16km/h | 23405m | 6.0m/s | -57.5°C | 1.3% | 33.2hPa | 0V | 00:00:00 | 00:00:00 | 00:00:00 | |
| PU1XMG-16 | 2026-08-31 00:34:22 | -22.77477 | -42.86936 | 56° | 11km/h | 23365m | 8.0m/s | -57.4°C | 1.2% | 33.4hPa | 0V | 00:00:00 | 00:00:00 | 00:00:00 | |
| PU1XMG-16 | 2026-08-31 00:34:17 | -22.77485 | -42.86957 | 65° | 15km/h | 23326m | 6.4m/s | -57.5°C | 1.3% | 33.6hPa | 0V | 00:00:00 | 00:00:00 | 00:00:00 | |
| PU1XMG-16 | 2026-08-31 00:34:11 | -22.77487 | -42.86977 | 123° | 9km/h | 23294m | 6.1m/s | -57.4°C | 1.3% | 33.7hPa | 0V | 00:00:00 | 00:00:00 | 00:00:00 | |
| PU1XMG-16 | 2026-08-31 00:34:06 | -22.77472 | -42.86987 | 158° | 11km/h | 23261m | 6.8m/s | -57.3°C | 1.3% | 33.9hPa | 0V | 00:00:00 | 00:00:00 | 00:00:00 | |
| PU1XMG-16 | 2026-08-31 00:34:00 | -22.77471 | -42.87003 | 78° | 11km/h | 23221m | 5.3m/s | -57.2°C | 1.3% | 34.1hPa | 0V | 00:00:00 | 00:00:00 | 00:00:00 | |
| PU1XMG-16 | 2026-08-31 00:33:54 | -22.77459 | -42.87016 | 166° | 16km/h | 23181m | 8.1m/s | -57.1°C | 1.3% | 34.3hPa | 0V | 00:00:00 | 00:00:00 | 00:00:00 | |
| PU1XMG-16 | 2026-08-31 00:33:49 | -22.77438 | -42.87020 | 166° | 15km/h | 23147m | 8.1m/s | -57.0°C | 1.3% | 34.6hPa | 0V | 00:00:00 | 00:00:00 | 00:00:00 | |
| PU1XMG-16 | 2026-08-31 00:33:44 | -22.77422 | -42.87027 | 163° | 16km/h | 23107m | 6.8m/s | -57.0°C | 1.3% | 34.8hPa | 0V | 00:00:00 | 00:00:00 | 00:00:00 | |
| PU1XMG-16 | 2026-08-31 00:33:39 | -22.77395 | -42.87029 | 179° | 26km/h | 23072m | 6.4m/s | -57.0°C | 1.3% | 35.0hPa | 0V | 00:00:00 | 00:00:00 | 00:00:00 | |
| PU1XMG-16 | 2026-08-31 00:33:32 | -22.77367 | -42.87025 | 179° | 9km/h | 23032m | 5.4m/s | -57.0°C | 1.2% | 35.2hPa | 0V | 00:00:00 | 00:00:00 | 00:00:00 | |
| PU1XMG-16 | 2026-08-31 00:33:26 | -22.77353 | -42.87020 | 179° | 18km/h | 22992m | 6.0m/s | -57.0°C | 1.2% | 35.4hPa | 0V | 00:00:00 | 00:00:00 | 00:00:00 | |
| PU1XMG-16 | 2026-08-31 00:33:21 | -22.77332 | -42.87017 | 190° | 13km/h | 22959m | 7.6m/s | -56.8°C | 1.2% | 35.6hPa | 0V | 00:00:00 | 00:00:00 | 00:00:00 | |
| PU1XMG-16 | 2026-08-31 00:33:16 | -22.77325 | -42.87017 | 69° | 4km/h | 22926m | 6.2m/s | -56.8°C | 1.2% | 35.8hPa | 0V | 00:00:00 | 00:00:00 | 00:00:00 | |
| PU1XMG-16 | 2026-08-31 00:33:10 | -22.77325 | -42.87034 | 101° | 11km/h | 22888m | 4.7m/s | -56.9°C | 1.3% | 36.0hPa | 0V | 00:00:00 | 00:00:00 | 00:00:00 | |
| PU1XMG-16 | 2026-08-31 00:33:04 | -22.77314 | -42.87049 | 132° | 5km/h | 22850m | 6.2m/s | -56.8°C | 1.2% | 36.2hPa | 0V | 00:00:00 | 00:00:00 | 00:00:00 | |
| PU1XMG-16 | 2026-08-31 00:32:58 | -22.77333 | -42.87064 | 74° | 16km/h | 22808m | 7.6m/s | -56.8°C | 1.2% | 36.5hPa | 0V | 00:00:00 | 00:00:00 | 00:00:00 | |
| PU1XMG-16 | 2026-08-31 00:32:52 | -22.77307 | -42.87089 | 145° | 20km/h | 22768m | 9.2m/s | -57.0°C | 1.2% | 36.7hPa | 0V | 00:00:00 | 00:00:00 | 00:00:00 | |
| PU1XMG-16 | 2026-08-31 00:32:46 | -22.77286 | -42.87098 | 149° | 11km/h | 22726m | 6.1m/s | -57.1°C | 1.2% | 37.0hPa | 0V | 00:00:00 | 00:00:00 | 00:00:00 | |
| PU1XMG-16 | 2026-08-31 00:32:41 | -22.77279 | -42.87110 | 123° | 11km/h | 22687m | 5.7m/s | -57.3°C | 1.3% | 37.1hPa | 0V | 00:00:00 | 00:00:00 | 00:00:00 | |
| PU1XMG-16 | 2026-08-31 00:32:35 | -22.77271 | -42.87116 | 178° | 9km/h | 22651m | 6.2m/s | -57.4°C | 1.3% | 37.4hPa | 0V | 00:00:00 | 00:00:00 | 00:00:00 | |
| PU1XMG-16 | 2026-08-31 00:32:29 | -22.77252 | -42.87112 | 195° | 13km/h | 22610m | 6.9m/s | -57.8°C | 1.3% | 37.6hPa | 0V | 00:00:00 | 00:00:00 | 00:00:00 | |
| PU1XMG-16 | 2026-08-31 00:32:24 | -22.77243 | -42.87118 | 92° | 11km/h | 22576m | 7.6m/s | -57.8°C | 1.3% | 37.8hPa | 0V | 00:00:00 | 00:00:00 | 00:00:00 | |
| PU1XMG-16 | 2026-08-31 00:32:18 | -22.77244 | -42.87130 | 153° | 9km/h | 22538m | 6.9m/s | -58.2°C | 1.3% | 38.1hPa | 0V | 00:00:00 | 00:00:00 | 00:00:00 | |
| PU1XMG-16 | 2026-08-31 00:32:13 | -22.77231 | -42.87136 | 141° | 15km/h | 22504m | 5.8m/s | -58.1°C | 1.3% | 38.3hPa | 0V | 00:00:00 | 00:00:00 | 00:00:00 | |
| PU1XMG-16 | 2026-08-31 00:32:08 | -22.77226 | -42.87148 | 92° | 9km/h | 22470m | 5.1m/s | -58.1°C | 1.4% | 38.5hPa | 0V | 00:00:00 | 00:00:00 | 00:00:00 | |
| PU1XMG-16 | 2026-08-31 00:32:02 | -22.77223 | -42.87152 | 132° | 7km/h | 22432m | 5.5m/s | -58.2°C | 1.4% | 38.7hPa | 0V | 00:00:00 | 00:00:00 | 00:00:00 | |
| PU1XMG-16 | 2026-08-31 00:31:57 | -22.77218 | -42.87160 | 111° | 11km/h | 22400m | 6.0m/s | -58.3°C | 1.4% | 38.9hPa | 0V | 00:00:00 | 00:00:00 | 00:00:00 | |
| PU1XMG-16 | 2026-08-31 00:31:52 | -22.77223 | -42.87171 | 48° | 11km/h | 22367m | 7.4m/s | -58.6°C | 1.4% | 39.2hPa | 0V | 00:00:00 | 00:00:00 | 00:00:00 | |
| PU1XMG-16 | 2026-08-31 00:31:46 | -22.77232 | -42.87175 | 49° | 4km/h | 22328m | 4.3m/s | -58.5°C | 1.4% | 39.4hPa | 0V | 00:00:00 | 00:00:00 | 00:00:00 | |
| PU1XMG-16 | 2026-08-31 00:31:41 | -22.77234 | -42.87178 | 41° | 5km/h | 22295m | 5.6m/s | -58.5°C | 1.5% | 39.6hPa | 0V | 00:00:00 | 00:00:00 | 00:00:00 | |
| PU1XMG-16 | 2026-08-31 00:31:35 | -22.77253 | -42.87181 | 25° | 18km/h | 22256m | 5.3m/s | -58.5°C | 1.5% | 39.8hPa | 0V | 00:00:00 | 00:00:00 | 00:00:00 | |
| PU1XMG-16 | 2026-08-31 00:31:30 | -22.77264 | -42.87198 | 87° | 15km/h | 22220m | 6.6m/s | -58.4°C | 1.5% | 40.1hPa | 0V | 00:00:00 | 00:00:00 | 00:00:00 | |
| PU1XMG-16 | 2026-08-31 00:31:24 | -22.77268 | -42.87213 | 25° | 13km/h | 22187m | 7.8m/s | -58.2°C | 1.4% | 40.3hPa | 0V | 00:00:00 | 00:00:00 | 00:00:00 | |
| PU1XMG-16 | 2026-08-31 00:31:18 | -22.77287 | -42.87218 | 55° | 7km/h | 22149m | 5.5m/s | -58.0°C | 1.4% | 40.5hPa | 0V | 00:00:00 | 00:00:00 | 00:00:00 | |
| PU1XMG-16 | 2026-08-31 00:31:13 | -22.77288 | -42.87230 | 96° | 7km/h | 22118m | 4.5m/s | -58.1°C | 1.3% | 40.7hPa | 0V | 00:00:00 | 00:00:00 | 00:00:00 | |
| PU1XMG-16 | 2026-08-31 00:31:08 | -22.77296 | -42.87242 | 38° | 13km/h | 22087m | 5.1m/s | -58.4°C | 1.4% | 40.9hPa | 0V | 00:00:00 | 00:00:00 | 00:00:00 | |
| PU1XMG-16 | 2026-08-31 00:31:02 | -22.77308 | -42.87259 | 84° | 11km/h | 22051m | 6.5m/s | -59.2°C | 1.5% | 41.1hPa | 0V | 00:00:00 | 00:00:00 | 00:00:00 | |
| PU1XMG-16 | 2026-08-31 00:30:57 | -22.77304 | -42.87273 | 113° | 7km/h | 22024m | 6.6m/s | -59.4°C | 1.5% | 41.3hPa | 0V | 00:00:00 | 00:00:00 | 00:00:00 | |
| PU1XMG-16 | 2026-08-31 00:30:52 | -22.77310 | -42.87280 | 10° | 7km/h | 21987m | 6.2m/s | -59.4°C | 1.5% | 41.6hPa | 0V | 00:00:00 | 00:00:00 | 00:00:00 | |
| PU1XMG-16 | 2026-08-31 00:30:46 | -22.77316 | -42.87283 | 67° | 7km/h | 21958m | 6.0m/s | -59.4°C | 1.5% | 41.8hPa | 0V | 00:00:00 | 00:00:00 | 00:00:00 | |
| PU1XMG-16 | 2026-08-31 00:30:40 | -22.77320 | -42.87289 | 11° | 11km/h | 21926m | 4.2m/s | -59.5°C | 1.6% | 42.0hPa | 0V | 00:00:00 | 00:00:00 | 00:00:00 | |
| PU1XMG-16 | 2026-08-31 00:30:35 | -22.77341 | -42.87292 | 10° | 15km/h | 21895m | 5.7m/s | -59.7°C | 1.6% | 42.2hPa | 0V | 00:00:00 | 00:00:00 | 00:00:00 | |
| PU1XMG-16 | 2026-08-31 00:30:28 | -22.77360 | -42.87292 | 352° | 9km/h | 21863m | 7.1m/s | -59.5°C | 1.6% | 42.4hPa | 0V | 00:00:00 | 00:00:00 | 00:00:00 | |
| PU1XMG-16 | 2026-08-31 00:30:23 | -22.77366 | -42.87293 | 69° | 2km/h | 21832m | 7.3m/s | -59.4°C | 1.5% | 42.6hPa | 0V | 00:00:00 | 00:00:00 | 00:00:00 | |
| PU1XMG-16 | 2026-08-31 00:30:17 | -22.77366 | -42.87297 | 57° | 5km/h | 21802m | 5.7m/s | -59.8°C | 1.5% | 42.8hPa | 0V | 00:00:00 | 00:00:00 | 00:00:00 | |
| PU1XMG-16 | 2026-08-31 00:30:12 | -22.77372 | -42.87303 | 45° | 7km/h | 21774m | 5.3m/s | -60.3°C | 1.6% | 43.1hPa | 0V | 00:00:00 | 00:00:00 | 00:00:00 | |
| PU1XMG-16 | 2026-08-31 00:30:07 | -22.77372 | -42.87314 | 118° | 13km/h | 21747m | 5.1m/s | -60.7°C | 1.6% | 43.3hPa | 0V | 00:00:00 | 00:00:00 | 00:00:00 | |
| PU1XMG-16 | 2026-08-31 00:30:02 | -22.77362 | -42.87326 | 155° | 5km/h | 21713m | 6.7m/s | -60.9°C | 1.7% | 43.5hPa | 0V | 00:00:00 | 00:00:00 | 00:00:00 | |
| PU1XMG-16 | 2026-08-31 00:29:56 | -22.77365 | -42.87329 | 21° | 5km/h | 21687m | 7.1m/s | -61.1°C | 1.7% | 43.6hPa | 0V | 00:00:00 | 00:00:00 | 00:00:00 | |
| PU1XMG-16 | 2026-08-31 00:29:50 | -22.77369 | -42.87335 | 0° | 0km/h | 21654m | 4.0m/s | -61.5°C | 1.7% | 43.9hPa | 0V | 00:00:00 | 00:00:00 | 00:00:00 | |
| PU1XMG-16 | 2026-08-31 00:29:45 | -22.77370 | -42.87338 | 98° | 4km/h | 21627m | 3.1m/s | -61.9°C | 1.8% | 44.1hPa | 0V | 00:00:00 | 00:00:00 | 00:00:00 | |
| PU1XMG-16 | 2026-08-31 00:29:39 | -22.77371 | -42.87344 | 4° | 2km/h | 21595m | 6.6m/s | -62.0°C | 1.8% | 44.3hPa | 0V | 00:00:00 | 00:00:00 | 00:00:00 | |
| PU1XMG-16 | 2026-08-31 00:29:35 | -22.77376 | -42.87340 | 306° | 5km/h | 21566m | 5.8m/s | -62.3°C | 1.8% | 44.5hPa | 0V | 00:00:00 | 00:00:00 | 00:00:00 | |
| PU1XMG-16 | 2026-08-31 00:29:29 | -22.77381 | -42.87335 | 22° | 5km/h | 21533m | 7.3m/s | -62.3°C | 1.9% | 44.7hPa | 0V | 00:00:00 | 00:00:00 | 00:00:00 | |
| PU1XMG-16 | 2026-08-31 00:29:22 | -22.77390 | -42.87337 | 350° | 4km/h | 21498m | 3.2m/s | -62.1°C | 1.9% | 45.0hPa | 0V | 00:00:00 | 00:00:00 | 00:00:00 | |
| PU1XMG-16 | 2026-08-31 00:29:17 | -22.77391 | -42.87326 | 263° | 9km/h | 21469m | 4.8m/s | -62.1°C | 1.9% | 45.2hPa | 0V | 00:00:00 | 00:00:00 | 00:00:00 | |
| PU1XMG-16 | 2026-08-31 00:29:12 | -22.77381 | -42.87319 | 159° | 9km/h | 21441m | 6.0m/s | -62.1°C | 1.9% | 45.4hPa | 0V | 00:00:00 | 00:00:00 | 00:00:00 | |
| PU1XMG-16 | 2026-08-31 00:29:06 | -22.77369 | -42.87317 | 258° | 7km/h | 21405m | 4.1m/s | -61.9°C | 1.9% | 45.7hPa | 0V | 00:00:00 | 00:00:00 | 00:00:00 | |
| PU1XMG-16 | 2026-08-31 00:29:00 | -22.77363 | -42.87306 | 203° | 4km/h | 21369m | 5.4m/s | -62.0°C | 1.8% | 45.9hPa | 0V | 00:00:00 | 00:00:00 | 00:00:00 | |
| PU1XMG-16 | 2026-08-31 00:28:55 | -22.77360 | -42.87305 | 252° | 5km/h | 21340m | 6.8m/s | -62.4°C | 1.9% | 46.2hPa | 0V | 00:00:00 | 00:00:00 | 00:00:00 | |
| PU1XMG-16 | 2026-08-31 00:28:50 | -22.77358 | -42.87292 | 275° | 13km/h | 21307m | 5.8m/s | -62.5°C | 1.9% | 46.4hPa | 0V | 00:00:00 | 00:00:00 | 00:00:00 | |
| PU1XMG-16 | 2026-08-31 00:28:44 | -22.77361 | -42.87284 | 103° | 4km/h | 21268m | 6.0m/s | -62.4°C | 2.0% | 46.7hPa | 0V | 00:00:00 | 00:00:00 | 00:00:00 | |
| PU1XMG-16 | 2026-08-31 00:28:38 | -22.77362 | -42.87284 | 209° | 4km/h | 21231m | 5.0m/s | -62.5°C | 1.9% | 47.0hPa | 0V | 00:00:00 | 00:00:00 | 00:00:00 | |
| PU1XMG-16 | 2026-08-31 00:28:33 | -22.77360 | -42.87284 | 124° | 5km/h | 21198m | 4.3m/s | -62.8°C | 2.0% | 47.3hPa | 0V | 00:00:00 | 00:00:00 | 00:00:00 | |
| PU1XMG-16 | 2026-08-31 00:28:28 | -22.77360 | -42.87292 | 97° | 5km/h | 21167m | 5.5m/s | -62.9°C | 2.0% | 47.5hPa | 0V | 00:00:00 | 00:00:00 | 00:00:00 | |
| PU1XMG-16 | 2026-08-31 00:28:23 | -22.77361 | -42.87309 | 115° | 13km/h | 21130m | 4.1m/s | -63.0°C | 2.0% | 47.8hPa | 0V | 00:00:00 | 00:00:00 | 00:00:00 | |
| PU1XMG-16 | 2026-08-31 00:28:16 | -22.77353 | -42.87329 | 122° | 15km/h | 21091m | 6.5m/s | -63.0°C | 2.0% | 48.1hPa | 0V | 00:00:00 | 00:00:00 | 00:00:00 | |
| PU1XMG-16 | 2026-08-31 00:28:11 | -22.77341 | -42.87351 | 126° | 22km/h | 21057m | 7.5m/s | -63.0°C | 2.1% | 48.4hPa | 0V | 00:00:00 | 00:00:00 | 00:00:00 | |
| PU1XMG-16 | 2026-08-31 00:27:44 | -22.77206 | -42.87437 | 159° | 22km/h | 20867m | 4.5m/s | -63.6°C | 2.2% | 49.9hPa | 0V | 00:00:00 | 00:00:00 | 00:00:00 | |
| PU1XMG-16 | 2026-08-31 00:27:35 | -22.77188 | -42.87448 | 152° | 9km/h | 20830m | 5.1m/s | -63.4°C | 2.1% | 50.2hPa | 0V | 00:00:00 | 00:00:00 | 00:00:00 | |
| PU1XMG-16 | 2026-08-31 00:27:27 | -22.77164 | -42.87456 | 152° | 18km/h | 20777m | 7.8m/s | -63.8°C | 2.3% | 50.6hPa | 0V | 00:00:00 | 00:00:00 | 00:00:00 | |
| PU1XMG-16 | 2026-08-31 00:27:13 | -22.77140 | -42.87479 | 136° | 15km/h | 20689m | 6.9m/s | -63.5°C | 2.2% | 51.3hPa | 0V | 00:00:00 | 00:00:00 | 00:00:00 | |
| PU1XMG-16 | 2026-08-31 00:27:07 | -22.77130 | -42.87497 | 102° | 9km/h | 20652m | 7.6m/s | -63.7°C | 2.2% | 51.6hPa | 0V | 00:00:00 | 00:00:00 | 00:00:00 | |
| PU1XMG-16 | 2026-08-31 00:27:02 | -22.77122 | -42.87497 | 203° | 11km/h | 20614m | 6.0m/s | -64.1°C | 2.3% | 51.9hPa | 0V | 00:00:00 | 00:00:00 | 00:00:00 | |
| PU1XMG-16 | 2026-08-31 00:26:55 | -22.77103 | -42.87501 | 135° | 15km/h | 20586m | 4.9m/s | -64.2°C | 2.3% | 52.2hPa | 0V | 00:00:00 | 00:00:00 | 00:00:00 | |
| PU1XMG-16 | 2026-08-31 00:26:49 | -22.77091 | -42.87515 | 151° | 5km/h | 20550m | 5.4m/s | -64.1°C | 2.3% | 52.5hPa | 0V | 00:00:00 | 00:00:00 | 00:00:00 | |
| PU1XMG-16 | 2026-08-31 00:26:37 | -22.77061 | -42.87532 | 137° | 7km/h | 20478m | 8.9m/s | -64.4°C | 2.3% | 53.2hPa | 0V | 00:00:00 | 00:00:00 | 00:00:00 | |
| PU1XMG-16 | 2026-08-31 00:26:31 | -22.77058 | -42.87531 | 139° | 2km/h | 20441m | 3.3m/s | -65.0°C | 2.4% | 53.5hPa | 0V | 00:00:00 | 00:00:00 | 00:00:00 | |
| PU1XMG-16 | 2026-08-31 00:26:26 | -22.77055 | -42.87538 | 127° | 11km/h | 20411m | 4.5m/s | -65.0°C | 2.5% | 53.7hPa | 0V | 00:00:00 | 00:00:00 | 00:00:00 | |
| PU1XMG-16 | 2026-08-31 00:26:21 | -22.77046 | -42.87547 | 157° | 11km/h | 20380m | 6.7m/s | -65.1°C | 2.4% | 54.0hPa | 0V | 00:00:00 | 00:00:00 | 00:00:00 | |
| PU1XMG-16 | 2026-08-31 00:26:15 | -22.77024 | -42.87561 | 137° | 20km/h | 20342m | 5.2m/s | -65.2°C | 2.5% | 54.4hPa | 0V | 00:00:00 | 00:00:00 | 00:00:00 | |
| PU1XMG-16 | 2026-08-31 00:26:10 | -22.77006 | -42.87582 | 131° | 16km/h | 20313m | 4.3m/s | -65.3°C | 2.5% | 54.6hPa | 0V | 00:00:00 | 00:00:00 | 00:00:00 | |
| PU1XMG-16 | 2026-08-31 00:26:05 | -22.76988 | -42.87598 | 143° | 20km/h | 20285m | 4.0m/s | -65.4°C | 2.6% | 54.8hPa | 0V | 00:00:00 | 00:00:00 | 00:00:00 | |
| PU1XMG-16 | 2026-08-31 00:26:00 | -22.76960 | -42.87619 | 140° | 26km/h | 20257m | 3.5m/s | -65.3°C | 2.6% | 55.1hPa | 0V | 00:00:00 | 00:00:00 | 00:00:00 | |
| PU1XMG-16 | 2026-08-31 00:25:55 | -22.76934 | -42.87645 | 142° | 26km/h | 20227m | 3.9m/s | -65.1°C | 2.6% | 55.4hPa | 0V | 00:00:00 | 00:00:00 | 00:00:00 | |
| PU1XMG-16 | 2026-08-31 00:25:49 | -22.76892 | -42.87665 | 163° | 35km/h | 20191m | 8.0m/s | -64.9°C | 2.5% | 55.7hPa | 0V | 00:00:00 | 00:00:00 | 00:00:00 | |
| PU1XMG-16 | 2026-08-31 00:25:44 | -22.76853 | -42.87679 | 158° | 31km/h | 20163m | 4.3m/s | -64.8°C | 2.5% | 56.0hPa | 0V | 00:00:00 | 00:00:00 | 00:00:00 | |
| PU1XMG-16 | 2026-08-31 00:25:39 | -22.76820 | -42.87692 | 168° | 29km/h | 20134m | 5.1m/s | -64.6°C | 2.5% | 56.3hPa | 0V | 00:00:00 | 00:00:00 | 00:00:00 | |
| PU1XMG-16 | 2026-08-31 00:25:33 | -22.76774 | -42.87699 | 175° | 29km/h | 20098m | 7.2m/s | -64.4°C | 2.5% | 56.6hPa | 0V | 00:00:00 | 00:00:00 | 00:00:00 | |
| PU1XMG-16 | 2026-08-31 00:25:28 | -22.76739 | -42.87701 | 179° | 22km/h | 20069m | 5.9m/s | -64.4°C | 2.5% | 56.9hPa | 0V | 00:00:00 | 00:00:00 | 00:00:00 | |
| PU1XMG-16 | 2026-08-31 00:25:24 | -22.76710 | -42.87704 | 181° | 20km/h | 20044m | 7.2m/s | -64.4°C | 2.5% | 57.1hPa | 0V | 00:00:00 | 00:00:00 | 00:00:00 | |
| PU1XMG-16 | 2026-08-31 00:25:18 | -22.76683 | -42.87703 | 184° | 18km/h | 20016m | 6.6m/s | -64.2°C | 2.5% | 57.4hPa | 0V | 00:00:00 | 00:00:00 | 00:00:00 | |
| PU1XMG-16 | 2026-08-31 00:25:13 | -22.76661 | -42.87700 | 208° | 16km/h | 19988m | 5.4m/s | -64.0°C | 2.5% | 57.6hPa | 0V | 00:00:00 | 00:00:00 | 00:00:00 | |
| PU1XMG-16 | 2026-08-31 00:25:07 | -22.76639 | -42.87684 | 211° | 18km/h | 19951m | 4.3m/s | -63.7°C | 2.5% | 58.0hPa | 0V | 00:00:00 | 00:00:00 | 00:00:00 | |
| PU1XMG-16 | 2026-08-31 00:25:02 | -22.76621 | -42.87676 | 192° | 16km/h | 19923m | 5.4m/s | -63.5°C | 2.4% | 58.2hPa | 0V | 00:00:00 | 00:00:00 | 00:00:00 | |
| PU1XMG-16 | 2026-08-31 00:24:57 | -22.76604 | -42.87670 | 216° | 16km/h | 19895m | 5.5m/s | -63.3°C | 2.5% | 58.5hPa | 0V | 00:00:00 | 00:00:00 | 00:00:00 | |
| PU1XMG-16 | 2026-08-31 00:24:53 | -22.76588 | -42.87660 | 193° | 15km/h | 19867m | 4.9m/s | -63.1°C | 2.4% | 58.8hPa | 0V | 00:00:00 | 00:00:00 | 00:00:00 | |
| PU1XMG-16 | 2026-08-31 00:24:46 | -22.76572 | -42.87663 | 179° | 7km/h | 19834m | 6.7m/s | -62.9°C | 2.5% | 59.1hPa | 0V | 00:00:00 | 00:00:00 | 00:00:00 | |
| PU1XMG-16 | 2026-08-31 00:24:41 | -22.76567 | -42.87654 | 266° | 11km/h | 19806m | 5.4m/s | -62.8°C | 2.4% | 59.4hPa | 0V | 00:00:00 | 00:00:00 | 00:00:00 | |
| PU1XMG-16 | 2026-08-31 00:24:35 | -22.76562 | -42.87643 | 263° | 4km/h | 19773m | 3.6m/s | -62.8°C | 2.3% | 59.6hPa | 0V | 00:00:00 | 00:00:00 | 00:00:00 | |
| PU1XMG-16 | 2026-08-31 00:24:30 | -22.76560 | -42.87638 | 288° | 4km/h | 19747m | 4.3m/s | -62.7°C | 2.3% | 59.9hPa | 0V | 00:00:00 | 00:00:00 | 00:00:00 | |
| PU1XMG-16 | 2026-08-31 00:24:25 | -22.76565 | -42.87628 | 326° | 11km/h | 19720m | 5.3m/s | -62.8°C | 2.5% | 60.2hPa | 0V | 00:00:00 | 00:00:00 | 00:00:00 | |
| PU1XMG-16 | 2026-08-31 00:24:19 | -22.76579 | -42.87612 | 303° | 20km/h | 19689m | 4.1m/s | -63.0°C | 2.4% | 60.5hPa | 0V | 00:00:00 | 00:00:00 | 00:00:00 | |
| PU1XMG-16 | 2026-08-31 00:24:14 | -22.76590 | -42.87588 | 306° | 16km/h | 19662m | 4.8m/s | -63.1°C | 2.4% | 60.8hPa | 0V | 00:00:00 | 00:00:00 | 00:00:00 | |
| PU1XMG-16 | 2026-08-31 00:24:08 | -22.76613 | -42.87580 | 3° | 18km/h | 19628m | 6.2m/s | -63.0°C | 2.4% | 61.1hPa | 0V | 00:00:00 | 00:00:00 | 00:00:00 | |
| PU1XMG-16 | 2026-08-31 00:24:02 | -22.76635 | -42.87577 | 344° | 7km/h | 19597m | 4.0m/s | -62.9°C | 2.4% | 61.4hPa | 0V | 00:00:00 | 00:00:00 | 00:00:00 | |
| PU1XMG-16 | 2026-08-31 00:23:55 | -22.76651 | -42.87573 | 361° | 16km/h | 19554m | 5.5m/s | -63.6°C | 2.5% | 61.9hPa | 0V | 00:00:00 | 00:00:00 | 00:00:00 | |
| PU1XMG-16 | 2026-08-31 00:23:50 | -22.76667 | -42.87575 | 9° | 9km/h | 19525m | 4.8m/s | -64.5°C | 2.8% | 62.2hPa | 0V | 00:00:00 | 00:00:00 | 00:00:00 | |
| PU1XMG-16 | 2026-08-31 00:23:45 | -22.76674 | -42.87580 | 68° | 7km/h | 19495m | 6.6m/s | -64.4°C | 2.7% | 62.5hPa | 0V | 00:00:00 | 00:00:00 | 00:00:00 | |
| PU1XMG-16 | 2026-08-31 00:23:40 | -22.76682 | -42.87593 | 54° | 13km/h | 19465m | 8.0m/s | -64.2°C | 2.8% | 62.8hPa | 0V | 00:00:00 | 00:00:00 | 00:00:00 | |
| PU1XMG-16 | 2026-08-31 00:23:34 | -22.76694 | -42.87601 | 38° | 7km/h | 19429m | 4.3m/s | -63.9°C | 2.7% | 63.1hPa | 0V | 00:00:00 | 00:00:00 | 00:00:00 | |
| PU1XMG-16 | 2026-08-31 00:23:29 | -22.76706 | -42.87609 | 38° | 13km/h | 19401m | 4.0m/s | -63.6°C | 2.7% | 63.4hPa | 0V | 00:00:00 | 00:00:00 | 00:00:00 | |
| PU1XMG-16 | 2026-08-31 00:23:23 | -22.76728 | -42.87623 | 24° | 18km/h | 19367m | 7.7m/s | -63.3°C | 2.6% | 63.8hPa | 0V | 00:00:00 | 00:00:00 | 00:00:00 | |
| PU1XMG-16 | 2026-08-31 00:23:18 | -22.76743 | -42.87629 | 4° | 11km/h | 19337m | 7.0m/s | -63.4°C | 2.6% | 64.1hPa | 0V | 00:00:00 | 00:00:00 | 00:00:00 | |
| PU1XMG-16 | 2026-08-31 00:23:12 | -22.76765 | -42.87632 | 12° | 24km/h | 19301m | 5.4m/s | -63.6°C | 2.7% | 64.5hPa | 0V | 00:00:00 | 00:00:00 | 00:00:00 | |
| PU1XMG-16 | 2026-08-31 00:23:06 | -22.76797 | -42.87642 | 11° | 18km/h | 19266m | 7.3m/s | -63.6°C | 2.8% | 64.8hPa | 0V | 00:00:00 | 00:00:00 | 00:00:00 | |
| PU1XMG-16 | 2026-08-31 00:23:01 | -22.76821 | -42.87651 | 27° | 22km/h | 19238m | 6.8m/s | -63.6°C | 2.7% | 65.1hPa | 0V | 00:00:00 | 00:00:00 | 00:00:00 | |
| PU1XMG-16 | 2026-08-31 00:22:56 | -22.76844 | -42.87669 | 43° | 20km/h | 19206m | 6.6m/s | -63.3°C | 2.8% | 65.5hPa | 0V | 00:00:00 | 00:00:00 | 00:00:00 | |
| PU1XMG-16 | 2026-08-31 00:22:50 | -22.76866 | -42.87694 | 61° | 24km/h | 19172m | 5.4m/s | -63.2°C | 2.8% | 65.8hPa | 0V | 00:00:00 | 00:00:00 | 00:00:00 | |
| PU1XMG-16 | 2026-08-31 00:22:45 | -22.76884 | -42.87723 | 56° | 22km/h | 19142m | 5.3m/s | -63.4°C | 2.8% | 66.2hPa | 0V | 00:00:00 | 00:00:00 | 00:00:00 | |
| PU1XMG-16 | 2026-08-31 00:22:39 | -22.76906 | -42.87747 | 58° | 22km/h | 19109m | 5.3m/s | -63.5°C | 2.8% | 66.5hPa | 0V | 00:00:00 | 00:00:00 | 00:00:00 | |
| PU1XMG-16 | 2026-08-31 00:22:34 | -22.76918 | -42.87778 | 74° | 26km/h | 19080m | 5.8m/s | -63.4°C | 2.8% | 66.9hPa | 0V | 00:00:00 | 00:00:00 | 00:00:00 | |
| PU1XMG-16 | 2026-08-31 00:22:29 | -22.76932 | -42.87826 | 71° | 29km/h | 19041m | 5.6m/s | -63.4°C | 2.9% | 67.2hPa | 0V | 00:00:00 | 00:00:00 | 00:00:00 | |
| PU1XMG-16 | 2026-08-31 00:22:22 | -22.76944 | -42.87873 | 79° | 35km/h | 19006m | 7.4m/s | -63.5°C | 3.0% | 67.6hPa | 0V | 00:00:00 | 00:00:00 | 00:00:00 | |
| PU1XMG-16 | 2026-08-31 00:22:16 | -22.76954 | -42.87935 | 83° | 33km/h | 18967m | 7.9m/s | -63.5°C | 3.0% | 68.1hPa | 0V | 00:00:00 | 00:00:00 | 00:00:00 | |
| PU1XMG-16 | 2026-08-31 00:22:11 | -22.76951 | -42.87982 | 100° | 38km/h | 18931m | 10.6m/s | -63.6°C | 3.1% | 68.5hPa | 0V | 00:00:00 | 00:00:00 | 00:00:00 | |
| PU1XMG-16 | 2026-08-31 00:22:06 | -22.76940 | -42.88042 | 103° | 47km/h | 18897m | 6.5m/s | -63.5°C | 3.1% | 68.9hPa | 0V | 00:00:00 | 00:00:00 | 00:00:00 | |
| PU1XMG-16 | 2026-08-31 00:22:01 | -22.76924 | -42.88095 | 113° | 37km/h | 18865m | 6.5m/s | -63.5°C | 3.2% | 69.2hPa | 0V | 00:00:00 | 00:00:00 | 00:00:00 | |
| PU1XMG-16 | 2026-08-31 00:21:49 | -22.76874 | -42.88222 | 118° | 42km/h | 18785m | 7.8m/s | -63.3°C | 3.1% | 70.1hPa | 0V | 00:00:00 | 00:00:00 | 00:00:00 | |
| PU1XMG-16 | 2026-08-31 00:21:43 | -22.76842 | -42.88286 | 119° | 51km/h | 18743m | 7.2m/s | -63.1°C | 3.2% | 70.6hPa | 0V | 00:00:00 | 00:00:00 | 00:00:00 | |
| PU1XMG-16 | 2026-08-31 00:21:25 | -22.76733 | -42.88497 | 106° | 37km/h | 18616m | 6.2m/s | -63.7°C | 3.5% | 72.1hPa | 0V | 00:00:00 | 00:00:00 | 00:00:00 | |
| PU1XMG-16 | 2026-08-31 00:21:19 | -22.76720 | -42.88549 | 115° | 38km/h | 18575m | 5.6m/s | -63.5°C | 3.5% | 72.6hPa | 0V | 00:00:00 | 00:00:00 | 00:00:00 | |
| PU1XMG-16 | 2026-08-31 00:21:12 | -22.76689 | -42.88610 | 114° | 40km/h | 18538m | 6.3m/s | -64.2°C | 3.8% | 73.0hPa | 0V | 00:00:00 | 00:00:00 | 00:00:00 | |
| PU1XMG-16 | 2026-08-31 00:21:07 | -22.76681 | -42.88658 | 91° | 31km/h | 18506m | 5.5m/s | -64.2°C | 3.9% | 73.4hPa | 0V | 00:00:00 | 00:00:00 | 00:00:00 | |
| PU1XMG-16 | 2026-08-31 00:21:03 | -22.76673 | -42.88715 | 109° | 42km/h | 18468m | 5.3m/s | -64.0°C | 3.7% | 73.9hPa | 0V | 00:00:00 | 00:00:00 | 00:00:00 | |
| PU1XMG-16 | 2026-08-31 00:20:53 | -22.76656 | -42.88791 | 82° | 29km/h | 18419m | 7.4m/s | -63.8°C | 3.9% | 74.5hPa | 0V | 00:00:00 | 00:00:00 | 00:00:00 | |
| PU1XMG-16 | 2026-08-31 00:20:46 | -22.76661 | -42.88851 | 98° | 37km/h | 18374m | 6.6m/s | -63.9°C | 3.9% | 75.1hPa | 0V | 00:00:00 | 00:00:00 | 00:00:00 | |
| PU1XMG-16 | 2026-08-31 00:20:40 | -22.76658 | -42.88908 | 82° | 37km/h | 18333m | 5.7m/s | -64.9°C | 4.4% | 75.5hPa | 0V | 00:00:00 | 00:00:00 | 00:00:00 | |
| PU1XMG-16 | 2026-08-31 00:20:35 | -22.76677 | -42.88955 | 61° | 44km/h | 18301m | 5.5m/s | -64.8°C | 4.3% | 76.0hPa | 0V | 00:00:00 | 00:00:00 | 00:00:00 | |
| PU1XMG-16 | 2026-08-31 00:20:29 | -22.76707 | -42.89017 | 67° | 40km/h | 18264m | 7.5m/s | -64.7°C | 4.4% | 76.4hPa | 0V | 00:00:00 | 00:00:00 | 00:00:00 | |
| PU1XMG-16 | 2026-08-31 00:20:22 | -22.76739 | -42.89082 | 63° | 40km/h | 18219m | 6.1m/s | -64.6°C | 4.5% | 77.0hPa | 0V | 00:00:00 | 00:00:00 | 00:00:00 | |
| PU1XMG-16 | 2026-08-31 00:20:16 | -22.76768 | -42.89147 | 66° | 46km/h | 18181m | 5.4m/s | -65.5°C | 4.6% | 77.4hPa | 0V | 00:00:00 | 00:00:00 | 00:00:00 | |
| PU1XMG-16 | 2026-08-31 00:20:11 | -22.76788 | -42.89198 | 67° | 29km/h | 18151m | 6.8m/s | -65.9°C | 5.0% | 77.9hPa | 0V | 00:00:00 | 00:00:00 | 00:00:00 | |
| PU1XMG-16 | 2026-08-31 00:20:05 | -22.76804 | -42.89233 | 66° | 29km/h | 18111m | 5.5m/s | -65.8°C | 5.0% | 78.3hPa | 0V | 00:00:00 | 00:00:00 | 00:00:00 | |
| PU1XMG-16 | 2026-08-31 00:20:00 | -22.76822 | -42.89273 | 64° | 33km/h | 18081m | 5.6m/s | -65.7°C | 5.0% | 78.7hPa | 0V | 00:00:00 | 00:00:00 | 00:00:00 | |
| PU1XMG-16 | 2026-08-31 00:19:54 | -22.76848 | -42.89313 | 46° | 29km/h | 18043m | 5.2m/s | -66.4°C | 5.3% | 79.2hPa | 0V | 00:00:00 | 00:00:00 | 00:00:00 | |
| PU1XMG-16 | 2026-08-31 00:19:43 | -22.76906 | -42.89394 | 58° | 26km/h | 17977m | 5.7m/s | -66.5°C | 5.6% | 80.1hPa | 0V | 00:00:00 | 00:00:00 | 00:00:00 | |
| PU1XMG-16 | 2026-08-31 00:19:37 | -22.76933 | -42.89432 | 51° | 31km/h | 17942m | 7.4m/s | -66.5°C | 5.6% | 80.5hPa | 0V | 00:00:00 | 00:00:00 | 00:00:00 | |
| PU1XMG-16 | 2026-08-31 00:19:31 | -22.76960 | -42.89463 | 49° | 20km/h | 17909m | 7.3m/s | -67.2°C | 6.3% | 81.0hPa | 0V | 00:00:00 | 00:00:00 | 00:00:00 | |
| PU1XMG-16 | 2026-08-31 00:19:25 | -22.76968 | -42.89484 | 81° | 15km/h | 17876m | 7.1m/s | -67.2°C | 6.6% | 81.4hPa | 0V | 00:00:00 | 00:00:00 | 00:00:00 | |
| PU1XMG-16 | 2026-08-31 00:19:20 | -22.76971 | -42.89502 | 78° | 13km/h | 17847m | 6.4m/s | -67.0°C | 6.8% | 81.8hPa | 0V | 00:00:00 | 00:00:00 | 00:00:00 | |
| PU1XMG-16 | 2026-08-31 00:19:15 | -22.76973 | -42.89516 | 83° | 7km/h | 17819m | 5.2m/s | -66.8°C | 6.9% | 82.2hPa | 0V | 00:00:00 | 00:00:00 | 00:00:00 | |
| PU1XMG-16 | 2026-08-31 00:19:10 | -22.76978 | -42.89529 | 73° | 16km/h | 17790m | 6.3m/s | -66.6°C | 7.1% | 82.6hPa | 0V | 00:00:00 | 00:00:00 | 00:00:00 | |
| PU1XMG-16 | 2026-08-31 00:19:04 | -22.76994 | -42.89557 | 49° | 15km/h | 17754m | 5.2m/s | -66.3°C | 7.5% | 83.1hPa | 0V | 00:00:00 | 00:00:00 | 00:00:00 | |
| PU1XMG-16 | 2026-08-31 00:18:59 | -22.77001 | -42.89565 | 33° | 5km/h | 17726m | 6.2m/s | -66.1°C | 7.8% | 83.4hPa | 0V | 00:00:00 | 00:00:00 | 00:00:00 | |
| PU1XMG-16 | 2026-08-31 00:18:53 | -22.77009 | -42.89577 | 58° | 15km/h | 17693m | 5.9m/s | -65.8°C | 7.9% | 83.9hPa | 0V | 00:00:00 | 00:00:00 | 00:00:00 | |
| PU1XMG-16 | 2026-08-31 00:18:47 | -22.77019 | -42.89591 | 34° | 4km/h | 17661m | 5.4m/s | -65.5°C | 8.2% | 84.4hPa | 0V | 00:00:00 | 00:00:00 | 00:00:00 | |
| PU1XMG-16 | 2026-08-31 00:18:42 | -22.77023 | -42.89592 | 57° | 9km/h | 17631m | 4.0m/s | -65.4°C | 8.6% | 84.8hPa | 0V | 00:00:00 | 00:00:00 | 00:00:00 | |
| PU1XMG-16 | 2026-08-31 00:18:37 | -22.77033 | -42.89606 | 54° | 15km/h | 17606m | 3.3m/s | -65.2°C | 8.6% | 85.1hPa | 0V | 00:00:00 | 00:00:00 | 00:00:00 | |
| PU1XMG-16 | 2026-08-31 00:18:31 | -22.77045 | -42.89615 | 48° | 13km/h | 17577m | 3.8m/s | -65.1°C | 8.4% | 85.6hPa | 0V | 00:00:00 | 00:00:00 | 00:00:00 | |
| PU1XMG-16 | 2026-08-31 00:18:25 | -22.77059 | -42.89630 | 39° | 15km/h | 17545m | 6.1m/s | -66.0°C | 9.0% | 86.0hPa | 0V | 00:00:00 | 00:00:00 | 00:00:00 | |
| PU1XMG-16 | 2026-08-31 00:18:20 | -22.77077 | -42.89645 | 46° | 24km/h | 17518m | 5.0m/s | -66.4°C | 9.4% | 86.4hPa | 0V | 00:00:00 | 00:00:00 | 00:00:00 | |
| PU1XMG-16 | 2026-08-31 00:18:13 | -22.77103 | -42.89679 | 51° | 27km/h | 17481m | 4.6m/s | -68.3°C | 10.9% | 86.9hPa | 0V | 00:00:00 | 00:00:00 | 00:00:00 | |
| PU1XMG-16 | 2026-08-31 00:18:08 | -22.77129 | -42.89714 | 54° | 37km/h | 17453m | 7.5m/s | -68.9°C | 11.3% | 87.4hPa | 0V | 00:00:00 | 00:00:00 | 00:00:00 | |
| PU1XMG-16 | 2026-08-31 00:18:03 | -22.77156 | -42.89756 | 58° | 42km/h | 17424m | 6.8m/s | -69.0°C | 11.3% | 87.8hPa | 0V | 00:00:00 | 00:00:00 | 00:00:00 | |
| PU1XMG-16 | 2026-08-31 00:17:57 | -22.77188 | -42.89818 | 64° | 49km/h | 17392m | 4.1m/s | -69.8°C | 11.9% | 88.2hPa | 0V | 00:00:00 | 00:00:00 | 00:00:00 | |
| PU1XMG-16 | 2026-08-31 00:17:51 | -22.77225 | -42.89891 | 58° | 53km/h | 17360m | 4.2m/s | -70.4°C | 12.1% | 88.7hPa | 0V | 00:00:00 | 00:00:00 | 00:00:00 | |
| PU1XMG-16 | 2026-08-31 00:17:40 | -22.77279 | -42.90043 | 78° | 55km/h | 17299m | 5.0m/s | -72.2°C | 14.0% | 89.6hPa | 0V | 00:00:00 | 00:00:00 | 00:00:00 | |
| PU1XMG-16 | 2026-08-31 00:17:34 | -22.77308 | -42.90130 | 72° | 58km/h | 17263m | 5.9m/s | -73.1°C | 15.1% | 90.2hPa | 0V | 00:00:00 | 00:00:00 | 00:00:00 | |
| PU1XMG-16 | 2026-08-31 00:17:28 | -22.77320 | -42.90223 | 89° | 55km/h | 17227m | 6.6m/s | -73.7°C | 16.5% | 90.7hPa | 0V | 00:00:00 | 00:00:00 | 00:00:00 | |
| PU1XMG-16 | 2026-08-31 00:17:20 | -22.77336 | -42.90327 | 73° | 42km/h | 17181m | 5.8m/s | -73.6°C | 17.2% | 91.5hPa | 0V | 00:00:00 | 00:00:00 | 00:00:00 | |
| PU1XMG-16 | 2026-08-31 00:17:14 | -22.77349 | -42.90390 | 84° | 40km/h | 17145m | 6.1m/s | -73.4°C | 17.2% | 92.0hPa | 0V | 00:00:00 | 00:00:00 | 00:00:00 | |
| PU1XMG-16 | 2026-08-31 00:17:06 | -22.77361 | -42.90484 | 80° | 33km/h | 17088m | 6.8m/s | -73.1°C | 17.5% | 92.9hPa | 0V | 00:00:00 | 00:00:00 | 00:00:00 | |
| PU1XMG-16 | 2026-08-31 00:16:57 | -22.77377 | -42.90559 | 80° | 38km/h | 17038m | 5.2m/s | -72.8°C | 17.5% | 93.7hPa | 0V | 00:00:00 | 00:00:00 | 00:00:00 | |
| PU1XMG-16 | 2026-08-31 00:16:51 | -22.77386 | -42.90617 | 85° | 29km/h | 17001m | 6.4m/s | -72.5°C | 17.3% | 94.4hPa | 0V | 00:00:00 | 00:00:00 | 00:00:00 | |
| PU1XMG-16 | 2026-08-31 00:16:45 | -22.77390 | -42.90663 | 90° | 26km/h | 16961m | 7.5m/s | -72.3°C | 16.5% | 95.0hPa | 0V | 00:00:00 | 00:00:00 | 00:00:00 | |
| PU1XMG-16 | 2026-08-31 00:16:39 | -22.77390 | -42.90700 | 87° | 20km/h | 16923m | 7.2m/s | -72.1°C | 16.0% | 95.6hPa | 0V | 00:00:00 | 00:00:00 | 00:00:00 | |
| PU1XMG-16 | 2026-08-31 00:16:32 | -22.77399 | -42.90759 | 80° | 27km/h | 16873m | 6.9m/s | -73.0°C | 16.7% | 96.4hPa | 0V | 00:00:00 | 00:00:00 | 00:00:00 | |
| PU1XMG-16 | 2026-08-31 00:16:25 | -22.77408 | -42.90799 | 74° | 24km/h | 16835m | 7.0m/s | -73.5°C | 17.3% | 97.0hPa | 0V | 00:00:00 | 00:00:00 | 00:00:00 | |
| PU1XMG-16 | 2026-08-31 00:16:20 | -22.77420 | -42.90832 | 68° | 27km/h | 16800m | 6.8m/s | -74.0°C | 18.2% | 97.6hPa | 0V | 00:00:00 | 00:00:00 | 00:00:00 | |
| PU1XMG-16 | 2026-08-31 00:16:15 | -22.77432 | -42.90865 | 77° | 27km/h | 16770m | 4.0m/s | -74.4°C | 19.3% | 98.1hPa | 0V | 00:00:00 | 00:00:00 | 00:00:00 | |
| PU1XMG-16 | 2026-08-31 00:16:09 | -22.77433 | -42.90912 | 97° | 31km/h | 16730m | 7.2m/s | -74.5°C | 19.6% | 98.8hPa | 0V | 00:00:00 | 00:00:00 | 00:00:00 | |
| PU1XMG-16 | 2026-08-31 00:16:05 | -22.77434 | -42.90953 | 86° | 31km/h | 16696m | 6.3m/s | -74.3°C | 19.4% | 99.3hPa | 0V | 00:00:00 | 00:00:00 | 00:00:00 | |
| PU1XMG-16 | 2026-08-31 00:15:55 | -22.77434 | -42.91037 | 96° | 37km/h | 16636m | 6.7m/s | -74.2°C | 19.6% | 100.3hPa | 0V | 00:00:00 | 00:00:00 | 00:00:00 | |
| PU1XMG-16 | 2026-08-31 00:15:51 | -22.77431 | -42.91080 | 93° | 27km/h | 16604m | 5.9m/s | -73.9°C | 19.4% | 100.9hPa | 0V | 00:00:00 | 00:00:00 | 00:00:00 | |
| PU1XMG-16 | 2026-08-31 00:15:40 | -22.77422 | -42.91160 | 96° | 33km/h | 16538m | 6.2m/s | -73.5°C | 18.9% | 102.0hPa | 0V | 00:00:00 | 00:00:00 | 00:00:00 | |
| PU1XMG-16 | 2026-08-31 00:12:22 | -22.78520 | -42.93312 | 76° | 93km/h | 15260m | 8.1m/s | -68.3°C | 21.4% | 126.6hPa | 0V | 00:00:00 | 00:00:00 | 00:00:00 | |
| PU1XMG-16 | 2026-08-31 00:12:12 | -22.78579 | -42.93553 | 75° | 88km/h | 15190m | 6.4m/s | -68.3°C | 25.4% | 128.1hPa | 0V | 00:00:00 | 00:00:00 | 00:00:00 | |
| PU1XMG-16 | 2026-08-31 00:12:07 | -22.78610 | -42.93681 | 75° | 108km/h | 15160m | 6.3m/s | -68.0°C | 23.6% | 128.7hPa | 0V | 00:00:00 | 00:00:00 | 00:00:00 | |
| PU1XMG-16 | 2026-08-31 00:11:52 | -22.78693 | -42.94045 | 86° | 106km/h | 15058m | 9.6m/s | -67.1°C | 20.2% | 130.8hPa | 0V | 00:00:00 | 00:00:00 | 00:00:00 | |
| PU1XMG-16 | 2026-08-31 00:11:47 | -22.78717 | -42.94178 | 79° | 82km/h | 15010m | 9.3m/s | -66.7°C | 19.1% | 131.9hPa | 0V | 00:00:00 | 00:00:00 | 00:00:00 | |
| PU1XMG-16 | 2026-08-31 00:11:36 | -22.78752 | -42.94414 | 86° | 102km/h | 14939m | 5.7m/s | -66.2°C | 16.1% | 133.5hPa | 0V | 00:00:00 | 00:00:00 | 00:00:00 | |
| PU1XMG-16 | 2026-08-31 00:11:28 | -22.78797 | -42.94596 | 91° | 84km/h | 14864m | 10.0m/s | -66.0°C | 13.9% | 135.1hPa | 0V | 00:00:00 | 00:00:00 | 00:00:00 | |
| PU1XMG-16 | 2026-08-31 00:10:14 | -22.78591 | -42.96293 | 97° | 80km/h | 14378m | 5.8m/s | -62.5°C | 16.2% | 146.3hPa | 0V | 00:00:00 | 00:00:00 | 00:00:00 | |
| PU1XMG-16 | 2026-08-31 00:10:06 | -22.78558 | -42.96480 | 101° | 97km/h | 14331m | 8.6m/s | -62.0°C | 17.3% | 147.4hPa | 0V | 00:00:00 | 00:00:00 | 00:00:00 | |
| PU1XMG-16 | 2026-08-31 00:09:54 | -22.78516 | -42.96736 | 106° | 88km/h | 14248m | 7.1m/s | -61.3°C | 20.3% | 149.4hPa | 0V | 00:00:00 | 00:00:00 | 00:00:00 | |
| PU1XMG-16 | 2026-08-31 00:09:41 | -22.78503 | -42.96995 | 89° | 60km/h | 14135m | 11.1m/s | -61.0°C | 23.2% | 152.1hPa | 0V | 00:00:00 | 00:00:00 | 00:00:00 | |
| PU1XMG-16 | 2026-08-31 00:09:16 | -22.78523 | -42.97484 | 97° | 75km/h | 13961m | 6.6m/s | -60.0°C | 28.1% | 156.5hPa | 0V | 00:00:00 | 00:00:00 | 00:00:00 | |
| PU1XMG-16 | 2026-08-31 00:09:06 | -22.78514 | -42.97702 | 88° | 88km/h | 13898m | 5.4m/s | -59.4°C | 27.4% | 158.1hPa | 0V | 00:00:00 | 00:00:00 | 00:00:00 | |
| PU1XMG-16 | 2026-08-31 00:08:56 | -22.78505 | -42.97926 | 91° | 78km/h | 13837m | 7.1m/s | -59.1°C | 30.3% | 159.7hPa | 0V | 00:00:00 | 00:00:00 | 00:00:00 | |
| PU1XMG-16 | 2026-08-31 00:08:49 | -22.78501 | -42.98100 | 103° | 104km/h | 13785m | 7.9m/s | -58.6°C | 27.6% | 160.8hPa | 0V | 00:00:00 | 00:00:00 | 00:00:00 | |
| PU1XMG-16 | 2026-08-31 00:08:44 | -22.78481 | -42.98239 | 86° | 73km/h | 13739m | 7.5m/s | -58.4°C | 28.8% | 162.0hPa | 0V | 00:00:00 | 00:00:00 | 00:00:00 | |
| PU1XMG-16 | 2026-08-31 00:08:37 | -22.78478 | -42.98363 | 98° | 82km/h | 13695m | 6.6m/s | -58.2°C | 29.5% | 163.3hPa | 0V | 00:00:00 | 00:00:00 | 00:00:00 | |
| PU1XMG-16 | 2026-08-31 00:08:33 | -22.78475 | -42.98492 | 93° | 99km/h | 13663m | 6.4m/s | -59.1°C | 31.2% | 164.1hPa | 0V | 00:00:00 | 00:00:00 | 00:00:00 | |
| PU1XMG-16 | 2026-08-31 00:08:27 | -22.78466 | -42.98591 | 84° | 53km/h | 13629m | 10.1m/s | -58.8°C | 29.7% | 165.0hPa | 0V | 00:00:00 | 00:00:00 | 00:00:00 | |
| PU1XMG-16 | 2026-08-31 00:08:21 | -22.78489 | -42.98735 | 94° | 110km/h | 13576m | 7.8m/s | -58.4°C | 27.9% | 166.4hPa | 0V | 00:00:00 | 00:00:00 | 00:00:00 | |
| PU1XMG-16 | 2026-08-31 00:08:16 | -22.78496 | -42.98866 | 67° | 62km/h | 13521m | 12.4m/s | -58.0°C | 25.7% | 167.7hPa | 0V | 00:00:00 | 00:00:00 | 00:00:00 | |
| PU1XMG-16 | 2026-08-31 00:08:10 | -22.78529 | -42.98988 | 85° | 117km/h | 13474m | 11.9m/s | -57.6°C | 24.6% | 169.1hPa | 0V | 00:00:00 | 00:00:00 | 00:00:00 | |
| PU1XMG-16 | 2026-08-31 00:08:04 | -22.78532 | -42.99144 | 77° | 82km/h | 13426m | 6.9m/s | -57.9°C | 24.7% | 170.3hPa | 0V | 00:00:00 | 00:00:00 | 00:00:00 | |
| PU1XMG-16 | 2026-08-31 00:07:59 | -22.78568 | -42.99275 | 80° | 113km/h | 13385m | 6.3m/s | -58.2°C | 26.2% | 171.5hPa | 0V | 00:00:00 | 00:00:00 | 00:00:00 | |
| PU1XMG-16 | 2026-08-31 00:07:52 | -22.78606 | -42.99482 | 80° | 110km/h | 13338m | 6.3m/s | -58.1°C | 25.8% | 172.7hPa | 0V | 00:00:00 | 00:00:00 | 00:00:00 | |
| PU1XMG-16 | 2026-08-31 00:07:31 | -22.78766 | -43.00102 | 68° | 120km/h | 13237m | 6.4m/s | -57.5°C | 26.6% | 175.5hPa | 0V | 00:00:00 | 00:00:00 | 00:00:00 | |
| PU1XMG-16 | 2026-08-31 00:07:20 | -22.78863 | -43.00456 | 80° | 137km/h | 13165m | 5.4m/s | -56.8°C | 26.3% | 177.6hPa | 0V | 00:00:00 | 00:00:00 | 00:00:00 | |
| PU1XMG-16 | 2026-08-31 00:07:14 | -22.78925 | -43.00671 | 71° | 137km/h | 13125m | 10.6m/s | -56.5°C | 25.6% | 178.7hPa | 0V | 00:00:00 | 00:00:00 | 00:00:00 | |
| PU1XMG-16 | 2026-08-31 00:07:02 | -22.79019 | -43.01064 | 79° | 141km/h | 13058m | 8.8m/s | -57.1°C | 28.4% | 180.5hPa | 0V | 00:00:00 | 00:00:00 | 00:00:00 | |
| PU1XMG-16 | 2026-08-31 00:06:50 | -22.79161 | -43.01489 | 70° | 133km/h | 12995m | 4.8m/s | -57.2°C | 31.6% | 182.4hPa | 0V | 00:00:00 | 00:00:00 | 00:00:00 | |
| PU1XMG-16 | 2026-08-31 00:06:44 | -22.79236 | -43.01692 | 68° | 133km/h | 12972m | 5.5m/s | -57.1°C | 32.3% | 183.0hPa | 0V | 00:00:00 | 00:00:00 | 00:00:00 | |
| PU1XMG-16 | 2026-08-31 00:05:49 | -22.79864 | -43.03349 | 65° | 110km/h | 12700m | 5.7m/s | -56.5°C | 58.4% | 191.1hPa | 0V | 00:00:00 | 00:00:00 | 00:00:00 | |
| PU1XMG-16 | 2026-08-31 00:05:43 | -22.79926 | -43.03505 | 70° | 102km/h | 12674m | 4.1m/s | -56.4°C | 60.4% | 191.9hPa | 0V | 00:00:00 | 00:00:00 | 00:00:00 | |
| PU1XMG-16 | 2026-08-31 00:05:36 | -22.79994 | -43.03683 | 68° | 104km/h | 12640m | 4.0m/s | -56.4°C | 60.7% | 192.9hPa | 0V | 00:00:00 | 00:00:00 | 00:00:00 | |
| PU1XMG-16 | 2026-08-31 00:04:58 | -22.80333 | -43.04736 | 74° | 117km/h | 12407m | 9.3m/s | -54.3°C | 65.1% | 200.0hPa | 0V | 00:00:00 | 00:00:00 | 00:00:00 | |
| PU1XMG-16 | 2026-08-31 00:04:52 | -22.80374 | -43.04872 | 77° | 91km/h | 12370m | 5.3m/s | -53.9°C | 67.7% | 201.3hPa | 0V | 00:00:00 | 00:00:00 | 00:00:00 | |
| PU1XMG-16 | 2026-08-31 00:04:46 | -22.80425 | -43.05056 | 73° | 115km/h | 12325m | 7.5m/s | -53.5°C | 64.1% | 202.7hPa | 0V | 00:00:00 | 00:00:00 | 00:00:00 | |
| PU1XMG-16 | 2026-08-31 00:04:40 | -22.80475 | -43.05222 | 73° | 99km/h | 12280m | 8.3m/s | -53.0°C | 65.6% | 204.1hPa | 0V | 00:00:00 | 00:00:00 | 00:00:00 | |
| PU1XMG-16 | 2026-08-31 00:04:35 | -22.80515 | -43.05358 | 74° | 88km/h | 12244m | 6.0m/s | -52.7°C | 68.1% | 205.2hPa | 0V | 00:00:00 | 00:00:00 | 00:00:00 | |
| PU1XMG-16 | 2026-08-31 00:04:28 | -22.80563 | -43.05509 | 73° | 106km/h | 12198m | 7.5m/s | -52.3°C | 65.5% | 206.6hPa | 0V | 00:00:00 | 00:00:00 | 00:00:00 | |
| PU1XMG-16 | 2026-08-31 00:04:23 | -22.80596 | -43.05661 | 82° | 106km/h | 12166m | 6.1m/s | -52.0°C | 64.7% | 207.7hPa | 0V | 00:00:00 | 00:00:00 | 00:00:00 | |
| PU1XMG-16 | 2026-08-31 00:04:16 | -22.80635 | -43.05839 | 74° | 95km/h | 12110m | 5.1m/s | -51.7°C | 64.5% | 209.5hPa | 0V | 00:00:00 | 00:00:00 | 00:00:00 | |
| PU1XMG-16 | 2026-08-31 00:04:10 | -22.80672 | -43.05967 | 76° | 102km/h | 12080m | 5.2m/s | -51.5°C | 64.1% | 210.4hPa | 0V | 00:00:00 | 00:00:00 | 00:00:00 | |
| PU1XMG-16 | 2026-08-31 00:04:05 | -22.80705 | -43.06107 | 76° | 104km/h | 12049m | 6.0m/s | -51.2°C | 67.1% | 211.4hPa | 0V | 00:00:00 | 00:00:00 | 00:00:00 | |
| PU1XMG-16 | 2026-08-31 00:04:00 | -22.80754 | -43.06258 | 68° | 88km/h | 12016m | 4.6m/s | -51.0°C | 64.6% | 212.5hPa | 0V | 00:00:00 | 00:00:00 | 00:00:00 | |
| PU1XMG-16 | 2026-08-31 00:03:54 | -22.80788 | -43.06384 | 80° | 99km/h | 11982m | 9.4m/s | -50.6°C | 61.1% | 213.5hPa | 0V | 00:00:00 | 00:00:00 | 00:00:00 | |
| PU1XMG-16 | 2026-08-31 00:03:50 | -22.80817 | -43.06517 | 75° | 108km/h | 11951m | 4.7m/s | -50.3°C | 64.3% | 214.6hPa | 0V | 00:00:00 | 00:00:00 | 00:00:00 | |
| PU1XMG-16 | 2026-08-31 00:03:45 | -22.80856 | -43.06658 | 76° | 108km/h | 11924m | 5.4m/s | -50.1°C | 66.8% | 215.6hPa | 0V | 00:00:00 | 00:00:00 | 00:00:00 | |
| PU1XMG-16 | 2026-08-31 00:03:39 | -22.80901 | -43.06806 | 71° | 88km/h | 11889m | 5.0m/s | -49.9°C | 65.1% | 216.6hPa | 0V | 00:00:00 | 00:00:00 | 00:00:00 | |
| PU1XMG-16 | 2026-08-31 00:03:34 | -22.80938 | -43.06941 | 73° | 113km/h | 11851m | 9.7m/s | -49.6°C | 65.4% | 217.9hPa | 0V | 00:00:00 | 00:00:00 | 00:00:00 | |
| PU1XMG-16 | 2026-08-31 00:03:30 | -22.80988 | -43.07116 | 74° | 111km/h | 11811m | 7.7m/s | -49.3°C | 66.8% | 219.2hPa | 0V | 00:00:00 | 00:00:00 | 00:00:00 | |
| PU1XMG-16 | 2026-08-31 00:03:22 | -22.81029 | -43.07257 | 72° | 106km/h | 11776m | 5.6m/s | -49.0°C | 66.0% | 220.4hPa | 0V | 00:00:00 | 00:00:00 | 00:00:00 | |
| PU1XMG-16 | 2026-08-31 00:03:18 | -22.81094 | -43.07453 | 73° | 110km/h | 11727m | 6.4m/s | -48.6°C | 64.8% | 222.1hPa | 0V | 00:00:00 | 00:00:00 | 00:00:00 | |
| PU1XMG-16 | 2026-08-31 00:03:12 | -22.81138 | -43.07593 | 72° | 106km/h | 11696m | 7.2m/s | -48.3°C | 65.7% | 223.2hPa | 0V | 00:00:00 | 00:00:00 | 00:00:00 | |
| PU1XMG-16 | 2026-08-31 00:03:04 | -22.81184 | -43.07762 | 75° | 113km/h | 11663m | 4.8m/s | -48.2°C | 66.1% | 224.3hPa | 0V | 00:00:00 | 00:00:00 | 00:00:00 | |
| PU1XMG-16 | 2026-08-31 00:02:54 | -22.81633 | -43.09091 | 71° | 106km/h | 11334m | 7.0m/s | -45.6°C | 70.1% | 235.7hPa | 0V | 00:00:00 | 00:00:00 | 00:00:00 | |
| PU1XMG-16 | 2026-08-31 00:02:43 | -22.81691 | -43.09248 | 66° | 100km/h | 11296m | 5.9m/s | -45.4°C | 70.2% | 236.9hPa | 0V | 00:00:00 | 00:00:00 | 00:00:00 | |
| PU1XMG-16 | 2026-08-31 00:02:34 | -22.81753 | -43.09399 | 67° | 102km/h | 11253m | 9.5m/s | -45.0°C | 67.6% | 238.4hPa | 0V | 00:00:00 | 00:00:00 | 00:00:00 | |
| PU1XMG-16 | 2026-08-31 00:02:24 | -22.81803 | -43.09526 | 68° | 99km/h | 11218m | 7.2m/s | -44.8°C | 69.1% | 239.7hPa | 0V | 00:00:00 | 00:00:00 | 00:00:00 | |
| PU1XMG-16 | 2026-08-31 00:02:19 | -22.81866 | -43.09669 | 65° | 97km/h | 11182m | 7.5m/s | -44.5°C | 69.6% | 241.0hPa | 0V | 00:00:00 | 00:00:00 | 00:00:00 | |
| PU1XMG-16 | 2026-08-31 00:02:12 | -22.81917 | -43.09793 | 69° | 100km/h | 11151m | 7.1m/s | -44.2°C | 68.9% | 242.2hPa | 0V | 00:00:00 | 00:00:00 | 00:00:00 | |
| PU1XMG-16 | 2026-08-31 00:02:04 | -22.81966 | -43.09914 | 66° | 95km/h | 11118m | 8.5m/s | -43.9°C | 69.3% | 243.5hPa | 0V | 00:00:00 | 00:00:00 | 00:00:00 | |
| PU1XMG-16 | 2026-08-31 00:01:53 | -22.82043 | -43.10056 | 59° | 100km/h | 11078m | 4.0m/s | -43.6°C | 68.2% | 244.8hPa | 0V | 00:00:00 | 00:00:00 | 00:00:00 | |
| PU1XMG-16 | 2026-08-31 00:01:45 | -22.82099 | -43.10203 | 69° | 99km/h | 11033m | 7.6m/s | -43.3°C | 66.1% | 246.4hPa | 0V | 00:00:00 | 00:00:00 | 00:00:00 | |
| PU1XMG-16 | 2026-08-31 00:01:36 | -22.82145 | -43.10325 | 68° | 95km/h | 10997m | 7.3m/s | -43.0°C | 64.9% | 247.7hPa | 0V | 00:00:00 | 00:00:00 | 00:00:00 | |
| PU1XMG-16 | 2026-08-31 00:01:28 | -22.82206 | -43.10467 | 67° | 89km/h | 10958m | 6.5m/s | -42.7°C | 66.2% | 249.2hPa | 0V | 00:00:00 | 00:00:00 | 00:00:00 | |
| PU1XMG-16 | 2026-08-31 00:01:23 | -22.82245 | -43.10582 | 70° | 93km/h | 10930m | 4.7m/s | -42.5°C | 67.0% | 250.3hPa | 0V | 00:00:00 | 00:00:00 | 00:00:00 | |
| PU1XMG-16 | 2026-08-31 00:01:14 | -22.82305 | -43.10727 | 65° | 95km/h | 10894m | 4.3m/s | -42.2°C | 68.2% | 251.6hPa | 0V | 00:00:00 | 00:00:00 | 00:00:00 | |
| PU1XMG-16 | 2026-08-31 00:01:10 | -22.82352 | -43.10860 | 78° | 80km/h | 10862m | 8.2m/s | -42.0°C | 70.8% | 252.9hPa | 0V | 00:00:00 | 00:00:00 | 00:00:00 | |
| PU1XMG-16 | 2026-08-31 00:00:59 | -22.82388 | -43.11010 | 67° | 99km/h | 10820m | 8.9m/s | -41.7°C | 69.5% | 254.4hPa | 0V | 00:00:00 | 00:00:00 | 00:00:00 | |
| PU1XMG-16 | 2026-08-31 00:00:53 | -22.82448 | -43.11146 | 75° | 95km/h | 10769m | 8.6m/s | -41.2°C | 68.9% | 256.3hPa | 0V | 00:00:00 | 00:00:00 | 00:00:00 | |
| PU1XMG-16 | 2026-08-31 00:00:45 | -22.82469 | -43.11264 | 83° | 86km/h | 10727m | 3.6m/s | -40.8°C | 69.6% | 257.8hPa | 0V | 00:00:00 | 00:00:00 | 00:00:00 | |
| PU1XMG-16 | 2026-08-31 00:00:43 | -22.82497 | -43.11372 | 72° | 84km/h | 10688m | 10.2m/s | -40.5°C | 67.2% | 259.2hPa | 0V | 00:00:00 | 00:00:00 | 00:00:00 | |
| PU1XMG-16 | 2026-08-31 00:00:35 | -22.82533 | -43.11508 | 74° | 86km/h | 10643m | 8.0m/s | -40.1°C | 68.0% | 260.9hPa | 0V | 00:00:00 | 00:00:00 | 00:00:00 | |
| PU1XMG-16 | 2026-08-31 00:00:32 | -22.82570 | -43.11645 | 76° | 84km/h | 10608m | 8.1m/s | -39.8°C | 68.6% | 262.4hPa | 0V | 00:00:00 | 00:00:00 | 00:00:00 | |
| PU1XMG-16 | 2026-08-31 00:00:27 | -22.82592 | -43.11756 | 80° | 82km/h | 10576m | 5.9m/s | -39.5°C | 70.3% | 263.7hPa | 0V | 00:00:00 | 00:00:00 | 00:00:00 | |
| PU1XMG-16 | 2026-08-31 00:00:20 | -22.82622 | -43.11868 | 69° | 84km/h | 10546m | 3.5m/s | -39.3°C | 72.2% | 264.8hPa | 0V | 00:00:00 | 00:00:00 | 00:00:00 | |
| PU1XMG-16 | 2026-08-31 00:00:09 | -22.82682 | -43.12110 | 71° | 82km/h | 10477m | 5.4m/s | -38.7°C | 69.9% | 267.5hPa | 0V | 00:00:00 | 00:00:00 | 00:00:00 | |
| PU1XMG-16 | 2026-08-30 23:59:56 | -22.82737 | -43.12331 | 79° | 91km/h | 10419m | 4.8m/s | -38.2°C | 67.4% | 269.7hPa | 0V | 00:00:00 | 00:00:00 | 00:00:00 | |
| PU1XMG-16 | 2026-08-30 23:59:50 | -22.82775 | -43.12464 | 71° | 82km/h | 10385m | 6.4m/s | -37.8°C | 65.6% | 271.0hPa | 0V | 00:00:00 | 00:00:00 | 00:00:00 | |
| PU1XMG-16 | 2026-08-30 23:59:46 | -22.82804 | -43.12573 | 77° | 88km/h | 10359m | 7.9m/s | -37.6°C | 65.6% | 272.1hPa | 0V | 00:00:00 | 00:00:00 | 00:00:00 | |
| PU1XMG-16 | 2026-08-30 23:59:39 | -22.82841 | -43.12710 | 69° | 82km/h | 10325m | 4.8m/s | -37.3°C | 67.3% | 273.5hPa | 0V | 00:00:00 | 00:00:00 | 00:00:00 | |
| PU1XMG-16 | 2026-08-30 23:59:33 | -22.82878 | -43.12828 | 77° | 82km/h | 10282m | 8.6m/s | -37.0°C | 66.1% | 275.1hPa | 0V | 00:00:00 | 00:00:00 | 00:00:00 | |
| PU1XMG-16 | 2026-08-30 23:59:28 | -22.82906 | -43.12941 | 75° | 86km/h | 10246m | 5.6m/s | -36.6°C | 67.1% | 276.5hPa | 0V | 00:00:00 | 00:00:00 | 00:00:00 | |
| PU1XMG-16 | 2026-08-30 23:59:22 | -22.82937 | -43.13062 | 78° | 78km/h | 10214m | 4.8m/s | -36.3°C | 65.9% | 277.8hPa | 0V | 00:00:00 | 00:00:00 | 00:00:00 | |
| PU1XMG-16 | 2026-08-30 23:59:17 | -22.82963 | -43.13174 | 74° | 86km/h | 10183m | 5.5m/s | -36.1°C | 68.1% | 279.0hPa | 0V | 00:00:00 | 00:00:00 | 00:00:00 | |
| PU1XMG-16 | 2026-08-30 23:59:06 | -22.83037 | -43.13382 | 71° | 77km/h | 10123m | 10.6m/s | -35.5°C | 64.1% | 281.4hPa | 0V | 00:00:00 | 00:00:00 | 00:00:00 | |
| PU1XMG-16 | 2026-08-30 23:59:01 | -22.83071 | -43.13487 | 77° | 86km/h | 10091m | 6.3m/s | -35.2°C | 66.1% | 282.8hPa | 0V | 00:00:00 | 00:00:00 | 00:00:00 | |
| PU1XMG-16 | 2026-08-30 23:58:56 | -22.83087 | -43.13597 | 85° | 75km/h | 10067m | 6.0m/s | -35.1°C | 67.0% | 283.8hPa | 0V | 00:00:00 | 00:00:00 | 00:00:00 | |
| PU1XMG-16 | 2026-08-30 23:58:51 | -22.83107 | -43.13684 | 74° | 60km/h | 10038m | 9.4m/s | -34.8°C | 65.7% | 284.8hPa | 0V | 00:00:00 | 00:00:00 | 00:00:00 | |
| PU1XMG-16 | 2026-08-30 23:58:45 | -22.83143 | -43.13814 | 62° | 91km/h | 9997m | 6.0m/s | -34.5°C | 68.9% | 286.6hPa | 0V | 00:00:00 | 00:00:00 | 00:00:00 | |
| PU1XMG-16 | 2026-08-30 23:58:40 | -22.83194 | -43.13915 | 73° | 77km/h | 9968m | 7.5m/s | -34.3°C | 69.5% | 287.8hPa | 0V | 00:00:00 | 00:00:00 | 00:00:00 | |
| PU1XMG-16 | 2026-08-30 23:58:34 | -22.83228 | -43.14034 | 68° | 73km/h | 9928m | 8.6m/s | -34.1°C | 71.2% | 289.6hPa | 0V | 00:00:00 | 00:00:00 | 00:00:00 | |
| PU1XMG-16 | 2026-08-30 23:58:29 | -22.83277 | -43.14126 | 62° | 78km/h | 9892m | 3.4m/s | -33.9°C | 73.2% | 290.9hPa | 0V | 00:00:00 | 00:00:00 | 00:00:00 | |
| PU1XMG-16 | 2026-08-30 23:58:19 | -22.83344 | -43.14321 | 65° | 78km/h | 9819m | 9.2m/s | -33.3°C | 73.3% | 294.0hPa | 0V | 00:00:00 | 00:00:00 | 00:00:00 | |
| PU1XMG-16 | 2026-08-30 23:58:13 | -22.83387 | -43.14403 | 69° | 62km/h | 9783m | 6.7m/s | -33.1°C | 74.2% | 295.5hPa | 0V | 00:00:00 | 00:00:00 | 00:00:00 | |
| PU1XMG-16 | 2026-08-30 23:58:08 | -22.83424 | -43.14502 | 61° | 84km/h | 9750m | 5.6m/s | -32.8°C | 73.4% | 296.9hPa | 0V | 00:00:00 | 00:00:00 | 00:00:00 | |
| PU1XMG-16 | 2026-08-30 23:58:03 | -22.83481 | -43.14601 | 62° | 71km/h | 9711m | 5.1m/s | -32.5°C | 73.6% | 298.5hPa | 0V | 00:00:00 | 00:00:00 | 00:00:00 | |
| PU1XMG-16 | 2026-08-30 23:57:57 | -22.83521 | -43.14686 | 58° | 73km/h | 9679m | 6.6m/s | -32.3°C | 73.7% | 299.9hPa | 0V | 00:00:00 | 00:00:00 | 00:00:00 | |
| PU1XMG-16 | 2026-08-30 23:57:46 | -22.83645 | -43.14879 | 51° | 60km/h | 9607m | 5.4m/s | -31.7°C | 74.7% | 302.9hPa | 0V | 00:00:00 | 00:00:00 | 00:00:00 | |
| PU1XMG-16 | 2026-08-30 23:57:40 | -22.83698 | -43.14970 | 55° | 82km/h | 9567m | 10.5m/s | -31.4°C | 71.8% | 304.5hPa | 0V | 00:00:00 | 00:00:00 | 00:00:00 | |
| PU1XMG-16 | 2026-08-30 23:57:34 | -22.83767 | -43.15070 | 67° | 60km/h | 9529m | 7.0m/s | -31.1°C | 71.7% | 306.3hPa | 0V | 00:00:00 | 00:00:00 | 00:00:00 | |
| PU1XMG-16 | 2026-08-30 23:57:28 | -22.83810 | -43.15155 | 60° | 64km/h | 9489m | 6.9m/s | -30.8°C | 73.7% | 308.0hPa | 0V | 00:00:00 | 00:00:00 | 00:00:00 | |
| PU1XMG-16 | 2026-08-30 23:57:23 | -22.83845 | -43.15231 | 60° | 69km/h | 9458m | 6.8m/s | -30.5°C | 72.8% | 309.4hPa | 0V | 00:00:00 | 00:00:00 | 00:00:00 | |
| PU1XMG-16 | 2026-08-30 23:57:17 | -22.83910 | -43.15317 | 57° | 66km/h | 9421m | 7.3m/s | -30.2°C | 71.8% | 311.1hPa | 0V | 00:00:00 | 00:00:00 | 00:00:00 | |
| PU1XMG-16 | 2026-08-30 23:57:11 | -22.83962 | -43.15409 | 64° | 69km/h | 9385m | 6.7m/s | -30.0°C | 73.3% | 312.7hPa | 0V | 00:00:00 | 00:00:00 | 00:00:00 | |
| PU1XMG-16 | 2026-08-30 23:57:07 | -22.84007 | -43.15483 | 61° | 53km/h | 9353m | 6.9m/s | -29.8°C | 73.4% | 314.0hPa | 0V | 00:00:00 | 00:00:00 | 00:00:00 | |
| PU1XMG-16 | 2026-08-30 23:57:00 | -22.84061 | -43.15573 | 48° | 69km/h | 9317m | 4.8m/s | -29.5°C | 73.1% | 315.6hPa | 0V | 00:00:00 | 00:00:00 | 00:00:00 | |
| PU1XMG-16 | 2026-08-30 23:56:54 | -22.84101 | -43.15665 | 75° | 60km/h | 9278m | 5.5m/s | -29.1°C | 71.9% | 317.3hPa | 0V | 00:00:00 | 00:00:00 | 00:00:00 | |
| PU1XMG-16 | 2026-08-30 23:56:49 | -22.84150 | -43.15751 | 44° | 51km/h | 9240m | 8.4m/s | -28.8°C | 69.9% | 319.0hPa | 0V | 00:00:00 | 00:00:00 | 00:00:00 | |
| PU1XMG-16 | 2026-08-30 23:56:43 | -22.84193 | -43.15804 | 56° | 62km/h | 9212m | 5.2m/s | -28.5°C | 71.4% | 320.2hPa | 0V | 00:00:00 | 00:00:00 | 00:00:00 | |
| PU1XMG-16 | 2026-08-30 23:56:37 | -22.84238 | -43.15886 | 66° | 62km/h | 9174m | 7.0m/s | -28.3°C | 70.5% | 321.9hPa | 0V | 00:00:00 | 00:00:00 | 00:00:00 | |
| PU1XMG-16 | 2026-08-30 23:56:31 | -22.84286 | -43.15974 | 71° | 55km/h | 9139m | 5.5m/s | -28.0°C | 71.2% | 323.4hPa | 0V | 00:00:00 | 00:00:00 | 00:00:00 | |
| PU1XMG-16 | 2026-08-30 23:56:26 | -22.84315 | -43.16042 | 61° | 49km/h | 9113m | 5.7m/s | -27.8°C | 73.3% | 324.6hPa | 0V | 00:00:00 | 00:00:00 | 00:00:00 | |
| PU1XMG-16 | 2026-08-30 23:56:21 | -22.84346 | -43.16115 | 62° | 68km/h | 9088m | 6.7m/s | -27.6°C | 74.0% | 325.9hPa | 0V | 00:00:00 | 00:00:00 | 00:00:00 | |
| PU1XMG-16 | 2026-08-30 23:56:17 | -22.84381 | -43.16181 | 73° | 51km/h | 9060m | 6.6m/s | -27.3°C | 74.7% | 327.1hPa | 0V | 00:00:00 | 00:00:00 | 00:00:00 | |
| PU1XMG-16 | 2026-08-30 23:56:10 | -22.84421 | -43.16269 | 56° | 51km/h | 9024m | 6.3m/s | -27.1°C | 74.4% | 328.8hPa | 0V | 00:00:00 | 00:00:00 | 00:00:00 | |
| PU1XMG-16 | 2026-08-30 23:56:05 | -22.84456 | -43.16353 | 59° | 69km/h | 8986m | 5.8m/s | -26.8°C | 74.4% | 330.4hPa | 0V | 00:00:00 | 00:00:00 | 00:00:00 | |
| PU1XMG-16 | 2026-08-30 23:55:58 | -22.84503 | -43.16433 | 68° | 57km/h | 8950m | 8.1m/s | -26.4°C | 73.7% | 332.2hPa | 0V | 00:00:00 | 00:00:00 | 00:00:00 | |
| PU1XMG-16 | 2026-08-30 23:55:52 | -22.84540 | -43.16514 | 72° | 51km/h | 8911m | 7.9m/s | -26.1°C | 73.3% | 333.8hPa | 0V | 00:00:00 | 00:00:00 | 00:00:00 | |
| PU1XMG-16 | 2026-08-30 23:55:46 | -22.84580 | -43.16613 | 56° | 64km/h | 8879m | 5.3m/s | -25.8°C | 73.3% | 335.4hPa | 0V | 00:00:00 | 00:00:00 | 00:00:00 | |
| PU1XMG-16 | 2026-08-30 23:55:41 | -22.84610 | -43.16680 | 72° | 57km/h | 8852m | 5.5m/s | -25.6°C | 73.8% | 336.7hPa | 0V | 00:00:00 | 00:00:00 | 00:00:00 | |
| PU1XMG-16 | 2026-08-30 23:55:36 | -22.84649 | -43.16763 | 67° | 64km/h | 8818m | 6.3m/s | -25.3°C | 72.6% | 338.3hPa | 0V | 00:00:00 | 00:00:00 | 00:00:00 | |
| PU1XMG-16 | 2026-08-30 23:55:29 | -22.84685 | -43.16852 | 79° | 44km/h | 8781m | 8.5m/s | -25.0°C | 71.7% | 339.9hPa | 0V | 00:00:00 | 00:00:00 | 00:00:00 | |
| PU1XMG-16 | 2026-08-30 23:55:23 | -22.84714 | -43.16931 | 57° | 57km/h | 8738m | 4.5m/s | -24.7°C | 72.0% | 341.8hPa | 0V | 00:00:00 | 00:00:00 | 00:00:00 | |
| PU1XMG-16 | 2026-08-30 23:55:19 | -22.84749 | -43.17006 | 63° | 66km/h | 8708m | 7.7m/s | -24.5°C | 72.7% | 343.3hPa | 0V | 00:00:00 | 00:00:00 | 00:00:00 | |
| PU1XMG-16 | 2026-08-30 23:55:13 | -22.84773 | -43.17073 | 88° | 53km/h | 8683m | 4.6m/s | -24.2°C | 72.8% | 344.5hPa | 0V | 00:00:00 | 00:00:00 | 00:00:00 | |
| PU1XMG-16 | 2026-08-30 23:55:07 | -22.84801 | -43.17180 | 62° | 68km/h | 8649m | 5.0m/s | -24.1°C | 75.2% | 346.0hPa | 0V | 00:00:00 | 00:00:00 | 00:00:00 | |
| PU1XMG-16 | 2026-08-30 23:55:03 | -22.84834 | -43.17243 | 71° | 44km/h | 8625m | 5.4m/s | -23.9°C | 77.4% | 347.1hPa | 0V | 00:00:00 | 00:00:00 | 00:00:00 | |
| PU1XMG-16 | 2026-08-30 23:54:57 | -22.84861 | -43.17308 | 59° | 57km/h | 8601m | 3.5m/s | -23.8°C | 79.0% | 348.3hPa | 0V | 00:00:00 | 00:00:00 | 00:00:00 | |
| PU1XMG-16 | 2026-08-30 23:54:52 | -22.84875 | -43.17384 | 95° | 62km/h | 8569m | 3.9m/s | -23.7°C | 79.0% | 349.9hPa | 0V | 00:00:00 | 00:00:00 | 00:00:00 | |
| PU1XMG-16 | 2026-08-30 23:54:46 | -22.84884 | -43.17478 | 72° | 69km/h | 8547m | 6.3m/s | -23.5°C | 78.2% | 351.0hPa | 0V | 00:00:00 | 00:00:00 | 00:00:00 | |
| PU1XMG-16 | 2026-08-30 23:54:41 | -22.84908 | -43.17549 | 89° | 47km/h | 8520m | 5.8m/s | -23.4°C | 77.8% | 352.1hPa | 0V | 00:00:00 | 00:00:00 | 00:00:00 | |
| PU1XMG-16 | 2026-08-30 23:54:35 | -22.84914 | -43.17650 | 77° | 64km/h | 8487m | 6.2m/s | -23.2°C | 78.9% | 353.9hPa | 0V | 00:00:00 | 00:00:00 | 00:00:00 | |
| PU1XMG-16 | 2026-08-30 23:54:30 | -22.84928 | -43.17737 | 85° | 75km/h | 8457m | 7.2m/s | -23.0°C | 78.7% | 355.3hPa | 0V | 00:00:00 | 00:00:00 | 00:00:00 | |
| PU1XMG-16 | 2026-08-30 23:54:24 | -22.84947 | -43.17842 | 84° | 49km/h | 8417m | 1.3m/s | -22.8°C | 79.7% | 357.1hPa | 0V | 00:00:00 | 00:00:00 | 00:00:00 | |
| PU1XMG-16 | 2026-08-30 23:54:20 | -22.84965 | -43.17910 | 74° | 69km/h | 8387m | 4.4m/s | -22.6°C | 79.0% | 358.6hPa | 0V | 00:00:00 | 00:00:00 | 00:00:00 | |
| PU1XMG-16 | 2026-08-30 23:54:13 | -22.84975 | -43.18022 | 92° | 55km/h | 8356m | 5.2m/s | -22.3°C | 80.0% | 360.3hPa | 0V | 00:00:00 | 00:00:00 | 00:00:00 | |
| PU1XMG-16 | 2026-08-30 23:54:08 | -22.84990 | -43.18103 | 79° | 75km/h | 8331m | 4.1m/s | -22.1°C | 79.2% | 361.4hPa | 0V | 00:00:00 | 00:00:00 | 00:00:00 | |
| PU1XMG-16 | 2026-08-30 23:54:02 | -22.85001 | -43.18211 | 96° | 53km/h | 8289m | 4.7m/s | -21.8°C | 81.4% | 363.6hPa | 0V | 00:00:00 | 00:00:00 | 00:00:00 | |
| PU1XMG-16 | 2026-08-30 23:53:57 | -22.85003 | -43.18296 | 90° | 78km/h | 8259m | 5.3m/s | -21.7°C | 82.9% | 365.2hPa | 0V | 00:00:00 | 00:00:00 | 00:00:00 | |
| PU1XMG-16 | 2026-08-30 23:53:52 | -22.85012 | -43.18407 | 76° | 73km/h | 8227m | 7.5m/s | -21.5°C | 81.1% | 366.7hPa | 0V | 00:00:00 | 00:00:00 | 00:00:00 | |
| PU1XMG-16 | 2026-08-30 23:53:47 | -22.85027 | -43.18495 | 98° | 55km/h | 8193m | 6.6m/s | -21.3°C | 82.6% | 368.5hPa | 0V | 00:00:00 | 00:00:00 | 00:00:00 | |
| PU1XMG-16 | 2026-08-30 23:53:41 | -22.85027 | -43.18575 | 86° | 57km/h | 8162m | 7.1m/s | -21.1°C | 84.3% | 370.0hPa | 0V | 00:00:00 | 00:00:00 | 00:00:00 | |
| PU1XMG-16 | 2026-08-30 23:53:36 | -22.85024 | -43.18663 | 91° | 75km/h | 8129m | 10.4m/s | -20.9°C | 83.0% | 371.6hPa | 0V | 00:00:00 | 00:00:00 | 00:00:00 | |
| PU1XMG-16 | 2026-08-30 23:53:30 | -22.85025 | -43.18773 | 106° | 62km/h | 8087m | 7.8m/s | -20.6°C | 83.4% | 373.7hPa | 0V | 00:00:00 | 00:00:00 | 00:00:00 | |
| PU1XMG-16 | 2026-08-30 23:53:24 | -22.85007 | -43.18856 | 88° | 57km/h | 8047m | 5.9m/s | -20.3°C | 83.0% | 375.7hPa | 0V | 00:00:00 | 00:00:00 | 00:00:00 | |
| PU1XMG-16 | 2026-08-30 23:53:20 | -22.85000 | -43.18942 | 104° | 60km/h | 8010m | 7.6m/s | -20.0°C | 81.1% | 377.4hPa | 0V | 00:00:00 | 00:00:00 | 00:00:00 | |
| PU1XMG-16 | 2026-08-30 23:53:13 | -22.84982 | -43.19025 | 107° | 49km/h | 7971m | 2.4m/s | -19.7°C | 84.0% | 379.5hPa | 0V | 00:00:00 | 00:00:00 | 00:00:00 | |
| PU1XMG-16 | 2026-08-30 23:53:07 | -22.84975 | -43.19119 | 102° | 71km/h | 7931m | 5.5m/s | -19.5°C | 82.1% | 381.5hPa | 0V | 00:00:00 | 00:00:00 | 00:00:00 | |
| PU1XMG-16 | 2026-08-30 23:53:01 | -22.84942 | -43.19212 | 108° | 42km/h | 7892m | 6.9m/s | -19.3°C | 82.0% | 383.2hPa | 0V | 00:00:00 | 00:00:00 | 00:00:00 | |
| PU1XMG-16 | 2026-08-30 23:52:56 | -22.84934 | -43.19283 | 104° | 64km/h | 7865m | 4.3m/s | -19.1°C | 82.6% | 384.7hPa | 0V | 00:00:00 | 00:00:00 | 00:00:00 | |
| PU1XMG-16 | 2026-08-30 23:52:51 | -22.84903 | -43.19363 | 102° | 44km/h | 7835m | 5.2m/s | -18.9°C | 82.9% | 386.5hPa | 0V | 00:00:00 | 00:00:00 | 00:00:00 | |
| PU1XMG-16 | 2026-08-30 23:52:45 | -22.84884 | -43.19439 | 121° | 62km/h | 7807m | 6.2m/s | -18.7°C | 82.4% | 388.0hPa | 0V | 00:00:00 | 00:00:00 | 00:00:00 | |
| PU1XMG-16 | 2026-08-30 23:52:40 | -22.84856 | -43.19504 | 98° | 44km/h | 7770m | 6.4m/s | -18.6°C | 81.8% | 389.7hPa | 0V | 00:00:00 | 00:00:00 | 00:00:00 | |
| PU1XMG-16 | 2026-08-30 23:52:34 | -22.84833 | -43.19573 | 126° | 53km/h | 7744m | 6.2m/s | -18.5°C | 83.3% | 391.1hPa | 0V | 00:00:00 | 00:00:00 | 00:00:00 | |
| PU1XMG-16 | 2026-08-30 23:52:29 | -22.84802 | -43.19637 | 112° | 55km/h | 7716m | 4.9m/s | -18.4°C | 84.4% | 392.8hPa | 0V | 00:00:00 | 00:00:00 | 00:00:00 | |
| PU1XMG-16 | 2026-08-30 23:52:22 | -22.84754 | -43.19706 | 135° | 35km/h | 7682m | 6.5m/s | -18.2°C | 84.2% | 394.5hPa | 0V | 00:00:00 | 00:00:00 | 00:00:00 | |
| PU1XMG-16 | 2026-08-30 23:52:17 | -22.84736 | -43.19756 | 112° | 55km/h | 7650m | 7.3m/s | -18.3°C | 84.4% | 396.1hPa | 0V | 00:00:00 | 00:00:00 | 00:00:00 | |
| PU1XMG-16 | 2026-08-30 23:52:12 | -22.84700 | -43.19820 | 123° | 49km/h | 7619m | 6.5m/s | -18.1°C | 84.9% | 397.8hPa | 0V | 00:00:00 | 00:00:00 | 00:00:00 | |
| PU1XMG-16 | 2026-08-30 23:52:06 | -22.84657 | -43.19899 | 130° | 55km/h | 7580m | 6.3m/s | -17.9°C | 85.3% | 399.8hPa | 0V | 00:00:00 | 00:00:00 | 00:00:00 | |
| PU1XMG-16 | 2026-08-30 23:52:00 | -22.84628 | -43.19966 | 112° | 44km/h | 7541m | 6.1m/s | -17.6°C | 85.7% | 402.0hPa | 0V | 00:00:00 | 00:00:00 | 00:00:00 | |
| PU1XMG-16 | 2026-08-30 23:51:55 | -22.84607 | -43.20019 | 121° | 42km/h | 7500m | 10.9m/s | -17.3°C | 84.7% | 404.1hPa | 0V | 00:00:00 | 00:00:00 | 00:00:00 | |
| PU1XMG-16 | 2026-08-30 23:51:50 | -22.84564 | -43.20081 | 118° | 62km/h | 7458m | 6.6m/s | -17.1°C | 85.2% | 406.4hPa | 0V | 00:00:00 | 00:00:00 | 00:00:00 | |
| PU1XMG-16 | 2026-08-30 23:51:44 | -22.84530 | -43.20159 | 127° | 58km/h | 7415m | 9.0m/s | -16.9°C | 85.5% | 408.6hPa | 0V | 00:00:00 | 00:00:00 | 00:00:00 | |
| PU1XMG-16 | 2026-08-30 23:51:39 | -22.84478 | -43.20222 | 126° | 60km/h | 7379m | 9.7m/s | -16.9°C | 85.0% | 410.4hPa | 0V | 00:00:00 | 00:00:00 | 00:00:00 | |
| PU1XMG-16 | 2026-08-30 23:51:33 | -22.84433 | -43.20299 | 138° | 46km/h | 7336m | 8.8m/s | -16.7°C | 85.0% | 412.9hPa | 0V | 00:00:00 | 00:00:00 | 00:00:00 | |
| PU1XMG-16 | 2026-08-30 23:51:28 | -22.84395 | -43.20345 | 129° | 58km/h | 7303m | 5.7m/s | -16.4°C | 84.9% | 414.8hPa | 0V | 00:00:00 | 00:00:00 | 00:00:00 | |
| PU1XMG-16 | 2026-08-30 23:51:23 | -22.84322 | -43.20403 | 153° | 42km/h | 7267m | 5.6m/s | -16.3°C | 84.2% | 416.8hPa | 0V | 00:00:00 | 00:00:00 | 00:00:00 | |
| PU1XMG-16 | 2026-08-30 23:51:17 | -22.84284 | -43.20436 | 142° | 38km/h | 7230m | 8.9m/s | -16.0°C | 83.0% | 418.7hPa | 0V | 00:00:00 | 00:00:00 | 00:00:00 | |
| PU1XMG-16 | 2026-08-30 23:51:11 | -22.84223 | -43.20490 | 136° | 51km/h | 7193m | 5.7m/s | -15.9°C | 83.3% | 420.8hPa | 0V | 00:00:00 | 00:00:00 | 00:00:00 | |
| PU1XMG-16 | 2026-08-30 23:51:05 | -22.84159 | -43.20540 | 140° | 58km/h | 7156m | 6.1m/s | -15.7°C | 84.5% | 422.9hPa | 0V | 00:00:00 | 00:00:00 | 00:00:00 | |
| PU1XMG-16 | 2026-08-30 23:50:59 | -22.84103 | -43.20594 | 148° | 58km/h | 7115m | 5.0m/s | -15.5°C | 86.8% | 425.3hPa | 0V | 00:00:00 | 00:00:00 | 00:00:00 | |
| PU1XMG-16 | 2026-08-30 23:50:54 | -22.84034 | -43.20638 | 140° | 60km/h | 7080m | 6.3m/s | -15.2°C | 87.6% | 427.2hPa | 0V | 00:00:00 | 00:00:00 | 00:00:00 | |
| PU1XMG-16 | 2026-08-30 23:50:49 | -22.83977 | -43.20675 | 163° | 58km/h | 7045m | 6.7m/s | -15.2°C | 87.8% | 429.2hPa | 0V | 00:00:00 | 00:00:00 | 00:00:00 | |
| PU1XMG-16 | 2026-08-30 23:50:44 | -22.83903 | -43.20719 | 138° | 62km/h | 7015m | 5.2m/s | -15.0°C | 86.8% | 430.8hPa | 0V | 00:00:00 | 00:00:00 | 00:00:00 | |
| PU1XMG-16 | 2026-08-30 23:50:39 | -22.83836 | -43.20780 | 155° | 64km/h | 6974m | 5.8m/s | -14.7°C | 84.5% | 433.3hPa | 0V | 00:00:00 | 00:00:00 | 00:00:00 | |
| PU1XMG-16 | 2026-08-30 23:50:32 | -22.83762 | -43.20811 | 145° | 44km/h | 6930m | 7.7m/s | -14.5°C | 81.7% | 435.7hPa | 0V | 00:00:00 | 00:00:00 | 00:00:00 | |
| PU1XMG-16 | 2026-08-30 23:50:28 | -22.83707 | -43.20856 | 149° | 58km/h | 6896m | 4.8m/s | -15.1°C | 73.3% | 437.6hPa | 0V | 00:00:00 | 00:00:00 | 00:00:00 | |
| PU1XMG-16 | 2026-08-30 23:50:16 | -22.83575 | -43.20909 | 181° | 40km/h | 6816m | 3.3m/s | -15.4°C | 60.1% | 442.4hPa | 0V | 00:00:00 | 00:00:00 | 00:00:00 | |
| PU1XMG-16 | 2026-08-30 23:50:12 | -22.83525 | -43.20912 | 179° | 33km/h | 6782m | 9.0m/s | -15.1°C | 58.0% | 444.3hPa | 0V | 00:00:00 | 00:00:00 | 00:00:00 | |
| PU1XMG-16 | 2026-08-30 23:50:06 | -22.83474 | -43.20925 | 152° | 42km/h | 6749m | 7.5m/s | -14.9°C | 56.9% | 446.4hPa | 0V | 00:00:00 | 00:00:00 | 00:00:00 | |
| PU1XMG-16 | 2026-08-30 23:49:55 | -22.83394 | -43.20951 | 152° | 27km/h | 6678m | 8.0m/s | -14.7°C | 55.7% | 450.6hPa | 0V | 00:00:00 | 00:00:00 | 00:00:00 | |
| PU1XMG-16 | 2026-08-30 23:49:49 | -22.83352 | -43.20969 | 162° | 20km/h | 6629m | 6.1m/s | -14.3°C | 52.4% | 453.3hPa | 0V | 00:00:00 | 00:00:00 | 00:00:00 | |
| PU1XMG-16 | 2026-08-30 23:49:43 | -22.83324 | -43.20997 | 140° | 29km/h | 6592m | 7.5m/s | -14.0°C | 51.9% | 455.7hPa | 0V | 00:00:00 | 00:00:00 | 00:00:00 | |
| PU1XMG-16 | 2026-08-30 23:49:38 | -22.83297 | -43.21020 | 131° | 31km/h | 6550m | 5.5m/s | -13.7°C | 51.1% | 458.2hPa | 0V | 00:00:00 | 00:00:00 | 00:00:00 | |
| PU1XMG-16 | 2026-08-30 23:49:34 | -22.83291 | -43.21048 | 117° | 11km/h | 6514m | 5.6m/s | -13.4°C | 49.5% | 460.2hPa | 0V | 00:00:00 | 00:00:00 | 00:00:00 | |
| PU1XMG-16 | 2026-08-30 23:49:27 | -22.83258 | -43.21081 | 121° | 42km/h | 6477m | 6.9m/s | -13.0°C | 47.6% | 462.6hPa | 0V | 00:00:00 | 00:00:00 | 00:00:00 | |
| PU1XMG-16 | 2026-08-30 23:49:21 | -22.83246 | -43.21126 | 115° | 22km/h | 6438m | 6.5m/s | -12.6°C | 46.7% | 464.9hPa | 0V | 00:00:00 | 00:00:00 | 00:00:00 | |
| PU1XMG-16 | 2026-08-30 23:49:15 | -22.83231 | -43.21164 | 126° | 16km/h | 6397m | 8.2m/s | -12.2°C | 45.5% | 467.5hPa | 0V | 00:00:00 | 00:00:00 | 00:00:00 | |
| PU1XMG-16 | 2026-08-30 23:49:09 | -22.83212 | -43.21196 | 99° | 20km/h | 6352m | 6.5m/s | -11.8°C | 44.8% | 470.2hPa | 0V | 00:00:00 | 00:00:00 | 00:00:00 | |
| PU1XMG-16 | 2026-08-30 23:49:04 | -22.83200 | -43.21227 | 110° | 29km/h | 6315m | 8.2m/s | -11.6°C | 43.9% | 472.5hPa | 0V | 00:00:00 | 00:00:00 | 00:00:00 | |
| PU1XMG-16 | 2026-08-30 23:48:58 | -22.83178 | -43.21262 | 127° | 29km/h | 6265m | 7.3m/s | -11.1°C | 43.2% | 475.4hPa | 0V | 00:00:00 | 00:00:00 | 00:00:00 | |
| PU1XMG-16 | 2026-08-30 23:48:53 | -22.83154 | -43.21284 | 153° | 31km/h | 6229m | 7.0m/s | -10.8°C | 43.1% | 477.6hPa | 0V | 00:00:00 | 00:00:00 | 00:00:00 | |
| PU1XMG-16 | 2026-08-30 23:48:47 | -22.83132 | -43.21318 | 129° | 11km/h | 6186m | 7.3m/s | -10.4°C | 41.7% | 480.3hPa | 0V | 00:00:00 | 00:00:00 | 00:00:00 | |
| PU1XMG-16 | 2026-08-30 23:48:42 | -22.83112 | -43.21335 | 127° | 33km/h | 6160m | 6.3m/s | -10.2°C | 42.7% | 482.2hPa | 0V | 00:00:00 | 00:00:00 | 00:00:00 | |
| PU1XMG-16 | 2026-08-30 23:48:36 | -22.83093 | -43.21373 | 114° | 24km/h | 6111m | 9.5m/s | -9.7°C | 42.4% | 485.0hPa | 0V | 00:00:00 | 00:00:00 | 00:00:00 | |
| PU1XMG-16 | 2026-08-30 23:48:30 | -22.83063 | -43.21400 | 136° | 24km/h | 6072m | 8.6m/s | -9.4°C | 42.1% | 487.4hPa | 0V | 00:00:00 | 00:00:00 | 00:00:00 | |
| PU1XMG-16 | 2026-08-30 23:48:24 | -22.83028 | -43.21449 | 132° | 35km/h | 6036m | 5.3m/s | -9.0°C | 41.1% | 489.9hPa | 0V | 00:00:00 | 00:00:00 | 00:00:00 | |
| PU1XMG-16 | 2026-08-30 23:48:19 | -22.83004 | -43.21478 | 126° | 27km/h | 6001m | 6.4m/s | -8.6°C | 38.8% | 492.0hPa | 0V | 00:00:00 | 00:00:00 | 00:00:00 | |
| PU1XMG-16 | 2026-08-30 23:48:14 | -22.82983 | -43.21502 | 151° | 29km/h | 5978m | 4.2m/s | -8.4°C | 39.3% | 493.4hPa | 0V | 00:00:00 | 00:00:00 | 00:00:00 | |
| PU1XMG-16 | 2026-08-30 23:48:10 | -22.82951 | -43.21530 | 125° | 38km/h | 5957m | 3.4m/s | -8.2°C | 37.8% | 494.8hPa | 0V | 00:00:00 | 00:00:00 | 00:00:00 | |
| PU1XMG-16 | 2026-08-30 23:48:03 | -22.82928 | -43.21573 | 118° | 24km/h | 5926m | 6.7m/s | -8.1°C | 45.5% | 496.7hPa | 0V | 00:00:00 | 00:00:00 | 00:00:00 | |
| PU1XMG-16 | 2026-08-30 23:47:59 | -22.82914 | -43.21599 | 150° | 24km/h | 5899m | 4.9m/s | -7.9°C | 47.3% | 498.4hPa | 0V | 00:00:00 | 00:00:00 | 00:00:00 | |
| PU1XMG-16 | 2026-08-30 23:47:52 | -22.82873 | -43.21617 | 150° | 26km/h | 5871m | 5.1m/s | -7.7°C | 49.8% | 500.3hPa | 0V | 00:00:00 | 00:00:00 | 00:00:00 | |
| PU1XMG-16 | 2026-08-30 23:47:46 | -22.82842 | -43.21636 | 159° | 20km/h | 5835m | 4.8m/s | -7.6°C | 57.9% | 502.6hPa | 0V | 00:00:00 | 00:00:00 | 00:00:00 | |
| PU1XMG-16 | 2026-08-30 23:47:41 | -22.82806 | -43.21668 | 146° | 37km/h | 5798m | 4.9m/s | -7.7°C | 56.8% | 504.9hPa | 0V | 00:00:00 | 00:00:00 | 00:00:00 | |
| PU1XMG-16 | 2026-08-30 23:47:34 | -22.82780 | -43.21704 | 119° | 35km/h | 5763m | 5.9m/s | -7.5°C | 68.0% | 507.0hPa | 0V | 00:00:00 | 00:00:00 | 00:00:00 | |
| PU1XMG-16 | 2026-08-30 23:47:29 | -22.82749 | -43.21734 | 141° | 22km/h | 5737m | 4.2m/s | -7.6°C | 79.5% | 508.8hPa | 0V | 00:00:00 | 00:00:00 | 00:00:00 | |
| PU1XMG-16 | 2026-08-30 23:47:24 | -22.82723 | -43.21770 | 130° | 29km/h | 5701m | 6.4m/s | -7.5°C | 79.1% | 511.3hPa | 0V | 00:00:00 | 00:00:00 | 00:00:00 | |
| PU1XMG-16 | 2026-08-30 23:47:17 | -22.82693 | -43.21799 | 131° | 31km/h | 5673m | 5.2m/s | -7.6°C | 79.5% | 513.2hPa | 0V | 00:00:00 | 00:00:00 | 00:00:00 | |
| PU1XMG-16 | 2026-08-30 23:47:12 | -22.82665 | -43.21842 | 135° | 33km/h | 5645m | 4.6m/s | -7.9°C | 97.0% | 515.0hPa | 0V | 00:00:00 | 00:00:00 | 00:00:00 | |
| PU1XMG-16 | 2026-08-30 23:47:08 | -22.82636 | -43.21876 | 119° | 40km/h | 5618m | 6.3m/s | -7.7°C | 98.8% | 516.9hPa | 0V | 00:00:00 | 00:00:00 | 00:00:00 | |
| PU1XMG-16 | 2026-08-30 23:47:02 | -22.82607 | -43.21924 | 127° | 38km/h | 5582m | 7.2m/s | -7.4°C | 96.3% | 519.0hPa | 0V | 00:00:00 | 00:00:00 | 00:00:00 | |
| PU1XMG-16 | 2026-08-30 23:46:56 | -22.82592 | -43.21962 | 122° | 22km/h | 5549m | 5.5m/s | -7.2°C | 94.8% | 521.1hPa | 0V | 00:00:00 | 00:00:00 | 00:00:00 | |
| PU1XMG-16 | 2026-08-30 23:46:50 | -22.82561 | -43.21999 | 136° | 38km/h | 5521m | 5.5m/s | -6.9°C | 95.2% | 523.2hPa | 0V | 00:00:00 | 00:00:00 | 00:00:00 | |
| PU1XMG-16 | 2026-08-30 23:46:45 | -22.82540 | -43.22039 | 116° | 44km/h | 5487m | 5.7m/s | -6.5°C | 92.2% | 525.4hPa | 0V | 00:00:00 | 00:00:00 | 00:00:00 | |
| PU1XMG-16 | 2026-08-30 23:46:40 | -22.82506 | -43.22086 | 129° | 35km/h | 5463m | 4.7m/s | -6.3°C | 94.3% | 527.2hPa | 0V | 00:00:00 | 00:00:00 | 00:00:00 | |
| PU1XMG-16 | 2026-08-30 23:46:34 | -22.82471 | -43.22147 | 135° | 53km/h | 5429m | 4.7m/s | -6.2°C | 96.1% | 529.5hPa | 0V | 00:00:00 | 00:00:00 | 00:00:00 | |
| PU1XMG-16 | 2026-08-30 23:46:30 | -22.82435 | -43.22194 | 121° | 33km/h | 5402m | 4.8m/s | -5.9°C | 95.3% | 531.3hPa | 0V | 00:00:00 | 00:00:00 | 00:00:00 | |
| PU1XMG-16 | 2026-08-30 23:46:24 | -22.82403 | -43.22237 | 117° | 38km/h | 5366m | 7.2m/s | -5.7°C | 93.4% | 533.7hPa | 0V | 00:00:00 | 00:00:00 | 00:00:00 | |
| PU1XMG-16 | 2026-08-30 23:46:18 | -22.82383 | -43.22283 | 127° | 42km/h | 5336m | 8.8m/s | -5.4°C | 90.9% | 535.7hPa | 0V | 00:00:00 | 00:00:00 | 00:00:00 | |
| PU1XMG-16 | 2026-08-30 23:46:13 | -22.82344 | -43.22331 | 130° | 33km/h | 5298m | 6.9m/s | -5.1°C | 88.8% | 538.3hPa | 0V | 00:00:00 | 00:00:00 | 00:00:00 | |
| PU1XMG-16 | 2026-08-30 23:46:07 | -22.82313 | -43.22379 | 130° | 49km/h | 5266m | 6.6m/s | -4.8°C | 87.5% | 540.4hPa | 0V | 00:00:00 | 00:00:00 | 00:00:00 | |
| PU1XMG-16 | 2026-08-30 23:46:02 | -22.82270 | -43.22413 | 141° | 33km/h | 5234m | 5.1m/s | -4.5°C | 86.1% | 542.6hPa | 0V | 00:00:00 | 00:00:00 | 00:00:00 | |
| PU1XMG-16 | 2026-08-30 23:45:57 | -22.82240 | -43.22463 | 122° | 49km/h | 5208m | 6.0m/s | -4.3°C | 86.0% | 544.3hPa | 0V | 00:00:00 | 00:00:00 | 00:00:00 | |
| PU1XMG-16 | 2026-08-30 23:45:51 | -22.82206 | -43.22510 | 132° | 42km/h | 5170m | 4.8m/s | -4.2°C | 88.7% | 547.0hPa | 0V | 00:00:00 | 00:00:00 | 00:00:00 | |
| PU1XMG-16 | 2026-08-30 23:45:46 | -22.82171 | -43.22559 | 134° | 44km/h | 5141m | 5.8m/s | -4.4°C | 96.3% | 548.9hPa | 0V | 00:00:00 | 00:00:00 | 00:00:00 | |
| PU1XMG-16 | 2026-08-30 23:45:40 | -22.82127 | -43.22598 | 130° | 46km/h | 5111m | 5.8m/s | -4.1°C | 95.4% | 551.0hPa | 0V | 00:00:00 | 00:00:00 | 00:00:00 | |
| PU1XMG-16 | 2026-08-30 23:45:34 | -22.82089 | -43.22656 | 139° | 44km/h | 5078m | 6.1m/s | -3.9°C | 95.6% | 553.5hPa | 0V | 00:00:00 | 00:00:00 | 00:00:00 | |
| PU1XMG-16 | 2026-08-30 23:45:29 | -22.82035 | -43.22710 | 140° | 37km/h | 5043m | 5.2m/s | -3.6°C | 95.8% | 555.8hPa | 0V | 00:00:00 | 00:00:00 | 00:00:00 | |
| PU1XMG-16 | 2026-08-30 23:45:23 | -22.81998 | -43.22748 | 126° | 47km/h | 5015m | 5.8m/s | -3.4°C | 95.6% | 558.0hPa | 0V | 00:00:00 | 00:00:00 | 00:00:00 | |
| PU1XMG-16 | 2026-08-30 23:45:18 | -22.81969 | -43.22791 | 138° | 38km/h | 4983m | 5.9m/s | -3.2°C | 95.5% | 560.1hPa | 0V | 00:00:00 | 00:00:00 | 00:00:00 | |
| PU1XMG-16 | 2026-08-30 23:45:14 | -22.81924 | -43.22838 | 142° | 51km/h | 4952m | 8.4m/s | -3.0°C | 95.7% | 562.3hPa | 0V | 00:00:00 | 00:00:00 | 00:00:00 | |
| PU1XMG-16 | 2026-08-30 23:45:08 | -22.81868 | -43.22871 | 149° | 44km/h | 4920m | 6.4m/s | -2.7°C | 95.4% | 564.4hPa | 0V | 00:00:00 | 00:00:00 | 00:00:00 | |
| PU1XMG-16 | 2026-08-30 23:44:58 | -22.81787 | -43.22968 | 125° | 49km/h | 4862m | 3.6m/s | -2.4°C | 96.0% | 568.7hPa | 0V | 00:00:00 | 00:00:00 | 00:00:00 | |
| PU1XMG-16 | 2026-08-30 23:44:52 | -22.81744 | -43.23013 | 145° | 47km/h | 4829m | 4.8m/s | -2.2°C | 96.4% | 571.1hPa | 0V | 00:00:00 | 00:00:00 | 00:00:00 | |
| PU1XMG-16 | 2026-08-30 23:44:45 | -22.81686 | -43.23067 | 128° | 44km/h | 4794m | 5.9m/s | -2.1°C | 96.9% | 573.5hPa | 0V | 00:00:00 | 00:00:00 | 00:00:00 | |
| PU1XMG-16 | 2026-08-30 23:44:40 | -22.81644 | -43.23119 | 145° | 51km/h | 4769m | 5.1m/s | -2.0°C | 96.5% | 575.2hPa | 0V | 00:00:00 | 00:00:00 | 00:00:00 | |
| PU1XMG-16 | 2026-08-30 23:44:34 | -22.81593 | -43.23158 | 143° | 40km/h | 4732m | 5.3m/s | -1.8°C | 95.8% | 578.0hPa | 0V | 00:00:00 | 00:00:00 | 00:00:00 | |
| PU1XMG-16 | 2026-08-30 23:44:29 | -22.81546 | -43.23214 | 142° | 37km/h | 4700m | 4.3m/s | -1.6°C | 93.2% | 580.2hPa | 0V | 00:00:00 | 00:00:00 | 00:00:00 | |
| PU1XMG-16 | 2026-08-30 23:44:22 | -22.81511 | -43.23253 | 128° | 40km/h | 4666m | 5.4m/s | -1.3°C | 89.2% | 582.7hPa | 0V | 00:00:00 | 00:00:00 | 00:00:00 | |
| PU1XMG-16 | 2026-08-30 23:44:17 | -22.81478 | -43.23291 | 127° | 40km/h | 4636m | 8.1m/s | -1.2°C | 87.8% | 584.8hPa | 0V | 00:00:00 | 00:00:00 | 00:00:00 | |
| PU1XMG-16 | 2026-08-30 23:44:12 | -22.81448 | -43.23328 | 146° | 26km/h | 4610m | 6.2m/s | -1.0°C | 83.6% | 586.9hPa | 0V | 00:00:00 | 00:00:00 | 00:00:00 | |
| PU1XMG-16 | 2026-08-30 23:44:07 | -22.81425 | -43.23361 | 131° | 35km/h | 4582m | 6.3m/s | -1.0°C | 78.9% | 589.0hPa | 0V | 00:00:00 | 00:00:00 | 00:00:00 | |
| PU1XMG-16 | 2026-08-30 23:44:01 | -22.81397 | -43.23387 | 133° | 29km/h | 4549m | 7.1m/s | -0.8°C | 79.4% | 591.4hPa | 0V | 00:00:00 | 00:00:00 | 00:00:00 | |
| PU1XMG-16 | 2026-08-30 23:43:56 | -22.81367 | -43.23436 | 131° | 35km/h | 4513m | 8.5m/s | -0.6°C | 82.3% | 594.0hPa | 0V | 00:00:00 | 00:00:00 | 00:00:00 | |
| PU1XMG-16 | 2026-08-30 23:43:49 | -22.81333 | -43.23456 | 138° | 13km/h | 4475m | 5.3m/s | -0.4°C | 88.1% | 596.8hPa | 0V | 00:00:00 | 00:00:00 | 00:00:00 | |
| PU1XMG-16 | 2026-08-30 23:43:43 | -22.81306 | -43.23477 | 160° | 26km/h | 4438m | 5.6m/s | -0.1°C | 84.8% | 599.7hPa | 0V | 00:00:00 | 00:00:00 | 00:00:00 | |
| PU1XMG-16 | 2026-08-30 23:43:38 | -22.81278 | -43.23503 | 113° | 9km/h | 4402m | 6.6m/s | 0.2°C | 77.9% | 602.3hPa | 0V | 00:00:00 | 00:00:00 | 00:00:00 | |
| PU1XMG-16 | 2026-08-30 23:43:31 | -22.81265 | -43.23516 | 164° | 18km/h | 4364m | 6.0m/s | 0.5°C | 80.7% | 605.1hPa | 0V | 00:00:00 | 00:00:00 | 00:00:00 | |
| PU1XMG-16 | 2026-08-30 23:43:26 | -22.81248 | -43.23527 | 118° | 9km/h | 4336m | 5.5m/s | 0.8°C | 74.4% | 607.2hPa | 0V | 00:00:00 | 00:00:00 | 00:00:00 | |
| PU1XMG-16 | 2026-08-30 23:43:21 | -22.81242 | -43.23537 | 149° | 20km/h | 4316m | 5.3m/s | 0.9°C | 77.0% | 608.7hPa | 0V | 00:00:00 | 00:00:00 | 00:00:00 | |
| PU1XMG-16 | 2026-08-30 23:43:14 | -22.81203 | -43.23552 | 184° | 27km/h | 4285m | 4.0m/s | 1.1°C | 76.4% | 611.0hPa | 0V | 00:00:00 | 00:00:00 | 00:00:00 | |
| PU1XMG-16 | 2026-08-30 23:43:09 | -22.81173 | -43.23557 | 115° | 18km/h | 4254m | 7.0m/s | 1.3°C | 80.4% | 613.3hPa | 0V | 00:00:00 | 00:00:00 | 00:00:00 | |
| PU1XMG-16 | 2026-08-30 23:43:02 | -22.81163 | -43.23562 | 186° | 16km/h | 4222m | 6.2m/s | 1.5°C | 87.5% | 616.1hPa | 0V | 00:00:00 | 00:00:00 | 00:00:00 | |
| PU1XMG-16 | 2026-08-30 23:42:57 | -22.81151 | -43.23583 | 85° | 20km/h | 4193m | 5.8m/s | 1.7°C | 87.9% | 618.3hPa | 0V | 00:00:00 | 00:00:00 | 00:00:00 | |
| PU1XMG-16 | 2026-08-30 23:42:52 | -22.81143 | -43.23611 | 142° | 16km/h | 4154m | 3.7m/s | 2.0°C | 85.7% | 621.1hPa | 0V | 00:00:00 | 00:00:00 | 00:00:00 | |
| PU1XMG-16 | 2026-08-30 23:42:45 | -22.81135 | -43.23627 | 212° | 4km/h | 4119m | 6.8m/s | 2.3°C | 83.3% | 623.8hPa | 0V | 00:00:00 | 00:00:00 | 00:00:00 | |
| PU1XMG-16 | 2026-08-30 23:42:40 | -22.81120 | -43.23629 | 124° | 15km/h | 4091m | 6.4m/s | 2.6°C | 81.7% | 626.1hPa | 0V | 00:00:00 | 00:00:00 | 00:00:00 | |
| PU1XMG-16 | 2026-08-30 23:42:35 | -22.81104 | -43.23637 | 196° | 18km/h | 4054m | 8.2m/s | 2.9°C | 80.9% | 628.8hPa | 0V | 00:00:00 | 00:00:00 | 00:00:00 | |
| PU1XMG-16 | 2026-08-30 23:42:29 | -22.81093 | -43.23645 | 110° | 18km/h | 4026m | 5.6m/s | 3.0°C | 81.6% | 631.0hPa | 0V | 00:00:00 | 00:00:00 | 00:00:00 | |
| PU1XMG-16 | 2026-08-30 23:42:24 | -22.81090 | -43.23648 | 302° | 9km/h | 3994m | 5.1m/s | 3.3°C | 82.2% | 633.3hPa | 0V | 00:00:00 | 00:00:00 | 00:00:00 | |
| PU1XMG-16 | 2026-08-30 23:42:18 | -22.81075 | -43.23637 | 184° | 20km/h | 3967m | 4.4m/s | 3.5°C | 82.1% | 635.4hPa | 0V | 00:00:00 | 00:00:00 | 00:00:00 | |
| PU1XMG-16 | 2026-08-30 23:42:12 | -22.81064 | -43.23637 | 192° | 5km/h | 3941m | 5.8m/s | 3.7°C | 82.3% | 637.5hPa | 0V | 00:00:00 | 00:00:00 | 00:00:00 | |
| PU1XMG-16 | 2026-08-30 23:42:07 | -22.81041 | -43.23646 | 161° | 9km/h | 3911m | 4.1m/s | 3.9°C | 84.0% | 639.9hPa | 0V | 00:00:00 | 00:00:00 | 00:00:00 | |
| PU1XMG-16 | 2026-08-30 23:42:01 | -22.81037 | -43.23654 | 162° | 11km/h | 3875m | 6.7m/s | 4.2°C | 82.4% | 642.6hPa | 0V | 00:00:00 | 00:00:00 | 00:00:00 | |
| PU1XMG-16 | 2026-08-30 23:41:56 | -22.81023 | -43.23666 | 120° | 11km/h | 3847m | 6.6m/s | 4.4°C | 83.9% | 644.8hPa | 0V | 00:00:00 | 00:00:00 | 00:00:00 | |
| PU1XMG-16 | 2026-08-30 23:41:49 | -22.81009 | -43.23671 | 134° | 13km/h | 3815m | 3.7m/s | 4.7°C | 84.4% | 647.5hPa | 0V | 00:00:00 | 00:00:00 | 00:00:00 | |
| PU1XMG-16 | 2026-08-30 23:41:43 | -22.81005 | -43.23673 | 333° | 13km/h | 3780m | 7.1m/s | 4.9°C | 84.7% | 650.0hPa | 0V | 00:00:00 | 00:00:00 | 00:00:00 | |
| PU1XMG-16 | 2026-08-30 23:41:38 | -22.81005 | -43.23673 | 142° | 20km/h | 3751m | 6.3m/s | 5.2°C | 84.2% | 652.6hPa | 0V | 00:00:00 | 00:00:00 | 00:00:00 | |
| PU1XMG-16 | 2026-08-30 23:41:33 | -22.80988 | -43.23702 | 108° | 7km/h | 3719m | 8.7m/s | 5.4°C | 84.6% | 655.6hPa | 0V | 00:00:00 | 00:00:00 | 00:00:00 | |
| PU1XMG-16 | 2026-08-30 23:41:27 | -22.80983 | -43.23710 | 140° | 4km/h | 3683m | 9.5m/s | 5.6°C | 87.8% | 658.1hPa | 0V | 00:00:00 | 00:00:00 | 00:00:00 | |
| PU1XMG-16 | 2026-08-30 23:41:21 | -22.80972 | -43.23722 | 137° | 18km/h | 3649m | 7.6m/s | 5.8°C | 89.8% | 660.9hPa | 0V | 00:00:00 | 00:00:00 | 00:00:00 | |
| PU1XMG-16 | 2026-08-30 23:41:16 | -22.80958 | -43.23731 | 149° | 18km/h | 3619m | 4.9m/s | 5.9°C | 91.0% | 663.2hPa | 0V | 00:00:00 | 00:00:00 | 00:00:00 | |
| PU1XMG-16 | 2026-08-30 23:41:10 | -22.80923 | -43.23747 | 142° | 29km/h | 3588m | 4.3m/s | 6.1°C | 90.0% | 665.6hPa | 0V | 00:00:00 | 00:00:00 | 00:00:00 | |
| PU1XMG-16 | 2026-08-30 23:41:05 | -22.80898 | -43.23763 | 188° | 13km/h | 3558m | 5.9m/s | 6.3°C | 89.8% | 668.0hPa | 0V | 00:00:00 | 00:00:00 | 00:00:00 | |
| PU1XMG-16 | 2026-08-30 23:40:59 | -22.80882 | -43.23765 | 169° | 16km/h | 3525m | 4.9m/s | 6.6°C | 89.4% | 670.5hPa | 0V | 00:00:00 | 00:00:00 | 00:00:00 | |
| PU1XMG-16 | 2026-08-30 23:40:55 | -22.80869 | -43.23773 | 140° | 16km/h | 3497m | 3.1m/s | 6.8°C | 87.4% | 673.0hPa | 0V | 00:00:00 | 00:00:00 | 00:00:00 | |
| PU1XMG-16 | 2026-08-30 23:40:49 | -22.80843 | -43.23783 | 132° | 20km/h | 3463m | 4.3m/s | 7.2°C | 80.6% | 676.0hPa | 0V | 00:00:00 | 00:00:00 | 00:00:00 | |
| PU1XMG-16 | 2026-08-30 23:40:43 | -22.80833 | -43.23799 | 148° | 5km/h | 3429m | 7.2m/s | 7.5°C | 77.3% | 678.7hPa | 0V | 00:00:00 | 00:00:00 | 00:00:00 | |
| PU1XMG-16 | 2026-08-30 23:40:38 | -22.80827 | -43.23806 | 187° | 13km/h | 3397m | 4.9m/s | 7.8°C | 74.7% | 681.4hPa | 0V | 00:00:00 | 00:00:00 | 00:00:00 | |
| PU1XMG-16 | 2026-08-30 23:40:31 | -22.80808 | -43.23805 | 172° | 16km/h | 3368m | 5.2m/s | 8.1°C | 73.9% | 684.0hPa | 0V | 00:00:00 | 00:00:00 | 00:00:00 | |
| PU1XMG-16 | 2026-08-30 23:40:26 | -22.80788 | -43.23802 | 160° | 15km/h | 3338m | 7.5m/s | 8.4°C | 73.2% | 686.4hPa | 0V | 00:00:00 | 00:00:00 | 00:00:00 | |
| PU1XMG-16 | 2026-08-30 23:40:21 | -22.80783 | -43.23810 | 262° | 7km/h | 3304m | 6.2m/s | 8.7°C | 69.4% | 689.1hPa | 0V | 00:00:00 | 00:00:00 | 00:00:00 | |
| PU1XMG-16 | 2026-08-30 23:40:15 | -22.80762 | -43.23801 | 177° | 24km/h | 3279m | 4.9m/s | 8.8°C | 67.2% | 691.1hPa | 0V | 00:00:00 | 00:00:00 | 00:00:00 | |
| PU1XMG-16 | 2026-08-30 23:40:11 | -22.80744 | -43.23803 | 202° | 13km/h | 3251m | 6.0m/s | 9.0°C | 67.3% | 693.5hPa | 0V | 00:00:00 | 00:00:00 | 00:00:00 | |
| PU1XMG-16 | 2026-08-30 23:40:05 | -22.80725 | -43.23802 | 158° | 9km/h | 3216m | 6.2m/s | 9.3°C | 67.1% | 696.2hPa | 0V | 00:00:00 | 00:00:00 | 00:00:00 | |
| PU1XMG-16 | 2026-08-30 23:39:59 | -22.80708 | -43.23788 | 239° | 5km/h | 3179m | 4.7m/s | 9.6°C | 66.6% | 699.4hPa | 0V | 00:00:00 | 00:00:00 | 00:00:00 | |
| PU1XMG-16 | 2026-08-30 23:39:53 | -22.80689 | -43.23795 | 168° | 16km/h | 3152m | 6.7m/s | 9.8°C | 63.8% | 701.7hPa | 0V | 00:00:00 | 00:00:00 | 00:00:00 | |
| PU1XMG-16 | 2026-08-30 23:39:46 | -22.80687 | -43.23789 | 239° | 15km/h | 3117m | 4.8m/s | 10.1°C | 63.8% | 704.5hPa | 0V | 00:00:00 | 00:00:00 | 00:00:00 | |
| PU1XMG-16 | 2026-08-30 23:39:40 | -22.80664 | -43.23783 | 188° | 4km/h | 3089m | 6.3m/s | 10.3°C | 63.1% | 707.1hPa | 0V | 00:00:00 | 00:00:00 | 00:00:00 | |
| PU1XMG-16 | 2026-08-30 23:39:35 | -22.80667 | -43.23778 | 224° | 11km/h | 3059m | 6.4m/s | 10.6°C | 63.4% | 709.6hPa | 0V | 00:00:00 | 00:00:00 | 00:00:00 | |
| PU1XMG-16 | 2026-08-30 23:39:30 | -22.80655 | -43.23769 | 276° | 4km/h | 3032m | 4.1m/s | 10.7°C | 63.7% | 711.9hPa | 0V | 00:00:00 | 00:00:00 | 00:00:00 | |
| PU1XMG-16 | 2026-08-30 23:39:25 | -22.80664 | -43.23762 | 13° | 2km/h | 3004m | 6.3m/s | 10.9°C | 64.1% | 714.1hPa | 0V | 00:00:00 | 00:00:00 | 00:00:00 | |
| PU1XMG-16 | 2026-08-30 23:39:14 | -22.80633 | -43.23736 | 212° | 18km/h | 2942m | 6.9m/s | 11.4°C | 63.9% | 719.4hPa | 0V | 00:00:00 | 00:00:00 | 00:00:00 | |
| PU1XMG-16 | 2026-08-30 23:39:08 | -22.80621 | -43.23727 | 248° | 18km/h | 2912m | 6.9m/s | 11.6°C | 63.1% | 722.2hPa | 0V | 00:00:00 | 00:00:00 | 00:00:00 | |
| PU1XMG-16 | 2026-08-30 23:39:01 | -22.80592 | -43.23713 | 165° | 15km/h | 2879m | 5.9m/s | 11.8°C | 63.2% | 725.0hPa | 0V | 00:00:00 | 00:00:00 | 00:00:00 | |
| PU1XMG-16 | 2026-08-30 23:38:56 | -22.80589 | -43.23709 | 285° | 9km/h | 2856m | 4.7m/s | 11.9°C | 65.6% | 727.2hPa | 0V | 00:00:00 | 00:00:00 | 00:00:00 | |
| PU1XMG-16 | 2026-08-30 23:38:51 | -22.80581 | -43.23701 | 209° | 20km/h | 2829m | 5.4m/s | 12.0°C | 68.8% | 729.2hPa | 0V | 00:00:00 | 00:00:00 | 00:00:00 | |
| PU1XMG-16 | 2026-08-30 23:38:47 | -22.80563 | -43.23684 | 219° | 9km/h | 2807m | 4.8m/s | 12.0°C | 75.4% | 731.6hPa | 0V | 00:00:00 | 00:00:00 | 00:00:00 | |
| PU1XMG-16 | 2026-08-30 23:38:41 | -22.80552 | -43.23668 | 207° | 15km/h | 2767m | 6.7m/s | 12.1°C | 85.6% | 734.8hPa | 0V | 00:00:00 | 00:00:00 | 00:00:00 | |
| PU1XMG-16 | 2026-08-30 23:38:35 | -22.80541 | -43.23667 | 195° | 15km/h | 2738m | 7.7m/s | 12.3°C | 90.9% | 737.3hPa | 0V | 00:00:00 | 00:00:00 | 00:00:00 | |
| PU1XMG-16 | 2026-08-30 23:38:31 | -22.80521 | -43.23650 | 231° | 13km/h | 2711m | 5.8m/s | 12.5°C | 96.2% | 739.7hPa | 0V | 00:00:00 | 00:00:00 | 00:00:00 | |
| PU1XMG-16 | 2026-08-30 23:38:25 | -22.80504 | -43.23645 | 236° | 16km/h | 2675m | 7.4m/s | 12.8°C | 88.1% | 742.6hPa | 0V | 00:00:00 | 00:00:00 | 00:00:00 | |
| PU1XMG-16 | 2026-08-30 23:38:19 | -22.80485 | -43.23623 | 198° | 24km/h | 2641m | 6.0m/s | 13.0°C | 84.8% | 745.7hPa | 0V | 00:00:00 | 00:00:00 | 00:00:00 | |
| PU1XMG-16 | 2026-08-30 23:38:15 | -22.80467 | -43.23611 | 234° | 20km/h | 2613m | 6.3m/s | 13.2°C | 85.8% | 748.0hPa | 0V | 00:00:00 | 00:00:00 | 00:00:00 | |
| PU1XMG-16 | 2026-08-30 23:38:10 | -22.80444 | -43.23599 | 179° | 16km/h | 2584m | 5.1m/s | 13.4°C | 89.6% | 750.6hPa | 0V | 00:00:00 | 00:00:00 | 00:00:00 | |
| PU1XMG-16 | 2026-08-30 23:38:03 | -22.80425 | -43.23585 | 237° | 15km/h | 2548m | 9.3m/s | 13.6°C | 88.7% | 753.9hPa | 0V | 00:00:00 | 00:00:00 | 00:00:00 | |
| PU1XMG-16 | 2026-08-30 23:37:57 | -22.80415 | -43.23561 | 219° | 11km/h | 2508m | 5.6m/s | 13.9°C | 88.8% | 757.6hPa | 0V | 00:00:00 | 00:00:00 | 00:00:00 | |
| PU1XMG-16 | 2026-08-30 23:37:52 | -22.80389 | -43.23550 | 218° | 29km/h | 2479m | 4.2m/s | 14.1°C | 88.6% | 760.0hPa | 0V | 00:00:00 | 00:00:00 | 00:00:00 | |
| PU1XMG-16 | 2026-08-30 23:37:46 | -22.80370 | -43.23525 | 195° | 9km/h | 2445m | 5.9m/s | 14.4°C | 88.7% | 763.2hPa | 0V | 00:00:00 | 00:00:00 | 00:00:00 | |
| PU1XMG-16 | 2026-08-30 23:37:40 | -22.80368 | -43.23510 | 268° | 20km/h | 2411m | 5.6m/s | 14.6°C | 88.0% | 766.0hPa | 0V | 00:00:00 | 00:00:00 | 00:00:00 | |
| PU1XMG-16 | 2026-08-30 23:37:35 | -22.80355 | -43.23490 | 205° | 15km/h | 2379m | 7.8m/s | 14.9°C | 87.1% | 769.0hPa | 0V | 00:00:00 | 00:00:00 | 00:00:00 | |
| PU1XMG-16 | 2026-08-30 23:37:30 | -22.80337 | -43.23484 | 221° | 24km/h | 2346m | 7.0m/s | 15.1°C | 86.1% | 771.9hPa | 0V | 00:00:00 | 00:00:00 | 00:00:00 | |
| PU1XMG-16 | 2026-08-30 23:37:25 | -22.80317 | -43.23463 | 176° | 18km/h | 2311m | 5.0m/s | 15.3°C | 85.7% | 775.3hPa | 0V | 00:00:00 | 00:00:00 | 00:00:00 | |
| PU1XMG-16 | 2026-08-30 23:37:19 | -22.80305 | -43.23461 | 257° | 5km/h | 2278m | 6.7m/s | 15.5°C | 85.3% | 778.4hPa | 0V | 00:00:00 | 00:00:00 | 00:00:00 | |
| PU1XMG-16 | 2026-08-30 23:37:13 | -22.80288 | -43.23448 | 233° | 20km/h | 2246m | 5.8m/s | 15.7°C | 85.4% | 781.3hPa | 0V | 00:00:00 | 00:00:00 | 00:00:00 | |
| PU1XMG-16 | 2026-08-30 23:37:09 | -22.80282 | -43.23438 | 153° | 7km/h | 2215m | 5.3m/s | 15.8°C | 90.2% | 783.9hPa | 0V | 00:00:00 | 00:00:00 | 00:00:00 | |
| PU1XMG-16 | 2026-08-30 23:37:04 | -22.80272 | -43.23427 | 270° | 22km/h | 2188m | 5.6m/s | 16.0°C | 90.4% | 786.4hPa | 0V | 00:00:00 | 00:00:00 | 00:00:00 | |
| PU1XMG-16 | 2026-08-30 23:36:58 | -22.80258 | -43.23405 | 214° | 20km/h | 2152m | 6.5m/s | 16.2°C | 90.9% | 789.7hPa | 0V | 00:00:00 | 00:00:00 | 00:00:00 | |
| PU1XMG-16 | 2026-08-30 23:36:53 | -22.80243 | -43.23383 | 224° | 20km/h | 2122m | 8.4m/s | 16.3°C | 88.6% | 792.4hPa | 0V | 00:00:00 | 00:00:00 | 00:00:00 | |
| PU1XMG-16 | 2026-08-30 23:36:47 | -22.80225 | -43.23361 | 226° | 11km/h | 2085m | 7.0m/s | 16.4°C | 89.5% | 796.2hPa | 0V | 00:00:00 | 00:00:00 | 00:00:00 | |
| PU1XMG-16 | 2026-08-30 23:36:42 | -22.80209 | -43.23347 | 241° | 20km/h | 2056m | 6.4m/s | 16.6°C | 94.5% | 798.9hPa | 0V | 00:00:00 | 00:00:00 | 00:00:00 | |
| PU1XMG-16 | 2026-08-30 23:36:35 | -22.80195 | -43.23319 | 257° | 24km/h | 2015m | 7.5m/s | 16.7°C | 94.0% | 802.3hPa | 0V | 00:00:00 | 00:00:00 | 00:00:00 | |
| PU1XMG-16 | 2026-08-30 23:36:31 | -22.80190 | -43.23298 | 212° | 18km/h | 1984m | 5.6m/s | 16.9°C | 93.4% | 805.3hPa | 0V | 00:00:00 | 00:00:00 | 00:00:00 | |
| PU1XMG-16 | 2026-08-30 23:36:19 | -22.80151 | -43.23268 | 224° | 24km/h | 1908m | 6.5m/s | 17.0°C | 91.2% | 812.6hPa | 0V | 00:00:00 | 00:00:00 | 00:00:00 | |
| PU1XMG-16 | 2026-08-30 23:36:13 | -22.80121 | -43.23255 | 192° | 15km/h | 1876m | 5.4m/s | 17.1°C | 91.2% | 815.6hPa | 0V | 00:00:00 | 00:00:00 | 00:00:00 | |
| PU1XMG-16 | 2026-08-30 23:36:08 | -22.80106 | -43.23239 | 228° | 27km/h | 1848m | 5.8m/s | 17.2°C | 92.1% | 818.2hPa | 0V | 00:00:00 | 00:00:00 | 00:00:00 | |
| PU1XMG-16 | 2026-08-30 23:36:02 | -22.80070 | -43.23216 | 180° | 20km/h | 1810m | 5.3m/s | 17.2°C | 94.2% | 821.7hPa | 0V | 00:00:00 | 00:00:00 | 00:00:00 | |
| PU1XMG-16 | 2026-08-30 23:35:56 | -22.80027 | -43.23219 | 178° | 35km/h | 1771m | 9.0m/s | 17.4°C | 94.2% | 825.4hPa | 0V | 00:00:00 | 00:00:00 | 00:00:00 | |
| PU1XMG-16 | 2026-08-30 23:35:51 | -22.79976 | -43.23212 | 188° | 38km/h | 1743m | 6.2m/s | 17.5°C | 94.6% | 828.0hPa | 0V | 00:00:00 | 00:00:00 | 00:00:00 | |
| PU1XMG-16 | 2026-08-30 23:35:46 | -22.79943 | -43.23219 | 163° | 20km/h | 1715m | 6.1m/s | 17.6°C | 94.2% | 830.7hPa | 0V | 00:00:00 | 00:00:00 | 00:00:00 | |
| PU1XMG-16 | 2026-08-30 23:35:41 | -22.79906 | -43.23215 | 191° | 33km/h | 1679m | 5.3m/s | 17.8°C | 94.7% | 834.3hPa | 0V | 00:00:00 | 00:00:00 | 00:00:00 | |
| PU1XMG-16 | 2026-08-30 23:35:35 | -22.79877 | -43.23217 | 164° | 20km/h | 1651m | 4.5m/s | 17.8°C | 96.2% | 837.3hPa | 0V | 00:00:00 | 00:00:00 | 00:00:00 | |
| PU1XMG-16 | 2026-08-30 23:35:31 | -22.79861 | -43.23217 | 185° | 5km/h | 1624m | 8.9m/s | 17.6°C | 99.8% | 839.6hPa | 0V | 00:00:00 | 00:00:00 | 00:00:00 | |
| PU1XMG-16 | 2026-08-30 23:35:25 | -22.79838 | -43.23219 | 169° | 26km/h | 1591m | 6.6m/s | 17.8°C | 0% | 843.1hPa | 0V | 00:00:00 | 00:00:00 | 00:00:00 | |
| PU1XMG-16 | 2026-08-30 23:35:21 | -22.79813 | -43.23225 | 189° | 22km/h | 1561m | 5.7m/s | 18.0°C | 0% | 845.8hPa | 0V | 00:00:00 | 00:00:00 | 00:00:00 | |
| PU1XMG-16 | 2026-08-30 23:35:15 | -22.79773 | -43.23224 | 186° | 20km/h | 1529m | 5.4m/s | 18.1°C | 99.8% | 849.0hPa | 0V | 00:00:00 | 00:00:00 | 00:00:00 | |
| PU1XMG-16 | 2026-08-30 23:35:10 | -22.79756 | -43.23222 | 185° | 18km/h | 1501m | 6.3m/s | 18.2°C | 99.8% | 851.8hPa | 0V | 00:00:00 | 00:00:00 | 00:00:00 | |
| PU1XMG-16 | 2026-08-30 23:35:05 | -22.79737 | -43.23221 | 189° | 13km/h | 1472m | 9.0m/s | 18.2°C | 99.9% | 854.5hPa | 0V | 00:00:00 | 00:00:00 | 00:00:00 | |
| PU1XMG-16 | 2026-08-30 23:35:00 | -22.79725 | -43.23228 | 148° | 16km/h | 1440m | 7.6m/s | 18.2°C | 99.8% | 857.9hPa | 0V | 00:00:00 | 00:00:00 | 00:00:00 | |
| PU1XMG-16 | 2026-08-30 23:34:54 | -22.79712 | -43.23232 | 141° | 9km/h | 1411m | 5.1m/s | 18.4°C | 99.9% | 860.9hPa | 0V | 00:00:00 | 00:00:00 | 00:00:00 | |
| PU1XMG-16 | 2026-08-30 23:34:43 | -22.79690 | -43.23258 | 183° | 11km/h | 1349m | 5.0m/s | 18.6°C | 100.0% | 867.1hPa | 0V | 00:00:00 | 00:00:00 | 00:00:00 | |
| PU1XMG-16 | 2026-08-30 23:34:38 | -22.79682 | -43.23269 | 120° | 22km/h | 1320m | 6.2m/s | 18.6°C | 99.8% | 870.1hPa | 0V | 00:00:00 | 00:00:00 | 00:00:00 | |
| PU1XMG-16 | 2026-08-30 23:34:32 | -22.79671 | -43.23290 | 76° | 15km/h | 1284m | 5.8m/s | 18.6°C | 99.9% | 873.5hPa | 0V | 00:00:00 | 00:00:00 | 00:00:00 | |
| PU1XMG-16 | 2026-08-30 23:34:26 | -22.79671 | -43.23307 | 48° | 5km/h | 1247m | 8.1m/s | 18.7°C | 99.7% | 877.0hPa | 0V | 00:00:00 | 00:00:00 | 00:00:00 | |
| PU1XMG-16 | 2026-08-30 23:34:21 | -22.79668 | -43.23313 | 156° | 15km/h | 1212m | 7.3m/s | 18.7°C | 99.4% | 880.7hPa | 0V | 00:00:00 | 00:00:00 | 00:00:00 | |
| PU1XMG-16 | 2026-08-30 23:34:16 | -22.79661 | -43.23338 | 82° | 22km/h | 1182m | 7.0m/s | 18.7°C | 99.8% | 884.0hPa | 0V | 00:00:00 | 00:00:00 | 00:00:00 | |
| PU1XMG-16 | 2026-08-30 23:34:11 | -22.79673 | -43.23354 | 59° | 18km/h | 1153m | 5.7m/s | 18.8°C | 99.8% | 887.0hPa | 0V | 00:00:00 | 00:00:00 | 00:00:00 | |
| PU1XMG-16 | 2026-08-30 23:34:05 | -22.79679 | -43.23375 | 60° | 18km/h | 1120m | 5.3m/s | 18.8°C | 99.9% | 890.3hPa | 0V | 00:00:00 | 00:00:00 | 00:00:00 | |
| PU1XMG-16 | 2026-08-30 23:34:00 | -22.79683 | -43.23407 | 94° | 24km/h | 1095m | 4.1m/s | 18.6°C | 99.7% | 892.9hPa | 0V | 00:00:00 | 00:00:00 | 00:00:00 | |
| PU1XMG-16 | 2026-08-30 23:33:53 | -22.79692 | -43.23439 | 37° | 18km/h | 1064m | 5.6m/s | 18.6°C | 99.8% | 896.1hPa | 0V | 00:00:00 | 00:00:00 | 00:00:00 | |
| PU1XMG-16 | 2026-08-30 23:33:48 | -22.79705 | -43.23452 | 43° | 18km/h | 1036m | 7.6m/s | 18.7°C | 99.8% | 899.0hPa | 0V | 00:00:00 | 00:00:00 | 00:00:00 | |
| PU1XMG-16 | 2026-08-30 23:33:43 | -22.79724 | -43.23467 | 61° | 15km/h | 1006m | 3.8m/s | 18.8°C | 99.9% | 902.2hPa | 0V | 00:00:00 | 00:00:00 | 00:00:00 | |
| PU1XMG-16 | 2026-08-30 23:33:38 | -22.79748 | -43.23479 | 13° | 16km/h | 969m | 7.3m/s | 18.7°C | 99.5% | 906.1hPa | 0V | 00:00:00 | 00:00:00 | 00:00:00 | |
| PU1XMG-16 | 2026-08-30 23:33:33 | -22.79767 | -43.23491 | 44° | 26km/h | 936m | 5.5m/s | 18.8°C | 100.0% | 909.7hPa | 0V | 00:00:00 | 00:00:00 | 00:00:00 | |
| PU1XMG-16 | 2026-08-30 23:33:28 | -22.79783 | -43.23515 | 32° | 20km/h | 906m | 4.9m/s | 18.9°C | 99.7% | 912.8hPa | 0V | 00:00:00 | 00:00:00 | 00:00:00 | |
| PU1XMG-16 | 2026-08-30 23:33:23 | -22.79808 | -43.23538 | 66° | 24km/h | 880m | 5.4m/s | 18.8°C | 99.6% | 915.5hPa | 0V | 00:00:00 | 00:00:00 | 00:00:00 | |
| PU1XMG-16 | 2026-08-30 23:33:18 | -22.79829 | -43.23562 | 33° | 37km/h | 854m | 5.6m/s | 18.8°C | 99.7% | 918.6hPa | 0V | 00:00:00 | 00:00:00 | 00:00:00 | |
| PU1XMG-16 | 2026-08-30 23:33:13 | -22.79871 | -43.23600 | 41° | 42km/h | 831m | 7.3m/s | 18.9°C | 99.5% | 921.0hPa | 0V | 00:00:00 | 00:00:00 | 00:00:00 | |
| PU1XMG-16 | 2026-08-30 23:33:07 | -22.79907 | -43.23634 | 40° | 35km/h | 796m | 6.5m/s | 19.0°C | 0% | 924.5hPa | 0V | 00:00:00 | 00:00:00 | 00:00:00 | |
| PU1XMG-16 | 2026-08-30 23:33:01 | -22.79936 | -43.23675 | 60° | 33km/h | 768m | 5.3m/s | 19.1°C | 0% | 927.5hPa | 0V | 00:00:00 | 00:00:00 | 00:00:00 | |
| PU1XMG-16 | 2026-08-30 23:32:55 | -22.79964 | -43.23726 | 77° | 40km/h | 734m | 6.8m/s | 19.3°C | 0% | 931.2hPa | 0V | 00:00:00 | 00:00:00 | 00:00:00 | |
| PU1XMG-16 | 2026-08-30 23:32:50 | -22.79985 | -43.23779 | 55° | 38km/h | 695m | 5.6m/s | 19.4°C | 0% | 935.4hPa | 0V | 00:00:00 | 00:00:00 | 00:00:00 | |
| PU1XMG-16 | 2026-08-30 23:32:44 | -22.80016 | -43.23825 | 51° | 37km/h | 659m | 5.3m/s | 19.4°C | 0% | 939.1hPa | 0V | 00:00:00 | 00:00:00 | 00:00:00 | |
| PU1XMG-16 | 2026-08-30 23:32:38 | -22.80048 | -43.23873 | 58° | 47km/h | 634m | 4.6m/s | 19.3°C | 0% | 941.9hPa | 0V | 00:00:00 | 00:00:00 | 00:00:00 | |
| PU1XMG-16 | 2026-08-30 23:32:32 | -22.80098 | -43.23933 | 42° | 53km/h | 607m | 4.5m/s | 19.3°C | 0% | 944.9hPa | 0V | 00:00:00 | 00:00:00 | 00:00:00 | |
| PU1XMG-16 | 2026-08-30 23:32:27 | -22.80142 | -43.23977 | 45° | 55km/h | 580m | 8.1m/s | 19.4°C | 0% | 947.7hPa | 0V | 00:00:00 | 00:00:00 | 00:00:00 | |
| PU1XMG-16 | 2026-08-30 23:32:22 | -22.80182 | -43.24038 | 50° | 49km/h | 553m | 3.5m/s | 19.5°C | 0% | 950.9hPa | 0V | 00:00:00 | 00:00:00 | 00:00:00 | |
| PU1XMG-16 | 2026-08-30 23:32:17 | -22.80222 | -43.24086 | 44° | 40km/h | 526m | 6.5m/s | 19.7°C | 0% | 953.6hPa | 0V | 00:00:00 | 00:00:00 | 00:00:00 | |
| PU1XMG-16 | 2026-08-30 23:32:11 | -22.80272 | -43.24140 | 54° | 44km/h | 493m | 6.4m/s | 19.6°C | 0% | 957.4hPa | 0V | 00:00:00 | 00:00:00 | 00:00:00 | |
| PU1XMG-16 | 2026-08-30 23:32:06 | -22.80316 | -43.24199 | 58° | 60km/h | 464m | 7.8m/s | 0°C | 0% | 960.5hPa | 0V | 00:00:00 | 00:00:00 | 00:00:00 | |
| PU1XMG-16 | 2026-08-30 23:32:00 | -22.80363 | -43.24253 | 37° | 60km/h | 437m | 6.3m/s | 0°C | 0% | 963.5hPa | 0V | 00:00:00 | 00:00:00 | 00:00:00 | |
| PU1XMG-16 | 2026-08-30 23:31:56 | -22.80416 | -43.24307 | 46° | 49km/h | 409m | 6.2m/s | 0°C | 0% | 966.5hPa | 0V | 00:00:00 | 00:00:00 | 00:00:00 | |
| PU1XMG-16 | 2026-08-30 23:31:50 | -22.80474 | -43.24376 | 41° | 55km/h | 376m | 5.5m/s | 0°C | 0% | 0hPa | 0V | 00:00:00 | 00:00:00 | 00:00:00 | |
| PU1XMG-16 | 2026-08-30 23:31:43 | -22.80532 | -43.24436 | 43° | 55km/h | 348m | 4.1m/s | 0°C | 0% | 0hPa | 0V | 00:00:00 | 00:00:00 | 00:00:00 | |
| PU1XMG-16 | 2026-08-30 23:31:37 | -22.80602 | -43.24518 | 42° | 68km/h | 309m | 4.3m/s | 0°C | 0% | 0hPa | 0V | 00:00:00 | 00:00:00 | 00:00:00 | |
| PU1XMG-16 | 2026-08-30 23:31:32 | -22.80660 | -43.24572 | 54° | 58km/h | 282m | 4.3m/s | 0°C | 0% | 0hPa | 0V | 00:00:00 | 00:00:00 | 00:00:00 | |
| PU1XMG-16 | 2026-08-30 23:31:26 | -22.80700 | -43.24643 | 47° | 49km/h | 251m | 5.8m/s | 0°C | 0% | 0hPa | 0V | 00:00:00 | 00:00:00 | 00:00:00 |